<?xml version="1.0" encoding="UTF-8" standalone="no" ?>
<gpx xmlns="http://www.topografix.com/GPX/1/1" xmlns:xsi="http://www.w3.org/2001/XMLSchema-instance" xsi:schemaLocation="http://www.topografix.com/GPX/1/1 http://www.topografix.com/GPX/1/1/gpx.xsd" version="1.1" creator="VisuGPX - https://www.visugpx.com">
  <metadata>
    <name>ESPAGNE - PEDESTRE - Jaizkibel - Du cap du figuier à Guadalupeko</name>
    <desc><![CDATA[Super beau temps]]></desc>
  </metadata>
  <wpt lat="43.36942" lon="-1.8649">
    <ele>78.953491210938</ele>
    <name><![CDATA[Croisement]]></name>
    <desc><![CDATA[Croisement]]></desc>
    <cmt><![CDATA[Croisement]]></cmt>
  </wpt>
  <wpt lat="43.39137" lon="-1.79237">
    <ele>46.4</ele>
    <name><![CDATA[Depart-voiture]]></name>
    <desc><![CDATA[Depart-voiture-N2]]></desc>
    <cmt><![CDATA[Depart-voiture-N2]]></cmt>
  </wpt>
  <wpt lat="43.39205" lon="-1.79195">
    <ele>38.09765625</ele>
    <name><![CDATA[FARO DE HIGUER]]></name>
    <desc><![CDATA[FARO DE HIGUER]]></desc>
    <cmt><![CDATA[FARO DE HIGUER]]></cmt>
  </wpt>
  <wpt lat="43.36696" lon="-1.8209">
    <ele>189.98486328125</ele>
    <name><![CDATA[Guadalupeko Am]]></name>
    <desc><![CDATA[Guadalupeko Amaren Santutegia]]></desc>
    <cmt><![CDATA[Guadalupeko Amaren Santutegia]]></cmt>
  </wpt>
  <wpt lat="43.37044" lon="-1.81804">
    <ele>200.07861328125</ele>
    <name><![CDATA[Guadalupeko Go]]></name>
    <desc><![CDATA[Guadalupeko Gotorlekua]]></desc>
    <cmt><![CDATA[Guadalupeko Gotorlekua]]></cmt>
  </wpt>
  <wpt lat="43.34529" lon="-1.85594">
    <ele>543.0263671875</ele>
    <name><![CDATA[Jaizkibel-543m]]></name>
    <desc><![CDATA[Jaizkibel-543m]]></desc>
    <cmt><![CDATA[Jaizkibel-543m]]></cmt>
  </wpt>
  <wpt lat="43.35357" lon="-1.84088">
    <ele>430.072265625</ele>
    <name><![CDATA[Jaizkibel-monu]]></name>
    <desc><![CDATA[Jaizkibel-monument]]></desc>
    <cmt><![CDATA[Jaizkibel-monument]]></cmt>
  </wpt>
  <wpt lat="43.36849" lon="-1.86903">
    <ele>58.044799804688</ele>
    <name><![CDATA[La Concha]]></name>
    <desc><![CDATA[La Concha]]></desc>
    <cmt><![CDATA[La Concha]]></cmt>
  </wpt>
  <wpt lat="43.36798" lon="-1.82109">
    <ele>196.95434570312</ele>
    <name><![CDATA[Parking-voitur]]></name>
    <desc><![CDATA[Parking-voiture-N1]]></desc>
    <cmt><![CDATA[Parking-voiture-N1]]></cmt>
  </wpt>
  <wpt lat="43.37407" lon="-1.85877">
    <ele>3.009765625</ele>
    <name><![CDATA[Playa de Los F]]></name>
    <desc><![CDATA[Playa de Los Fósiles]]></desc>
    <cmt><![CDATA[Playa de Los Fósiles]]></cmt>
  </wpt>
  <trk>
    <name><![CDATA[ACTIVE LOG 002]]></name>
    <trkseg>
      <trkpt lat="43.39128" lon="-1.79377">
        <ele>33.302856445312</ele>
        <time>2015-08-20T08:12:31Z</time>
      </trkpt>
      <trkpt lat="43.39128" lon="-1.79376">
        <ele>33.302856445312</ele>
        <time>2015-08-20T08:12:32Z</time>
      </trkpt>
      <trkpt lat="43.39128" lon="-1.79375">
        <ele>32.822265625</ele>
        <time>2015-08-20T08:12:33Z</time>
      </trkpt>
      <trkpt lat="43.39127" lon="-1.79375">
        <ele>36.186767578125</ele>
        <time>2015-08-20T08:12:48Z</time>
      </trkpt>
      <trkpt lat="43.39127" lon="-1.79374">
        <ele>38.109375</ele>
        <time>2015-08-20T08:12:53Z</time>
      </trkpt>
      <trkpt lat="43.39127" lon="-1.79374">
        <ele>39.070678710938</ele>
        <time>2015-08-20T08:12:58Z</time>
      </trkpt>
      <trkpt lat="43.39127" lon="-1.79373">
        <ele>42.435424804688</ele>
        <time>2015-08-20T08:13:18Z</time>
      </trkpt>
      <trkpt lat="43.39128" lon="-1.79373">
        <ele>45.799926757812</ele>
        <time>2015-08-20T08:13:38Z</time>
      </trkpt>
      <trkpt lat="43.39129" lon="-1.79373">
        <ele>46.76123046875</ele>
        <time>2015-08-20T08:14:18Z</time>
      </trkpt>
      <trkpt lat="43.39129" lon="-1.79379">
        <ele>47.241821289062</ele>
        <time>2015-08-20T08:14:49Z</time>
      </trkpt>
      <trkpt lat="43.39127" lon="-1.7939">
        <ele>48.203369140625</ele>
        <time>2015-08-20T08:15:00Z</time>
      </trkpt>
      <trkpt lat="43.39122" lon="-1.79408">
        <ele>47.241821289062</ele>
        <time>2015-08-20T08:15:17Z</time>
      </trkpt>
      <trkpt lat="43.39117" lon="-1.7943">
        <ele>47.722534179688</ele>
        <time>2015-08-20T08:15:34Z</time>
      </trkpt>
      <trkpt lat="43.39113" lon="-1.79456">
        <ele>48.203369140625</ele>
        <time>2015-08-20T08:15:52Z</time>
      </trkpt>
      <trkpt lat="43.39105" lon="-1.79481">
        <ele>47.722534179688</ele>
        <time>2015-08-20T08:16:11Z</time>
      </trkpt>
      <trkpt lat="43.39096" lon="-1.79502">
        <ele>47.722534179688</ele>
        <time>2015-08-20T08:16:29Z</time>
      </trkpt>
      <trkpt lat="43.39094" lon="-1.79508">
        <ele>47.241821289062</ele>
        <time>2015-08-20T08:16:45Z</time>
      </trkpt>
      <trkpt lat="43.39087" lon="-1.79525">
        <ele>46.280639648438</ele>
        <time>2015-08-20T08:17:17Z</time>
      </trkpt>
      <trkpt lat="43.39078" lon="-1.79548">
        <ele>46.280639648438</ele>
        <time>2015-08-20T08:17:33Z</time>
      </trkpt>
      <trkpt lat="43.39064" lon="-1.79574">
        <ele>48.203369140625</ele>
        <time>2015-08-20T08:17:53Z</time>
      </trkpt>
      <trkpt lat="43.39054" lon="-1.79591">
        <ele>48.203369140625</ele>
        <time>2015-08-20T08:18:08Z</time>
      </trkpt>
      <trkpt lat="43.39038" lon="-1.79592">
        <ele>46.76123046875</ele>
        <time>2015-08-20T08:18:21Z</time>
      </trkpt>
      <trkpt lat="43.39024" lon="-1.79585">
        <ele>44.838623046875</ele>
        <time>2015-08-20T08:18:34Z</time>
      </trkpt>
      <trkpt lat="43.39015" lon="-1.7958">
        <ele>44.838623046875</ele>
        <time>2015-08-20T08:18:41Z</time>
      </trkpt>
      <trkpt lat="43.39001" lon="-1.79594">
        <ele>45.319213867188</ele>
        <time>2015-08-20T08:18:56Z</time>
      </trkpt>
      <trkpt lat="43.38996" lon="-1.79599">
        <ele>45.319213867188</ele>
        <time>2015-08-20T08:19:02Z</time>
      </trkpt>
      <trkpt lat="43.38981" lon="-1.79607">
        <ele>42.916015625</ele>
        <time>2015-08-20T08:19:16Z</time>
      </trkpt>
      <trkpt lat="43.38974" lon="-1.79606">
        <ele>42.435424804688</ele>
        <time>2015-08-20T08:19:21Z</time>
      </trkpt>
      <trkpt lat="43.38969" lon="-1.7961">
        <ele>41.473999023438</ele>
        <time>2015-08-20T08:19:25Z</time>
      </trkpt>
      <trkpt lat="43.38962" lon="-1.79645">
        <ele>39.55126953125</ele>
        <time>2015-08-20T08:19:44Z</time>
      </trkpt>
      <trkpt lat="43.38963" lon="-1.79651">
        <ele>39.070678710938</ele>
        <time>2015-08-20T08:19:48Z</time>
      </trkpt>
      <trkpt lat="43.38967" lon="-1.79663">
        <ele>38.590087890625</ele>
        <time>2015-08-20T08:19:57Z</time>
      </trkpt>
      <trkpt lat="43.38968" lon="-1.79665">
        <ele>38.590087890625</ele>
        <time>2015-08-20T08:19:59Z</time>
      </trkpt>
      <trkpt lat="43.3898" lon="-1.7969">
        <ele>37.628662109375</ele>
        <time>2015-08-20T08:20:15Z</time>
      </trkpt>
      <trkpt lat="43.3899" lon="-1.79715">
        <ele>37.148071289062</ele>
        <time>2015-08-20T08:20:33Z</time>
      </trkpt>
      <trkpt lat="43.39003" lon="-1.7974">
        <ele>38.109375</ele>
        <time>2015-08-20T08:20:51Z</time>
      </trkpt>
      <trkpt lat="43.39012" lon="-1.79764">
        <ele>38.109375</ele>
        <time>2015-08-20T08:21:08Z</time>
      </trkpt>
      <trkpt lat="43.39015" lon="-1.79774">
        <ele>40.512817382812</ele>
        <time>2015-08-20T08:21:15Z</time>
      </trkpt>
      <trkpt lat="43.39016" lon="-1.79789">
        <ele>41.954711914062</ele>
        <time>2015-08-20T08:21:25Z</time>
      </trkpt>
      <trkpt lat="43.39015" lon="-1.79812">
        <ele>41.954711914062</ele>
        <time>2015-08-20T08:21:40Z</time>
      </trkpt>
      <trkpt lat="43.39016" lon="-1.79832">
        <ele>41.954711914062</ele>
        <time>2015-08-20T08:21:54Z</time>
      </trkpt>
      <trkpt lat="43.39015" lon="-1.7986">
        <ele>41.954711914062</ele>
        <time>2015-08-20T08:22:09Z</time>
      </trkpt>
      <trkpt lat="43.39016" lon="-1.79863">
        <ele>41.954711914062</ele>
        <time>2015-08-20T08:22:11Z</time>
      </trkpt>
      <trkpt lat="43.39019" lon="-1.79872">
        <ele>40.993408203125</ele>
        <time>2015-08-20T08:22:16Z</time>
      </trkpt>
      <trkpt lat="43.39025" lon="-1.799">
        <ele>42.435424804688</ele>
        <time>2015-08-20T08:22:32Z</time>
      </trkpt>
      <trkpt lat="43.39026" lon="-1.79922">
        <ele>45.799926757812</ele>
        <time>2015-08-20T08:22:45Z</time>
      </trkpt>
      <trkpt lat="43.39029" lon="-1.79931">
        <ele>46.76123046875</ele>
        <time>2015-08-20T08:22:51Z</time>
      </trkpt>
      <trkpt lat="43.39022" lon="-1.79949">
        <ele>47.722534179688</ele>
        <time>2015-08-20T08:23:09Z</time>
      </trkpt>
      <trkpt lat="43.39021" lon="-1.79954">
        <ele>47.241821289062</ele>
        <time>2015-08-20T08:23:32Z</time>
      </trkpt>
      <trkpt lat="43.39021" lon="-1.79955">
        <ele>47.241821289062</ele>
        <time>2015-08-20T08:24:05Z</time>
      </trkpt>
      <trkpt lat="43.39018" lon="-1.7996">
        <ele>46.280639648438</ele>
        <time>2015-08-20T08:24:56Z</time>
      </trkpt>
      <trkpt lat="43.39007" lon="-1.79975">
        <ele>47.722534179688</ele>
        <time>2015-08-20T08:25:17Z</time>
      </trkpt>
      <trkpt lat="43.39" lon="-1.79989">
        <ele>47.722534179688</ele>
        <time>2015-08-20T08:25:32Z</time>
      </trkpt>
      <trkpt lat="43.38999" lon="-1.79989">
        <ele>47.241821289062</ele>
        <time>2015-08-20T08:25:43Z</time>
      </trkpt>
      <trkpt lat="43.3898" lon="-1.79997">
        <ele>47.241821289062</ele>
        <time>2015-08-20T08:26:03Z</time>
      </trkpt>
      <trkpt lat="43.38978" lon="-1.8003">
        <ele>44.358032226562</ele>
        <time>2015-08-20T08:26:24Z</time>
      </trkpt>
      <trkpt lat="43.38974" lon="-1.80059">
        <ele>41.473999023438</ele>
        <time>2015-08-20T08:26:42Z</time>
      </trkpt>
      <trkpt lat="43.38969" lon="-1.80068">
        <ele>40.512817382812</ele>
        <time>2015-08-20T08:26:49Z</time>
      </trkpt>
      <trkpt lat="43.38952" lon="-1.80075">
        <ele>40.512817382812</ele>
        <time>2015-08-20T08:27:06Z</time>
      </trkpt>
      <trkpt lat="43.38929" lon="-1.8007">
        <ele>40.993408203125</ele>
        <time>2015-08-20T08:27:26Z</time>
      </trkpt>
      <trkpt lat="43.38911" lon="-1.8007">
        <ele>43.396606445312</ele>
        <time>2015-08-20T08:27:43Z</time>
      </trkpt>
      <trkpt lat="43.38898" lon="-1.80084">
        <ele>43.396606445312</ele>
        <time>2015-08-20T08:27:57Z</time>
      </trkpt>
      <trkpt lat="43.38888" lon="-1.80106">
        <ele>42.916015625</ele>
        <time>2015-08-20T08:28:13Z</time>
      </trkpt>
      <trkpt lat="43.38885" lon="-1.80117">
        <ele>42.916015625</ele>
        <time>2015-08-20T08:28:20Z</time>
      </trkpt>
      <trkpt lat="43.38868" lon="-1.80132">
        <ele>41.954711914062</ele>
        <time>2015-08-20T08:28:36Z</time>
      </trkpt>
      <trkpt lat="43.38861" lon="-1.80142">
        <ele>40.993408203125</ele>
        <time>2015-08-20T08:28:46Z</time>
      </trkpt>
      <trkpt lat="43.3886" lon="-1.80163">
        <ele>37.628662109375</ele>
        <time>2015-08-20T08:29:02Z</time>
      </trkpt>
      <trkpt lat="43.38859" lon="-1.80166">
        <ele>37.628662109375</ele>
        <time>2015-08-20T08:29:04Z</time>
      </trkpt>
      <trkpt lat="43.38848" lon="-1.80183">
        <ele>37.148071289062</ele>
        <time>2015-08-20T08:29:19Z</time>
      </trkpt>
      <trkpt lat="43.38839" lon="-1.80193">
        <ele>36.66748046875</ele>
        <time>2015-08-20T08:29:32Z</time>
      </trkpt>
      <trkpt lat="43.38837" lon="-1.80208">
        <ele>34.26416015625</ele>
        <time>2015-08-20T08:29:41Z</time>
      </trkpt>
      <trkpt lat="43.38827" lon="-1.80236">
        <ele>30.899536132812</ele>
        <time>2015-08-20T08:29:58Z</time>
      </trkpt>
      <trkpt lat="43.38814" lon="-1.80245">
        <ele>27.534912109375</ele>
        <time>2015-08-20T08:30:09Z</time>
      </trkpt>
      <trkpt lat="43.38795" lon="-1.80251">
        <ele>24.651000976562</ele>
        <time>2015-08-20T08:30:26Z</time>
      </trkpt>
      <trkpt lat="43.38788" lon="-1.80254">
        <ele>21.766967773438</ele>
        <time>2015-08-20T08:30:36Z</time>
      </trkpt>
      <trkpt lat="43.38785" lon="-1.80258">
        <ele>21.766967773438</ele>
        <time>2015-08-20T08:30:40Z</time>
      </trkpt>
      <trkpt lat="43.38774" lon="-1.80263">
        <ele>17.921752929688</ele>
        <time>2015-08-20T08:30:59Z</time>
      </trkpt>
      <trkpt lat="43.38763" lon="-1.80266">
        <ele>18.40234375</ele>
        <time>2015-08-20T08:31:10Z</time>
      </trkpt>
      <trkpt lat="43.38763" lon="-1.80278">
        <ele>18.883056640625</ele>
        <time>2015-08-20T08:31:21Z</time>
      </trkpt>
      <trkpt lat="43.38768" lon="-1.80291">
        <ele>20.8056640625</ele>
        <time>2015-08-20T08:31:35Z</time>
      </trkpt>
      <trkpt lat="43.38762" lon="-1.80308">
        <ele>23.689575195312</ele>
        <time>2015-08-20T08:31:52Z</time>
      </trkpt>
      <trkpt lat="43.38753" lon="-1.80324">
        <ele>27.054321289062</ele>
        <time>2015-08-20T08:32:09Z</time>
      </trkpt>
      <trkpt lat="43.38745" lon="-1.80331">
        <ele>27.534912109375</ele>
        <time>2015-08-20T08:32:19Z</time>
      </trkpt>
      <trkpt lat="43.38746" lon="-1.80358">
        <ele>28.496215820312</ele>
        <time>2015-08-20T08:32:38Z</time>
      </trkpt>
      <trkpt lat="43.38756" lon="-1.80376">
        <ele>30.418823242188</ele>
        <time>2015-08-20T08:32:54Z</time>
      </trkpt>
      <trkpt lat="43.38767" lon="-1.80395">
        <ele>29.45751953125</ele>
        <time>2015-08-20T08:33:12Z</time>
      </trkpt>
      <trkpt lat="43.38769" lon="-1.80401">
        <ele>28.496215820312</ele>
        <time>2015-08-20T08:33:16Z</time>
      </trkpt>
      <trkpt lat="43.38773" lon="-1.80422">
        <ele>26.573608398438</ele>
        <time>2015-08-20T08:33:30Z</time>
      </trkpt>
      <trkpt lat="43.3878" lon="-1.80434">
        <ele>23.208984375</ele>
        <time>2015-08-20T08:33:40Z</time>
      </trkpt>
      <trkpt lat="43.38782" lon="-1.80439">
        <ele>22.728271484375</ele>
        <time>2015-08-20T08:33:44Z</time>
      </trkpt>
      <trkpt lat="43.38775" lon="-1.80465">
        <ele>21.286376953125</ele>
        <time>2015-08-20T08:34:01Z</time>
      </trkpt>
      <trkpt lat="43.38774" lon="-1.8047">
        <ele>20.8056640625</ele>
        <time>2015-08-20T08:34:04Z</time>
      </trkpt>
      <trkpt lat="43.38786" lon="-1.80468">
        <ele>18.40234375</ele>
        <time>2015-08-20T08:34:15Z</time>
      </trkpt>
      <trkpt lat="43.38789" lon="-1.80474">
        <ele>15.9990234375</ele>
        <time>2015-08-20T08:34:23Z</time>
      </trkpt>
      <trkpt lat="43.3878" lon="-1.80491">
        <ele>12.634399414062</ele>
        <time>2015-08-20T08:34:40Z</time>
      </trkpt>
      <trkpt lat="43.38779" lon="-1.80493">
        <ele>12.15380859375</ele>
        <time>2015-08-20T08:34:42Z</time>
      </trkpt>
      <trkpt lat="43.38766" lon="-1.8051">
        <ele>9.7506103515625</ele>
        <time>2015-08-20T08:34:59Z</time>
      </trkpt>
      <trkpt lat="43.38762" lon="-1.80519">
        <ele>13.115112304688</ele>
        <time>2015-08-20T08:35:08Z</time>
      </trkpt>
      <trkpt lat="43.38749" lon="-1.80528">
        <ele>15.9990234375</ele>
        <time>2015-08-20T08:35:24Z</time>
      </trkpt>
      <trkpt lat="43.38739" lon="-1.80537">
        <ele>19.36376953125</ele>
        <time>2015-08-20T08:35:36Z</time>
      </trkpt>
      <trkpt lat="43.3873" lon="-1.80545">
        <ele>22.728271484375</ele>
        <time>2015-08-20T08:35:49Z</time>
      </trkpt>
      <trkpt lat="43.38723" lon="-1.80553">
        <ele>23.689575195312</ele>
        <time>2015-08-20T08:36:02Z</time>
      </trkpt>
      <trkpt lat="43.38708" lon="-1.80564">
        <ele>27.054321289062</ele>
        <time>2015-08-20T08:36:14Z</time>
      </trkpt>
      <trkpt lat="43.38701" lon="-1.80574">
        <ele>28.976928710938</ele>
        <time>2015-08-20T08:36:27Z</time>
      </trkpt>
      <trkpt lat="43.38708" lon="-1.80589">
        <ele>32.341552734375</ele>
        <time>2015-08-20T08:36:43Z</time>
      </trkpt>
      <trkpt lat="43.38718" lon="-1.80596">
        <ele>35.225463867188</ele>
        <time>2015-08-20T08:36:54Z</time>
      </trkpt>
      <trkpt lat="43.38715" lon="-1.80601">
        <ele>37.148071289062</ele>
        <time>2015-08-20T08:37:02Z</time>
      </trkpt>
      <trkpt lat="43.38707" lon="-1.80606">
        <ele>40.512817382812</ele>
        <time>2015-08-20T08:37:14Z</time>
      </trkpt>
      <trkpt lat="43.38707" lon="-1.80607">
        <ele>40.512817382812</ele>
        <time>2015-08-20T08:37:15Z</time>
      </trkpt>
      <trkpt lat="43.38702" lon="-1.80622">
        <ele>43.396606445312</ele>
        <time>2015-08-20T08:37:31Z</time>
      </trkpt>
      <trkpt lat="43.38707" lon="-1.80635">
        <ele>46.280639648438</ele>
        <time>2015-08-20T08:37:43Z</time>
      </trkpt>
      <trkpt lat="43.38709" lon="-1.80645">
        <ele>46.76123046875</ele>
        <time>2015-08-20T08:37:50Z</time>
      </trkpt>
      <trkpt lat="43.38714" lon="-1.80662">
        <ele>45.799926757812</ele>
        <time>2015-08-20T08:38:03Z</time>
      </trkpt>
      <trkpt lat="43.38716" lon="-1.80665">
        <ele>45.799926757812</ele>
        <time>2015-08-20T08:38:06Z</time>
      </trkpt>
      <trkpt lat="43.38716" lon="-1.80674">
        <ele>46.76123046875</ele>
        <time>2015-08-20T08:38:12Z</time>
      </trkpt>
      <trkpt lat="43.38712" lon="-1.80688">
        <ele>48.203369140625</ele>
        <time>2015-08-20T08:38:24Z</time>
      </trkpt>
      <trkpt lat="43.3871" lon="-1.80697">
        <ele>49.16455078125</ele>
        <time>2015-08-20T08:38:34Z</time>
      </trkpt>
      <trkpt lat="43.3871" lon="-1.80704">
        <ele>49.16455078125</ele>
        <time>2015-08-20T08:38:39Z</time>
      </trkpt>
      <trkpt lat="43.3872" lon="-1.80727">
        <ele>49.16455078125</ele>
        <time>2015-08-20T08:38:54Z</time>
      </trkpt>
      <trkpt lat="43.38726" lon="-1.80745">
        <ele>48.203369140625</ele>
        <time>2015-08-20T08:39:11Z</time>
      </trkpt>
      <trkpt lat="43.38724" lon="-1.80755">
        <ele>49.645263671875</ele>
        <time>2015-08-20T08:39:20Z</time>
      </trkpt>
      <trkpt lat="43.38725" lon="-1.80764">
        <ele>50.606567382812</ele>
        <time>2015-08-20T08:39:25Z</time>
      </trkpt>
      <trkpt lat="43.38721" lon="-1.80772">
        <ele>52.048583984375</ele>
        <time>2015-08-20T08:39:32Z</time>
      </trkpt>
      <trkpt lat="43.38716" lon="-1.80791">
        <ele>53.97119140625</ele>
        <time>2015-08-20T08:39:49Z</time>
      </trkpt>
      <trkpt lat="43.3871" lon="-1.80809">
        <ele>53.490478515625</ele>
        <time>2015-08-20T08:40:03Z</time>
      </trkpt>
      <trkpt lat="43.38704" lon="-1.80818">
        <ele>55.4130859375</ele>
        <time>2015-08-20T08:40:14Z</time>
      </trkpt>
      <trkpt lat="43.38703" lon="-1.8082">
        <ele>54.451782226562</ele>
        <time>2015-08-20T08:40:15Z</time>
      </trkpt>
      <trkpt lat="43.38696" lon="-1.80823">
        <ele>55.4130859375</ele>
        <time>2015-08-20T08:40:21Z</time>
      </trkpt>
      <trkpt lat="43.38693" lon="-1.8083">
        <ele>55.4130859375</ele>
        <time>2015-08-20T08:40:26Z</time>
      </trkpt>
      <trkpt lat="43.38692" lon="-1.80836">
        <ele>55.893798828125</ele>
        <time>2015-08-20T08:40:29Z</time>
      </trkpt>
      <trkpt lat="43.38698" lon="-1.80866">
        <ele>53.009765625</ele>
        <time>2015-08-20T08:40:48Z</time>
      </trkpt>
      <trkpt lat="43.38699" lon="-1.8087">
        <ele>52.529174804688</ele>
        <time>2015-08-20T08:40:51Z</time>
      </trkpt>
      <trkpt lat="43.38703" lon="-1.80902">
        <ele>52.529174804688</ele>
        <time>2015-08-20T08:41:12Z</time>
      </trkpt>
      <trkpt lat="43.387" lon="-1.80917">
        <ele>52.048583984375</ele>
        <time>2015-08-20T08:41:24Z</time>
      </trkpt>
      <trkpt lat="43.38692" lon="-1.80928">
        <ele>53.97119140625</ele>
        <time>2015-08-20T08:41:38Z</time>
      </trkpt>
      <trkpt lat="43.38687" lon="-1.80941">
        <ele>56.37451171875</ele>
        <time>2015-08-20T08:41:52Z</time>
      </trkpt>
      <trkpt lat="43.38679" lon="-1.80952">
        <ele>59.739135742188</ele>
        <time>2015-08-20T08:42:06Z</time>
      </trkpt>
      <trkpt lat="43.3867" lon="-1.80962">
        <ele>62.142333984375</ele>
        <time>2015-08-20T08:42:22Z</time>
      </trkpt>
      <trkpt lat="43.38664" lon="-1.80975">
        <ele>64.065063476562</ele>
        <time>2015-08-20T08:42:34Z</time>
      </trkpt>
      <trkpt lat="43.38665" lon="-1.80996">
        <ele>65.507080078125</ele>
        <time>2015-08-20T08:42:49Z</time>
      </trkpt>
      <trkpt lat="43.38664" lon="-1.81005">
        <ele>64.065063476562</ele>
        <time>2015-08-20T08:42:55Z</time>
      </trkpt>
      <trkpt lat="43.38663" lon="-1.81009">
        <ele>63.584350585938</ele>
        <time>2015-08-20T08:42:58Z</time>
      </trkpt>
      <trkpt lat="43.38652" lon="-1.81025">
        <ele>63.103637695312</ele>
        <time>2015-08-20T08:43:13Z</time>
      </trkpt>
      <trkpt lat="43.38647" lon="-1.81046">
        <ele>62.622924804688</ele>
        <time>2015-08-20T08:43:28Z</time>
      </trkpt>
      <trkpt lat="43.38643" lon="-1.81062">
        <ele>61.181030273438</ele>
        <time>2015-08-20T08:43:39Z</time>
      </trkpt>
      <trkpt lat="43.38639" lon="-1.8108">
        <ele>60.2197265625</ele>
        <time>2015-08-20T08:43:52Z</time>
      </trkpt>
      <trkpt lat="43.38632" lon="-1.81095">
        <ele>59.739135742188</ele>
        <time>2015-08-20T08:44:03Z</time>
      </trkpt>
      <trkpt lat="43.38623" lon="-1.81113">
        <ele>60.2197265625</ele>
        <time>2015-08-20T08:44:15Z</time>
      </trkpt>
      <trkpt lat="43.38617" lon="-1.81134">
        <ele>61.661743164062</ele>
        <time>2015-08-20T08:44:28Z</time>
      </trkpt>
      <trkpt lat="43.38615" lon="-1.81148">
        <ele>63.103637695312</ele>
        <time>2015-08-20T08:44:40Z</time>
      </trkpt>
      <trkpt lat="43.38621" lon="-1.81176">
        <ele>62.622924804688</ele>
        <time>2015-08-20T08:44:59Z</time>
      </trkpt>
      <trkpt lat="43.38626" lon="-1.81193">
        <ele>61.661743164062</ele>
        <time>2015-08-20T08:45:12Z</time>
      </trkpt>
      <trkpt lat="43.38633" lon="-1.81217">
        <ele>58.777709960938</ele>
        <time>2015-08-20T08:45:27Z</time>
      </trkpt>
      <trkpt lat="43.38633" lon="-1.8123">
        <ele>56.855102539062</ele>
        <time>2015-08-20T08:45:38Z</time>
      </trkpt>
      <trkpt lat="43.38637" lon="-1.81247">
        <ele>53.97119140625</ele>
        <time>2015-08-20T08:45:51Z</time>
      </trkpt>
      <trkpt lat="43.38648" lon="-1.81262">
        <ele>51.087158203125</ele>
        <time>2015-08-20T08:46:05Z</time>
      </trkpt>
      <trkpt lat="43.38648" lon="-1.81264">
        <ele>50.1259765625</ele>
        <time>2015-08-20T08:46:07Z</time>
      </trkpt>
      <trkpt lat="43.38647" lon="-1.81285">
        <ele>49.16455078125</ele>
        <time>2015-08-20T08:46:21Z</time>
      </trkpt>
      <trkpt lat="43.38652" lon="-1.81309">
        <ele>45.319213867188</ele>
        <time>2015-08-20T08:46:36Z</time>
      </trkpt>
      <trkpt lat="43.38654" lon="-1.81317">
        <ele>44.838623046875</ele>
        <time>2015-08-20T08:46:42Z</time>
      </trkpt>
      <trkpt lat="43.3864" lon="-1.81336">
        <ele>41.473999023438</ele>
        <time>2015-08-20T08:47:02Z</time>
      </trkpt>
      <trkpt lat="43.38638" lon="-1.81335">
        <ele>40.993408203125</ele>
        <time>2015-08-20T08:47:04Z</time>
      </trkpt>
      <trkpt lat="43.3863" lon="-1.81338">
        <ele>38.590087890625</ele>
        <time>2015-08-20T08:47:15Z</time>
      </trkpt>
      <trkpt lat="43.38636" lon="-1.81353">
        <ele>36.66748046875</ele>
        <time>2015-08-20T08:47:33Z</time>
      </trkpt>
      <trkpt lat="43.38629" lon="-1.81353">
        <ele>34.26416015625</ele>
        <time>2015-08-20T08:47:49Z</time>
      </trkpt>
      <trkpt lat="43.38636" lon="-1.81374">
        <ele>31.380126953125</ele>
        <time>2015-08-20T08:48:10Z</time>
      </trkpt>
      <trkpt lat="43.3863" lon="-1.81376">
        <ele>29.45751953125</ele>
        <time>2015-08-20T08:48:19Z</time>
      </trkpt>
      <trkpt lat="43.38624" lon="-1.81372">
        <ele>27.054321289062</ele>
        <time>2015-08-20T08:48:27Z</time>
      </trkpt>
      <trkpt lat="43.38618" lon="-1.81364">
        <ele>24.651000976562</ele>
        <time>2015-08-20T08:48:41Z</time>
      </trkpt>
      <trkpt lat="43.38607" lon="-1.81343">
        <ele>23.208984375</ele>
        <time>2015-08-20T08:48:58Z</time>
      </trkpt>
      <trkpt lat="43.38603" lon="-1.81345">
        <ele>23.208984375</ele>
        <time>2015-08-20T08:49:03Z</time>
      </trkpt>
      <trkpt lat="43.38602" lon="-1.8135">
        <ele>23.208984375</ele>
        <time>2015-08-20T08:49:07Z</time>
      </trkpt>
      <trkpt lat="43.38605" lon="-1.81361">
        <ele>19.844360351562</ele>
        <time>2015-08-20T08:49:20Z</time>
      </trkpt>
      <trkpt lat="43.38605" lon="-1.81362">
        <ele>19.36376953125</ele>
        <time>2015-08-20T08:49:21Z</time>
      </trkpt>
      <trkpt lat="43.38604" lon="-1.81375">
        <ele>16.479736328125</ele>
        <time>2015-08-20T08:49:34Z</time>
      </trkpt>
      <trkpt lat="43.38609" lon="-1.81391">
        <ele>14.557006835938</ele>
        <time>2015-08-20T08:49:52Z</time>
      </trkpt>
      <trkpt lat="43.3861" lon="-1.814">
        <ele>11.673217773438</ele>
        <time>2015-08-20T08:50:04Z</time>
      </trkpt>
      <trkpt lat="43.3861" lon="-1.81404">
        <ele>10.711791992188</ele>
        <time>2015-08-20T08:50:09Z</time>
      </trkpt>
      <trkpt lat="43.38607" lon="-1.81408">
        <ele>10.231201171875</ele>
        <time>2015-08-20T08:50:14Z</time>
      </trkpt>
      <trkpt lat="43.38596" lon="-1.81416">
        <ele>12.634399414062</ele>
        <time>2015-08-20T08:50:31Z</time>
      </trkpt>
      <trkpt lat="43.38586" lon="-1.81419">
        <ele>15.9990234375</ele>
        <time>2015-08-20T08:50:45Z</time>
      </trkpt>
      <trkpt lat="43.38583" lon="-1.81427">
        <ele>18.883056640625</ele>
        <time>2015-08-20T08:50:57Z</time>
      </trkpt>
      <trkpt lat="43.38583" lon="-1.81441">
        <ele>21.286376953125</ele>
        <time>2015-08-20T08:51:12Z</time>
      </trkpt>
      <trkpt lat="43.38577" lon="-1.81443">
        <ele>24.651000976562</ele>
        <time>2015-08-20T08:51:25Z</time>
      </trkpt>
      <trkpt lat="43.38571" lon="-1.81444">
        <ele>25.6123046875</ele>
        <time>2015-08-20T08:51:37Z</time>
      </trkpt>
      <trkpt lat="43.38562" lon="-1.81443">
        <ele>28.015502929688</ele>
        <time>2015-08-20T08:51:50Z</time>
      </trkpt>
      <trkpt lat="43.38553" lon="-1.81442">
        <ele>30.418823242188</ele>
        <time>2015-08-20T08:52:00Z</time>
      </trkpt>
      <trkpt lat="43.38546" lon="-1.81444">
        <ele>33.302856445312</ele>
        <time>2015-08-20T08:52:11Z</time>
      </trkpt>
      <trkpt lat="43.38545" lon="-1.8146">
        <ele>36.66748046875</ele>
        <time>2015-08-20T08:52:25Z</time>
      </trkpt>
      <trkpt lat="43.38546" lon="-1.81467">
        <ele>35.225463867188</ele>
        <time>2015-08-20T08:52:36Z</time>
      </trkpt>
      <trkpt lat="43.38546" lon="-1.81477">
        <ele>34.26416015625</ele>
        <time>2015-08-20T08:52:54Z</time>
      </trkpt>
      <trkpt lat="43.38547" lon="-1.81479">
        <ele>33.783447265625</ele>
        <time>2015-08-20T08:53:27Z</time>
      </trkpt>
      <trkpt lat="43.38547" lon="-1.81476">
        <ele>34.744873046875</ele>
        <time>2015-08-20T08:53:41Z</time>
      </trkpt>
      <trkpt lat="43.38547" lon="-1.81489">
        <ele>33.302856445312</ele>
        <time>2015-08-20T08:54:09Z</time>
      </trkpt>
      <trkpt lat="43.38551" lon="-1.81498">
        <ele>31.380126953125</ele>
        <time>2015-08-20T08:54:17Z</time>
      </trkpt>
      <trkpt lat="43.38554" lon="-1.81523">
        <ele>30.899536132812</ele>
        <time>2015-08-20T08:54:35Z</time>
      </trkpt>
      <trkpt lat="43.38553" lon="-1.81525">
        <ele>31.380126953125</ele>
        <time>2015-08-20T08:54:36Z</time>
      </trkpt>
      <trkpt lat="43.38546" lon="-1.81533">
        <ele>32.341552734375</ele>
        <time>2015-08-20T08:54:46Z</time>
      </trkpt>
      <trkpt lat="43.3854" lon="-1.81541">
        <ele>30.418823242188</ele>
        <time>2015-08-20T08:55:01Z</time>
      </trkpt>
      <trkpt lat="43.38534" lon="-1.81547">
        <ele>28.976928710938</ele>
        <time>2015-08-20T08:55:16Z</time>
      </trkpt>
      <trkpt lat="43.38531" lon="-1.81561">
        <ele>30.418823242188</ele>
        <time>2015-08-20T08:55:30Z</time>
      </trkpt>
      <trkpt lat="43.38528" lon="-1.81569">
        <ele>32.822265625</ele>
        <time>2015-08-20T08:55:37Z</time>
      </trkpt>
      <trkpt lat="43.38527" lon="-1.81575">
        <ele>33.783447265625</ele>
        <time>2015-08-20T08:55:41Z</time>
      </trkpt>
      <trkpt lat="43.38526" lon="-1.81587">
        <ele>33.302856445312</ele>
        <time>2015-08-20T08:55:47Z</time>
      </trkpt>
      <trkpt lat="43.38524" lon="-1.81608">
        <ele>30.418823242188</ele>
        <time>2015-08-20T08:56:02Z</time>
      </trkpt>
      <trkpt lat="43.3853" lon="-1.81617">
        <ele>27.054321289062</ele>
        <time>2015-08-20T08:56:15Z</time>
      </trkpt>
      <trkpt lat="43.38534" lon="-1.81622">
        <ele>24.170288085938</ele>
        <time>2015-08-20T08:56:25Z</time>
      </trkpt>
      <trkpt lat="43.38541" lon="-1.81631">
        <ele>20.8056640625</ele>
        <time>2015-08-20T08:56:38Z</time>
      </trkpt>
      <trkpt lat="43.38546" lon="-1.81646">
        <ele>18.883056640625</ele>
        <time>2015-08-20T08:56:50Z</time>
      </trkpt>
      <trkpt lat="43.38547" lon="-1.81663">
        <ele>20.8056640625</ele>
        <time>2015-08-20T08:57:06Z</time>
      </trkpt>
      <trkpt lat="43.38538" lon="-1.81678">
        <ele>24.651000976562</ele>
        <time>2015-08-20T08:57:20Z</time>
      </trkpt>
      <trkpt lat="43.38529" lon="-1.81691">
        <ele>27.534912109375</ele>
        <time>2015-08-20T08:57:32Z</time>
      </trkpt>
      <trkpt lat="43.38528" lon="-1.81694">
        <ele>26.573608398438</ele>
        <time>2015-08-20T08:57:35Z</time>
      </trkpt>
      <trkpt lat="43.3852" lon="-1.8171">
        <ele>26.092895507812</ele>
        <time>2015-08-20T08:57:48Z</time>
      </trkpt>
      <trkpt lat="43.38503" lon="-1.81736">
        <ele>28.015502929688</ele>
        <time>2015-08-20T08:58:09Z</time>
      </trkpt>
      <trkpt lat="43.38493" lon="-1.81757">
        <ele>30.899536132812</ele>
        <time>2015-08-20T08:58:28Z</time>
      </trkpt>
      <trkpt lat="43.38493" lon="-1.81767">
        <ele>33.302856445312</ele>
        <time>2015-08-20T08:58:35Z</time>
      </trkpt>
      <trkpt lat="43.38487" lon="-1.81785">
        <ele>36.66748046875</ele>
        <time>2015-08-20T08:58:49Z</time>
      </trkpt>
      <trkpt lat="43.38478" lon="-1.8182">
        <ele>38.109375</ele>
        <time>2015-08-20T08:59:13Z</time>
      </trkpt>
      <trkpt lat="43.38478" lon="-1.81821">
        <ele>38.109375</ele>
        <time>2015-08-20T08:59:14Z</time>
      </trkpt>
      <trkpt lat="43.38492" lon="-1.81831">
        <ele>39.070678710938</ele>
        <time>2015-08-20T08:59:28Z</time>
      </trkpt>
      <trkpt lat="43.38492" lon="-1.81834">
        <ele>39.55126953125</ele>
        <time>2015-08-20T08:59:30Z</time>
      </trkpt>
      <trkpt lat="43.38491" lon="-1.8184">
        <ele>39.55126953125</ele>
        <time>2015-08-20T08:59:47Z</time>
      </trkpt>
      <trkpt lat="43.38484" lon="-1.81847">
        <ele>40.032104492188</ele>
        <time>2015-08-20T08:59:58Z</time>
      </trkpt>
      <trkpt lat="43.38477" lon="-1.81857">
        <ele>40.993408203125</ele>
        <time>2015-08-20T09:00:08Z</time>
      </trkpt>
      <trkpt lat="43.38464" lon="-1.81886">
        <ele>41.473999023438</ele>
        <time>2015-08-20T09:00:32Z</time>
      </trkpt>
      <trkpt lat="43.38464" lon="-1.81897">
        <ele>38.109375</ele>
        <time>2015-08-20T09:00:41Z</time>
      </trkpt>
      <trkpt lat="43.38464" lon="-1.81922">
        <ele>35.225463867188</ele>
        <time>2015-08-20T09:01:01Z</time>
      </trkpt>
      <trkpt lat="43.38465" lon="-1.81935">
        <ele>31.860717773438</ele>
        <time>2015-08-20T09:01:14Z</time>
      </trkpt>
      <trkpt lat="43.38459" lon="-1.8194">
        <ele>29.45751953125</ele>
        <time>2015-08-20T09:01:22Z</time>
      </trkpt>
      <trkpt lat="43.38448" lon="-1.81949">
        <ele>28.496215820312</ele>
        <time>2015-08-20T09:01:34Z</time>
      </trkpt>
      <trkpt lat="43.38433" lon="-1.81971">
        <ele>28.015502929688</ele>
        <time>2015-08-20T09:01:54Z</time>
      </trkpt>
      <trkpt lat="43.38414" lon="-1.8198">
        <ele>28.015502929688</ele>
        <time>2015-08-20T09:02:13Z</time>
      </trkpt>
      <trkpt lat="43.38402" lon="-1.82">
        <ele>30.418823242188</ele>
        <time>2015-08-20T09:02:30Z</time>
      </trkpt>
      <trkpt lat="43.38394" lon="-1.82006">
        <ele>31.860717773438</ele>
        <time>2015-08-20T09:02:46Z</time>
      </trkpt>
      <trkpt lat="43.38389" lon="-1.82007">
        <ele>30.418823242188</ele>
        <time>2015-08-20T09:03:25Z</time>
      </trkpt>
      <trkpt lat="43.38388" lon="-1.82007">
        <ele>29.45751953125</ele>
        <time>2015-08-20T09:03:27Z</time>
      </trkpt>
      <trkpt lat="43.38381" lon="-1.82014">
        <ele>27.054321289062</ele>
        <time>2015-08-20T09:03:41Z</time>
      </trkpt>
      <trkpt lat="43.38379" lon="-1.82032">
        <ele>23.689575195312</ele>
        <time>2015-08-20T09:03:55Z</time>
      </trkpt>
      <trkpt lat="43.38379" lon="-1.82035">
        <ele>22.728271484375</ele>
        <time>2015-08-20T09:03:57Z</time>
      </trkpt>
      <trkpt lat="43.38377" lon="-1.8204">
        <ele>21.766967773438</ele>
        <time>2015-08-20T09:04:01Z</time>
      </trkpt>
      <trkpt lat="43.38367" lon="-1.82055">
        <ele>19.36376953125</ele>
        <time>2015-08-20T09:04:19Z</time>
      </trkpt>
      <trkpt lat="43.38366" lon="-1.82069">
        <ele>15.9990234375</ele>
        <time>2015-08-20T09:04:33Z</time>
      </trkpt>
      <trkpt lat="43.3837" lon="-1.82072">
        <ele>14.076416015625</ele>
        <time>2015-08-20T09:04:39Z</time>
      </trkpt>
      <trkpt lat="43.38372" lon="-1.82072">
        <ele>13.595825195312</ele>
        <time>2015-08-20T09:04:42Z</time>
      </trkpt>
      <trkpt lat="43.38371" lon="-1.82079">
        <ele>9.7506103515625</ele>
        <time>2015-08-20T09:04:55Z</time>
      </trkpt>
      <trkpt lat="43.38371" lon="-1.82079">
        <ele>11.192504882812</ele>
        <time>2015-08-20T09:04:56Z</time>
      </trkpt>
      <trkpt lat="43.38369" lon="-1.82083">
        <ele>9.7506103515625</ele>
        <time>2015-08-20T09:04:59Z</time>
      </trkpt>
      <trkpt lat="43.38356" lon="-1.82094">
        <ele>10.711791992188</ele>
        <time>2015-08-20T09:05:13Z</time>
      </trkpt>
      <trkpt lat="43.38353" lon="-1.82096">
        <ele>11.673217773438</ele>
        <time>2015-08-20T09:05:16Z</time>
      </trkpt>
      <trkpt lat="43.38332" lon="-1.82095">
        <ele>15.518432617188</ele>
        <time>2015-08-20T09:05:36Z</time>
      </trkpt>
      <trkpt lat="43.38321" lon="-1.82098">
        <ele>17.441162109375</ele>
        <time>2015-08-20T09:05:50Z</time>
      </trkpt>
      <trkpt lat="43.38306" lon="-1.82108">
        <ele>18.883056640625</ele>
        <time>2015-08-20T09:06:04Z</time>
      </trkpt>
      <trkpt lat="43.38295" lon="-1.82114">
        <ele>18.40234375</ele>
        <time>2015-08-20T09:06:15Z</time>
      </trkpt>
      <trkpt lat="43.38283" lon="-1.82135">
        <ele>18.40234375</ele>
        <time>2015-08-20T09:06:33Z</time>
      </trkpt>
      <trkpt lat="43.38279" lon="-1.82152">
        <ele>16.96044921875</ele>
        <time>2015-08-20T09:06:47Z</time>
      </trkpt>
      <trkpt lat="43.38273" lon="-1.82169">
        <ele>14.076416015625</ele>
        <time>2015-08-20T09:06:59Z</time>
      </trkpt>
      <trkpt lat="43.38269" lon="-1.82181">
        <ele>13.115112304688</ele>
        <time>2015-08-20T09:07:10Z</time>
      </trkpt>
      <trkpt lat="43.38267" lon="-1.82191">
        <ele>11.673217773438</ele>
        <time>2015-08-20T09:07:17Z</time>
      </trkpt>
      <trkpt lat="43.38263" lon="-1.82222">
        <ele>8.30859375</ele>
        <time>2015-08-20T09:07:33Z</time>
      </trkpt>
      <trkpt lat="43.38258" lon="-1.82237">
        <ele>6.866455078125</ele>
        <time>2015-08-20T09:07:44Z</time>
      </trkpt>
      <trkpt lat="43.38253" lon="-1.82247">
        <ele>6.3858642578125</ele>
        <time>2015-08-20T09:07:53Z</time>
      </trkpt>
      <trkpt lat="43.38259" lon="-1.82263">
        <ele>6.3858642578125</ele>
        <time>2015-08-20T09:08:06Z</time>
      </trkpt>
      <trkpt lat="43.38262" lon="-1.82263">
        <ele>5.9052734375</ele>
        <time>2015-08-20T09:08:11Z</time>
      </trkpt>
      <trkpt lat="43.38266" lon="-1.82263">
        <ele>5.9052734375</ele>
        <time>2015-08-20T09:08:31Z</time>
      </trkpt>
      <trkpt lat="43.38272" lon="-1.82262">
        <ele>6.3858642578125</ele>
        <time>2015-08-20T09:08:51Z</time>
      </trkpt>
      <trkpt lat="43.38279" lon="-1.82254">
        <ele>8.7891845703125</ele>
        <time>2015-08-20T09:09:03Z</time>
      </trkpt>
      <trkpt lat="43.3829" lon="-1.82246">
        <ele>11.673217773438</ele>
        <time>2015-08-20T09:09:17Z</time>
      </trkpt>
      <trkpt lat="43.38298" lon="-1.82242">
        <ele>13.595825195312</ele>
        <time>2015-08-20T09:09:29Z</time>
      </trkpt>
      <trkpt lat="43.38313" lon="-1.82231">
        <ele>14.557006835938</ele>
        <time>2015-08-20T09:09:45Z</time>
      </trkpt>
      <trkpt lat="43.3833" lon="-1.82217">
        <ele>15.9990234375</ele>
        <time>2015-08-20T09:10:03Z</time>
      </trkpt>
      <trkpt lat="43.3835" lon="-1.82211">
        <ele>17.441162109375</ele>
        <time>2015-08-20T09:10:21Z</time>
      </trkpt>
      <trkpt lat="43.38362" lon="-1.82213">
        <ele>19.36376953125</ele>
        <time>2015-08-20T09:10:33Z</time>
      </trkpt>
      <trkpt lat="43.38364" lon="-1.82216">
        <ele>21.286376953125</ele>
        <time>2015-08-20T09:10:40Z</time>
      </trkpt>
      <trkpt lat="43.38368" lon="-1.82219">
        <ele>23.208984375</ele>
        <time>2015-08-20T09:10:45Z</time>
      </trkpt>
      <trkpt lat="43.38382" lon="-1.82226">
        <ele>23.689575195312</ele>
        <time>2015-08-20T09:11:04Z</time>
      </trkpt>
      <trkpt lat="43.38388" lon="-1.82224">
        <ele>26.573608398438</ele>
        <time>2015-08-20T09:11:14Z</time>
      </trkpt>
      <trkpt lat="43.38395" lon="-1.82217">
        <ele>28.015502929688</ele>
        <time>2015-08-20T09:11:26Z</time>
      </trkpt>
      <trkpt lat="43.38399" lon="-1.82213">
        <ele>28.976928710938</ele>
        <time>2015-08-20T09:11:32Z</time>
      </trkpt>
      <trkpt lat="43.38407" lon="-1.82213">
        <ele>30.418823242188</ele>
        <time>2015-08-20T09:11:45Z</time>
      </trkpt>
      <trkpt lat="43.38411" lon="-1.82222">
        <ele>31.860717773438</ele>
        <time>2015-08-20T09:12:00Z</time>
      </trkpt>
      <trkpt lat="43.38412" lon="-1.82229">
        <ele>31.380126953125</ele>
        <time>2015-08-20T09:12:10Z</time>
      </trkpt>
      <trkpt lat="43.38429" lon="-1.82258">
        <ele>30.899536132812</ele>
        <time>2015-08-20T09:12:36Z</time>
      </trkpt>
      <trkpt lat="43.38441" lon="-1.82277">
        <ele>33.302856445312</ele>
        <time>2015-08-20T09:12:56Z</time>
      </trkpt>
      <trkpt lat="43.38443" lon="-1.82283">
        <ele>33.783447265625</ele>
        <time>2015-08-20T09:13:01Z</time>
      </trkpt>
      <trkpt lat="43.38431" lon="-1.82304">
        <ele>34.744873046875</ele>
        <time>2015-08-20T09:13:20Z</time>
      </trkpt>
      <trkpt lat="43.38422" lon="-1.82325">
        <ele>38.590087890625</ele>
        <time>2015-08-20T09:13:38Z</time>
      </trkpt>
      <trkpt lat="43.38407" lon="-1.82353">
        <ele>40.993408203125</ele>
        <time>2015-08-20T09:14:01Z</time>
      </trkpt>
      <trkpt lat="43.3839" lon="-1.82372">
        <ele>40.032104492188</ele>
        <time>2015-08-20T09:14:21Z</time>
      </trkpt>
      <trkpt lat="43.38371" lon="-1.82389">
        <ele>40.993408203125</ele>
        <time>2015-08-20T09:14:40Z</time>
      </trkpt>
      <trkpt lat="43.38351" lon="-1.82409">
        <ele>41.954711914062</ele>
        <time>2015-08-20T09:15:03Z</time>
      </trkpt>
      <trkpt lat="43.38336" lon="-1.8243">
        <ele>40.512817382812</ele>
        <time>2015-08-20T09:15:23Z</time>
      </trkpt>
      <trkpt lat="43.3833" lon="-1.8245">
        <ele>38.109375</ele>
        <time>2015-08-20T09:15:39Z</time>
      </trkpt>
      <trkpt lat="43.38328" lon="-1.8248">
        <ele>37.148071289062</ele>
        <time>2015-08-20T09:15:59Z</time>
      </trkpt>
      <trkpt lat="43.38323" lon="-1.82506">
        <ele>38.109375</ele>
        <time>2015-08-20T09:16:17Z</time>
      </trkpt>
      <trkpt lat="43.38321" lon="-1.82517">
        <ele>37.148071289062</ele>
        <time>2015-08-20T09:16:26Z</time>
      </trkpt>
      <trkpt lat="43.38323" lon="-1.82521">
        <ele>37.148071289062</ele>
        <time>2015-08-20T09:16:29Z</time>
      </trkpt>
      <trkpt lat="43.38326" lon="-1.82538">
        <ele>39.070678710938</ele>
        <time>2015-08-20T09:16:42Z</time>
      </trkpt>
      <trkpt lat="43.38326" lon="-1.82548">
        <ele>41.473999023438</ele>
        <time>2015-08-20T09:16:53Z</time>
      </trkpt>
      <trkpt lat="43.38326" lon="-1.82551">
        <ele>42.916015625</ele>
        <time>2015-08-20T09:16:56Z</time>
      </trkpt>
      <trkpt lat="43.38329" lon="-1.82583">
        <ele>41.954711914062</ele>
        <time>2015-08-20T09:17:17Z</time>
      </trkpt>
      <trkpt lat="43.3833" lon="-1.82616">
        <ele>41.473999023438</ele>
        <time>2015-08-20T09:17:38Z</time>
      </trkpt>
      <trkpt lat="43.38331" lon="-1.82632">
        <ele>42.435424804688</ele>
        <time>2015-08-20T09:17:52Z</time>
      </trkpt>
      <trkpt lat="43.38332" lon="-1.82642">
        <ele>42.435424804688</ele>
        <time>2015-08-20T09:18:05Z</time>
      </trkpt>
      <trkpt lat="43.3833" lon="-1.8266">
        <ele>41.954711914062</ele>
        <time>2015-08-20T09:18:25Z</time>
      </trkpt>
      <trkpt lat="43.38334" lon="-1.82672">
        <ele>40.512817382812</ele>
        <time>2015-08-20T09:18:41Z</time>
      </trkpt>
      <trkpt lat="43.38334" lon="-1.82681">
        <ele>39.070678710938</ele>
        <time>2015-08-20T09:18:53Z</time>
      </trkpt>
      <trkpt lat="43.38337" lon="-1.82708">
        <ele>38.109375</ele>
        <time>2015-08-20T09:19:14Z</time>
      </trkpt>
      <trkpt lat="43.3834" lon="-1.8272">
        <ele>37.148071289062</ele>
        <time>2015-08-20T09:19:28Z</time>
      </trkpt>
      <trkpt lat="43.38344" lon="-1.8274">
        <ele>35.225463867188</ele>
        <time>2015-08-20T09:19:46Z</time>
      </trkpt>
      <trkpt lat="43.38346" lon="-1.82745">
        <ele>34.744873046875</ele>
        <time>2015-08-20T09:20:04Z</time>
      </trkpt>
      <trkpt lat="43.38348" lon="-1.82762">
        <ele>32.341552734375</ele>
        <time>2015-08-20T09:20:32Z</time>
      </trkpt>
      <trkpt lat="43.38346" lon="-1.82789">
        <ele>28.976928710938</ele>
        <time>2015-08-20T09:20:50Z</time>
      </trkpt>
      <trkpt lat="43.38344" lon="-1.82797">
        <ele>27.534912109375</ele>
        <time>2015-08-20T09:20:56Z</time>
      </trkpt>
      <trkpt lat="43.38345" lon="-1.82819">
        <ele>25.131713867188</ele>
        <time>2015-08-20T09:21:13Z</time>
      </trkpt>
      <trkpt lat="43.38345" lon="-1.82837">
        <ele>22.728271484375</ele>
        <time>2015-08-20T09:21:25Z</time>
      </trkpt>
      <trkpt lat="43.38349" lon="-1.82858">
        <ele>20.324951171875</ele>
        <time>2015-08-20T09:21:41Z</time>
      </trkpt>
      <trkpt lat="43.38351" lon="-1.82885">
        <ele>19.844360351562</ele>
        <time>2015-08-20T09:21:58Z</time>
      </trkpt>
      <trkpt lat="43.38344" lon="-1.82923">
        <ele>20.8056640625</ele>
        <time>2015-08-20T09:22:21Z</time>
      </trkpt>
      <trkpt lat="43.38335" lon="-1.82945">
        <ele>21.286376953125</ele>
        <time>2015-08-20T09:22:36Z</time>
      </trkpt>
      <trkpt lat="43.38333" lon="-1.82953">
        <ele>22.24755859375</ele>
        <time>2015-08-20T09:22:41Z</time>
      </trkpt>
      <trkpt lat="43.3832" lon="-1.82976">
        <ele>21.286376953125</ele>
        <time>2015-08-20T09:23:00Z</time>
      </trkpt>
      <trkpt lat="43.38313" lon="-1.82996">
        <ele>21.766967773438</ele>
        <time>2015-08-20T09:23:16Z</time>
      </trkpt>
      <trkpt lat="43.38319" lon="-1.83002">
        <ele>23.689575195312</ele>
        <time>2015-08-20T09:23:25Z</time>
      </trkpt>
      <trkpt lat="43.38322" lon="-1.83005">
        <ele>25.131713867188</ele>
        <time>2015-08-20T09:23:29Z</time>
      </trkpt>
      <trkpt lat="43.38325" lon="-1.83013">
        <ele>25.6123046875</ele>
        <time>2015-08-20T09:23:36Z</time>
      </trkpt>
      <trkpt lat="43.38312" lon="-1.83032">
        <ele>26.573608398438</ele>
        <time>2015-08-20T09:23:54Z</time>
      </trkpt>
      <trkpt lat="43.38298" lon="-1.83056">
        <ele>26.092895507812</ele>
        <time>2015-08-20T09:24:12Z</time>
      </trkpt>
      <trkpt lat="43.38292" lon="-1.8308">
        <ele>24.651000976562</ele>
        <time>2015-08-20T09:24:29Z</time>
      </trkpt>
      <trkpt lat="43.38293" lon="-1.83092">
        <ele>22.24755859375</ele>
        <time>2015-08-20T09:24:39Z</time>
      </trkpt>
      <trkpt lat="43.38294" lon="-1.83122">
        <ele>23.689575195312</ele>
        <time>2015-08-20T09:24:59Z</time>
      </trkpt>
      <trkpt lat="43.38301" lon="-1.83139">
        <ele>25.6123046875</ele>
        <time>2015-08-20T09:25:13Z</time>
      </trkpt>
      <trkpt lat="43.38302" lon="-1.83145">
        <ele>26.092895507812</ele>
        <time>2015-08-20T09:25:17Z</time>
      </trkpt>
      <trkpt lat="43.38309" lon="-1.83179">
        <ele>25.131713867188</ele>
        <time>2015-08-20T09:25:38Z</time>
      </trkpt>
      <trkpt lat="43.38305" lon="-1.83201">
        <ele>26.573608398438</ele>
        <time>2015-08-20T09:25:54Z</time>
      </trkpt>
      <trkpt lat="43.38287" lon="-1.83224">
        <ele>26.092895507812</ele>
        <time>2015-08-20T09:26:14Z</time>
      </trkpt>
      <trkpt lat="43.38284" lon="-1.83232">
        <ele>28.015502929688</ele>
        <time>2015-08-20T09:26:20Z</time>
      </trkpt>
      <trkpt lat="43.38284" lon="-1.83238">
        <ele>28.976928710938</ele>
        <time>2015-08-20T09:26:24Z</time>
      </trkpt>
      <trkpt lat="43.38276" lon="-1.83264">
        <ele>28.496215820312</ele>
        <time>2015-08-20T09:26:41Z</time>
      </trkpt>
      <trkpt lat="43.38273" lon="-1.83296">
        <ele>28.976928710938</ele>
        <time>2015-08-20T09:27:00Z</time>
      </trkpt>
      <trkpt lat="43.38253" lon="-1.83315">
        <ele>29.45751953125</ele>
        <time>2015-08-20T09:27:20Z</time>
      </trkpt>
      <trkpt lat="43.38249" lon="-1.83317">
        <ele>28.976928710938</ele>
        <time>2015-08-20T09:27:24Z</time>
      </trkpt>
      <trkpt lat="43.38245" lon="-1.83323">
        <ele>28.015502929688</ele>
        <time>2015-08-20T09:27:29Z</time>
      </trkpt>
      <trkpt lat="43.38241" lon="-1.83339">
        <ele>28.496215820312</ele>
        <time>2015-08-20T09:27:39Z</time>
      </trkpt>
      <trkpt lat="43.38237" lon="-1.83351">
        <ele>30.418823242188</ele>
        <time>2015-08-20T09:27:48Z</time>
      </trkpt>
      <trkpt lat="43.38226" lon="-1.83381">
        <ele>31.380126953125</ele>
        <time>2015-08-20T09:28:10Z</time>
      </trkpt>
      <trkpt lat="43.38215" lon="-1.83408">
        <ele>29.938110351562</ele>
        <time>2015-08-20T09:28:29Z</time>
      </trkpt>
      <trkpt lat="43.38212" lon="-1.83415">
        <ele>29.45751953125</ele>
        <time>2015-08-20T09:28:34Z</time>
      </trkpt>
      <trkpt lat="43.38208" lon="-1.83421">
        <ele>27.054321289062</ele>
        <time>2015-08-20T09:28:41Z</time>
      </trkpt>
      <trkpt lat="43.38199" lon="-1.83431">
        <ele>25.131713867188</ele>
        <time>2015-08-20T09:28:52Z</time>
      </trkpt>
      <trkpt lat="43.38191" lon="-1.83444">
        <ele>23.208984375</ele>
        <time>2015-08-20T09:29:06Z</time>
      </trkpt>
      <trkpt lat="43.38184" lon="-1.8346">
        <ele>21.286376953125</ele>
        <time>2015-08-20T09:29:22Z</time>
      </trkpt>
      <trkpt lat="43.3818" lon="-1.83471">
        <ele>19.36376953125</ele>
        <time>2015-08-20T09:29:32Z</time>
      </trkpt>
      <trkpt lat="43.38173" lon="-1.83475">
        <ele>18.883056640625</ele>
        <time>2015-08-20T09:29:40Z</time>
      </trkpt>
      <trkpt lat="43.38162" lon="-1.83491">
        <ele>18.40234375</ele>
        <time>2015-08-20T09:29:55Z</time>
      </trkpt>
      <trkpt lat="43.38157" lon="-1.83492">
        <ele>19.844360351562</ele>
        <time>2015-08-20T09:30:01Z</time>
      </trkpt>
      <trkpt lat="43.38144" lon="-1.83499">
        <ele>21.766967773438</ele>
        <time>2015-08-20T09:30:18Z</time>
      </trkpt>
      <trkpt lat="43.38144" lon="-1.83503">
        <ele>22.24755859375</ele>
        <time>2015-08-20T09:30:21Z</time>
      </trkpt>
      <trkpt lat="43.38127" lon="-1.83519">
        <ele>23.689575195312</ele>
        <time>2015-08-20T09:30:40Z</time>
      </trkpt>
      <trkpt lat="43.38116" lon="-1.83527">
        <ele>25.131713867188</ele>
        <time>2015-08-20T09:30:53Z</time>
      </trkpt>
      <trkpt lat="43.38109" lon="-1.83546">
        <ele>24.170288085938</ele>
        <time>2015-08-20T09:31:08Z</time>
      </trkpt>
      <trkpt lat="43.38103" lon="-1.83557">
        <ele>26.092895507812</ele>
        <time>2015-08-20T09:31:18Z</time>
      </trkpt>
      <trkpt lat="43.38104" lon="-1.83567">
        <ele>27.534912109375</ele>
        <time>2015-08-20T09:31:27Z</time>
      </trkpt>
      <trkpt lat="43.38095" lon="-1.83593">
        <ele>29.45751953125</ele>
        <time>2015-08-20T09:31:47Z</time>
      </trkpt>
      <trkpt lat="43.38093" lon="-1.83602">
        <ele>31.860717773438</ele>
        <time>2015-08-20T09:31:55Z</time>
      </trkpt>
      <trkpt lat="43.38093" lon="-1.83613">
        <ele>33.783447265625</ele>
        <time>2015-08-20T09:32:06Z</time>
      </trkpt>
      <trkpt lat="43.38093" lon="-1.83637">
        <ele>34.26416015625</ele>
        <time>2015-08-20T09:32:23Z</time>
      </trkpt>
      <trkpt lat="43.38083" lon="-1.83669">
        <ele>33.783447265625</ele>
        <time>2015-08-20T09:32:45Z</time>
      </trkpt>
      <trkpt lat="43.38083" lon="-1.83705">
        <ele>33.302856445312</ele>
        <time>2015-08-20T09:33:06Z</time>
      </trkpt>
      <trkpt lat="43.38086" lon="-1.83735">
        <ele>32.822265625</ele>
        <time>2015-08-20T09:33:24Z</time>
      </trkpt>
      <trkpt lat="43.38082" lon="-1.83773">
        <ele>33.302856445312</ele>
        <time>2015-08-20T09:33:46Z</time>
      </trkpt>
      <trkpt lat="43.38073" lon="-1.83794">
        <ele>32.822265625</ele>
        <time>2015-08-20T09:34:04Z</time>
      </trkpt>
      <trkpt lat="43.38077" lon="-1.83789">
        <ele>32.822265625</ele>
        <time>2015-08-20T09:34:22Z</time>
      </trkpt>
      <trkpt lat="43.38076" lon="-1.8379">
        <ele>32.822265625</ele>
        <time>2015-08-20T09:34:49Z</time>
      </trkpt>
      <trkpt lat="43.38075" lon="-1.83791">
        <ele>33.783447265625</ele>
        <time>2015-08-20T09:34:53Z</time>
      </trkpt>
      <trkpt lat="43.38059" lon="-1.83817">
        <ele>33.302856445312</ele>
        <time>2015-08-20T09:35:14Z</time>
      </trkpt>
      <trkpt lat="43.38036" lon="-1.83839">
        <ele>35.225463867188</ele>
        <time>2015-08-20T09:35:38Z</time>
      </trkpt>
      <trkpt lat="43.38016" lon="-1.83854">
        <ele>36.66748046875</ele>
        <time>2015-08-20T09:35:57Z</time>
      </trkpt>
      <trkpt lat="43.37992" lon="-1.83873">
        <ele>37.628662109375</ele>
        <time>2015-08-20T09:36:19Z</time>
      </trkpt>
      <trkpt lat="43.37969" lon="-1.83878">
        <ele>40.032104492188</ele>
        <time>2015-08-20T09:36:39Z</time>
      </trkpt>
      <trkpt lat="43.37964" lon="-1.83875">
        <ele>39.55126953125</ele>
        <time>2015-08-20T09:36:43Z</time>
      </trkpt>
      <trkpt lat="43.37961" lon="-1.8387">
        <ele>40.032104492188</ele>
        <time>2015-08-20T09:36:48Z</time>
      </trkpt>
      <trkpt lat="43.37943" lon="-1.83864">
        <ele>39.070678710938</ele>
        <time>2015-08-20T09:37:06Z</time>
      </trkpt>
      <trkpt lat="43.37932" lon="-1.83873">
        <ele>36.186767578125</ele>
        <time>2015-08-20T09:37:19Z</time>
      </trkpt>
      <trkpt lat="43.37928" lon="-1.83877">
        <ele>34.744873046875</ele>
        <time>2015-08-20T09:37:25Z</time>
      </trkpt>
      <trkpt lat="43.37922" lon="-1.83883">
        <ele>33.302856445312</ele>
        <time>2015-08-20T09:37:33Z</time>
      </trkpt>
      <trkpt lat="43.37922" lon="-1.83896">
        <ele>30.899536132812</ele>
        <time>2015-08-20T09:37:45Z</time>
      </trkpt>
      <trkpt lat="43.37921" lon="-1.839">
        <ele>30.418823242188</ele>
        <time>2015-08-20T09:37:49Z</time>
      </trkpt>
      <trkpt lat="43.37917" lon="-1.83914">
        <ele>27.054321289062</ele>
        <time>2015-08-20T09:38:03Z</time>
      </trkpt>
      <trkpt lat="43.37916" lon="-1.83925">
        <ele>24.651000976562</ele>
        <time>2015-08-20T09:38:12Z</time>
      </trkpt>
      <trkpt lat="43.37916" lon="-1.83938">
        <ele>21.286376953125</ele>
        <time>2015-08-20T09:38:23Z</time>
      </trkpt>
      <trkpt lat="43.37913" lon="-1.83953">
        <ele>19.36376953125</ele>
        <time>2015-08-20T09:38:37Z</time>
      </trkpt>
      <trkpt lat="43.37907" lon="-1.83962">
        <ele>16.96044921875</ele>
        <time>2015-08-20T09:38:51Z</time>
      </trkpt>
      <trkpt lat="43.37906" lon="-1.83967">
        <ele>16.96044921875</ele>
        <time>2015-08-20T09:38:57Z</time>
      </trkpt>
      <trkpt lat="43.37895" lon="-1.83982">
        <ele>15.518432617188</ele>
        <time>2015-08-20T09:39:14Z</time>
      </trkpt>
      <trkpt lat="43.37882" lon="-1.84001">
        <ele>13.115112304688</ele>
        <time>2015-08-20T09:39:35Z</time>
      </trkpt>
      <trkpt lat="43.37872" lon="-1.84009">
        <ele>9.7506103515625</ele>
        <time>2015-08-20T09:39:49Z</time>
      </trkpt>
      <trkpt lat="43.37871" lon="-1.84009">
        <ele>9.2698974609375</ele>
        <time>2015-08-20T09:39:50Z</time>
      </trkpt>
      <trkpt lat="43.37858" lon="-1.84011">
        <ele>8.30859375</ele>
        <time>2015-08-20T09:40:06Z</time>
      </trkpt>
      <trkpt lat="43.3785" lon="-1.84012">
        <ele>8.30859375</ele>
        <time>2015-08-20T09:40:20Z</time>
      </trkpt>
      <trkpt lat="43.3785" lon="-1.84005">
        <ele>9.7506103515625</ele>
        <time>2015-08-20T09:40:28Z</time>
      </trkpt>
      <trkpt lat="43.37849" lon="-1.83988">
        <ele>12.634399414062</ele>
        <time>2015-08-20T09:40:45Z</time>
      </trkpt>
      <trkpt lat="43.37844" lon="-1.83983">
        <ele>13.595825195312</ele>
        <time>2015-08-20T09:40:53Z</time>
      </trkpt>
      <trkpt lat="43.37841" lon="-1.83976">
        <ele>15.9990234375</ele>
        <time>2015-08-20T09:41:08Z</time>
      </trkpt>
      <trkpt lat="43.37846" lon="-1.83962">
        <ele>18.40234375</ele>
        <time>2015-08-20T09:41:22Z</time>
      </trkpt>
      <trkpt lat="43.37851" lon="-1.83947">
        <ele>21.286376953125</ele>
        <time>2015-08-20T09:41:39Z</time>
      </trkpt>
      <trkpt lat="43.37853" lon="-1.83939">
        <ele>23.689575195312</ele>
        <time>2015-08-20T09:41:47Z</time>
      </trkpt>
      <trkpt lat="43.37843" lon="-1.83937">
        <ele>26.092895507812</ele>
        <time>2015-08-20T09:42:03Z</time>
      </trkpt>
      <trkpt lat="43.37833" lon="-1.8394">
        <ele>28.015502929688</ele>
        <time>2015-08-20T09:42:22Z</time>
      </trkpt>
      <trkpt lat="43.37821" lon="-1.83939">
        <ele>29.45751953125</ele>
        <time>2015-08-20T09:42:40Z</time>
      </trkpt>
      <trkpt lat="43.37813" lon="-1.83935">
        <ele>32.341552734375</ele>
        <time>2015-08-20T09:42:52Z</time>
      </trkpt>
      <trkpt lat="43.37801" lon="-1.83933">
        <ele>34.744873046875</ele>
        <time>2015-08-20T09:43:08Z</time>
      </trkpt>
      <trkpt lat="43.37789" lon="-1.83938">
        <ele>38.109375</ele>
        <time>2015-08-20T09:43:23Z</time>
      </trkpt>
      <trkpt lat="43.37788" lon="-1.83939">
        <ele>38.109375</ele>
        <time>2015-08-20T09:43:24Z</time>
      </trkpt>
      <trkpt lat="43.3778" lon="-1.83949">
        <ele>38.590087890625</ele>
        <time>2015-08-20T09:43:36Z</time>
      </trkpt>
      <trkpt lat="43.37764" lon="-1.83963">
        <ele>39.070678710938</ele>
        <time>2015-08-20T09:43:55Z</time>
      </trkpt>
      <trkpt lat="43.37746" lon="-1.83975">
        <ele>41.473999023438</ele>
        <time>2015-08-20T09:44:15Z</time>
      </trkpt>
      <trkpt lat="43.37736" lon="-1.83987">
        <ele>41.954711914062</ele>
        <time>2015-08-20T09:44:32Z</time>
      </trkpt>
      <trkpt lat="43.3774" lon="-1.83998">
        <ele>43.877319335938</ele>
        <time>2015-08-20T09:44:43Z</time>
      </trkpt>
      <trkpt lat="43.37743" lon="-1.84005">
        <ele>44.838623046875</ele>
        <time>2015-08-20T09:44:49Z</time>
      </trkpt>
      <trkpt lat="43.37743" lon="-1.84013">
        <ele>45.319213867188</ele>
        <time>2015-08-20T09:44:54Z</time>
      </trkpt>
      <trkpt lat="43.37728" lon="-1.8404">
        <ele>44.838623046875</ele>
        <time>2015-08-20T09:45:16Z</time>
      </trkpt>
      <trkpt lat="43.37723" lon="-1.8405">
        <ele>48.203369140625</ele>
        <time>2015-08-20T09:45:26Z</time>
      </trkpt>
      <trkpt lat="43.37712" lon="-1.84063">
        <ele>51.087158203125</ele>
        <time>2015-08-20T09:45:41Z</time>
      </trkpt>
      <trkpt lat="43.37699" lon="-1.84091">
        <ele>50.1259765625</ele>
        <time>2015-08-20T09:46:02Z</time>
      </trkpt>
      <trkpt lat="43.37695" lon="-1.84104">
        <ele>51.087158203125</ele>
        <time>2015-08-20T09:46:11Z</time>
      </trkpt>
      <trkpt lat="43.37674" lon="-1.84125">
        <ele>51.087158203125</ele>
        <time>2015-08-20T09:46:33Z</time>
      </trkpt>
      <trkpt lat="43.37662" lon="-1.84141">
        <ele>51.56787109375</ele>
        <time>2015-08-20T09:46:50Z</time>
      </trkpt>
      <trkpt lat="43.37661" lon="-1.84155">
        <ele>51.087158203125</ele>
        <time>2015-08-20T09:47:04Z</time>
      </trkpt>
      <trkpt lat="43.37665" lon="-1.84167">
        <ele>51.087158203125</ele>
        <time>2015-08-20T09:47:14Z</time>
      </trkpt>
      <trkpt lat="43.37676" lon="-1.84187">
        <ele>53.97119140625</ele>
        <time>2015-08-20T09:47:32Z</time>
      </trkpt>
      <trkpt lat="43.37676" lon="-1.84196">
        <ele>53.97119140625</ele>
        <time>2015-08-20T09:47:38Z</time>
      </trkpt>
      <trkpt lat="43.37672" lon="-1.84206">
        <ele>53.490478515625</ele>
        <time>2015-08-20T09:47:46Z</time>
      </trkpt>
      <trkpt lat="43.37664" lon="-1.8424">
        <ele>51.087158203125</ele>
        <time>2015-08-20T09:48:09Z</time>
      </trkpt>
      <trkpt lat="43.37667" lon="-1.84269">
        <ele>50.606567382812</ele>
        <time>2015-08-20T09:48:28Z</time>
      </trkpt>
      <trkpt lat="43.37672" lon="-1.84292">
        <ele>49.645263671875</ele>
        <time>2015-08-20T09:48:48Z</time>
      </trkpt>
      <trkpt lat="43.37673" lon="-1.84301">
        <ele>49.645263671875</ele>
        <time>2015-08-20T09:49:03Z</time>
      </trkpt>
      <trkpt lat="43.37674" lon="-1.84318">
        <ele>48.203369140625</ele>
        <time>2015-08-20T09:49:17Z</time>
      </trkpt>
      <trkpt lat="43.37669" lon="-1.84347">
        <ele>45.799926757812</ele>
        <time>2015-08-20T09:49:38Z</time>
      </trkpt>
      <trkpt lat="43.3767" lon="-1.84349">
        <ele>44.358032226562</ele>
        <time>2015-08-20T09:49:41Z</time>
      </trkpt>
      <trkpt lat="43.37667" lon="-1.84361">
        <ele>41.473999023438</ele>
        <time>2015-08-20T09:49:53Z</time>
      </trkpt>
      <trkpt lat="43.37661" lon="-1.8437">
        <ele>40.032104492188</ele>
        <time>2015-08-20T09:50:03Z</time>
      </trkpt>
      <trkpt lat="43.37652" lon="-1.84379">
        <ele>38.590087890625</ele>
        <time>2015-08-20T09:50:17Z</time>
      </trkpt>
      <trkpt lat="43.37635" lon="-1.84387">
        <ele>37.628662109375</ele>
        <time>2015-08-20T09:50:35Z</time>
      </trkpt>
      <trkpt lat="43.37621" lon="-1.84383">
        <ele>38.109375</ele>
        <time>2015-08-20T09:50:50Z</time>
      </trkpt>
      <trkpt lat="43.37617" lon="-1.84388">
        <ele>37.628662109375</ele>
        <time>2015-08-20T09:51:12Z</time>
      </trkpt>
      <trkpt lat="43.37617" lon="-1.84392">
        <ele>37.628662109375</ele>
        <time>2015-08-20T09:51:27Z</time>
      </trkpt>
      <trkpt lat="43.37614" lon="-1.84403">
        <ele>34.744873046875</ele>
        <time>2015-08-20T09:51:43Z</time>
      </trkpt>
      <trkpt lat="43.37611" lon="-1.84413">
        <ele>32.341552734375</ele>
        <time>2015-08-20T09:52:00Z</time>
      </trkpt>
      <trkpt lat="43.37607" lon="-1.84424">
        <ele>29.45751953125</ele>
        <time>2015-08-20T09:52:14Z</time>
      </trkpt>
      <trkpt lat="43.37603" lon="-1.84427">
        <ele>28.976928710938</ele>
        <time>2015-08-20T09:52:22Z</time>
      </trkpt>
      <trkpt lat="43.37599" lon="-1.84433">
        <ele>28.496215820312</ele>
        <time>2015-08-20T09:52:28Z</time>
      </trkpt>
      <trkpt lat="43.37592" lon="-1.84432">
        <ele>28.015502929688</ele>
        <time>2015-08-20T09:52:36Z</time>
      </trkpt>
      <trkpt lat="43.37584" lon="-1.84418">
        <ele>27.534912109375</ele>
        <time>2015-08-20T09:52:51Z</time>
      </trkpt>
      <trkpt lat="43.37582" lon="-1.84417">
        <ele>27.054321289062</ele>
        <time>2015-08-20T09:52:53Z</time>
      </trkpt>
      <trkpt lat="43.37569" lon="-1.84424">
        <ele>24.170288085938</ele>
        <time>2015-08-20T09:53:08Z</time>
      </trkpt>
      <trkpt lat="43.37558" lon="-1.84435">
        <ele>21.286376953125</ele>
        <time>2015-08-20T09:53:24Z</time>
      </trkpt>
      <trkpt lat="43.37541" lon="-1.84443">
        <ele>18.40234375</ele>
        <time>2015-08-20T09:53:44Z</time>
      </trkpt>
      <trkpt lat="43.37524" lon="-1.84445">
        <ele>16.96044921875</ele>
        <time>2015-08-20T09:54:03Z</time>
      </trkpt>
      <trkpt lat="43.37522" lon="-1.84448">
        <ele>15.9990234375</ele>
        <time>2015-08-20T09:54:20Z</time>
      </trkpt>
      <trkpt lat="43.37519" lon="-1.84452">
        <ele>15.9990234375</ele>
        <time>2015-08-20T09:54:47Z</time>
      </trkpt>
      <trkpt lat="43.37515" lon="-1.84459">
        <ele>15.518432617188</ele>
        <time>2015-08-20T09:55:14Z</time>
      </trkpt>
      <trkpt lat="43.37512" lon="-1.84462">
        <ele>14.557006835938</ele>
        <time>2015-08-20T09:55:18Z</time>
      </trkpt>
      <trkpt lat="43.37493" lon="-1.84478">
        <ele>12.634399414062</ele>
        <time>2015-08-20T09:55:39Z</time>
      </trkpt>
      <trkpt lat="43.37486" lon="-1.84488">
        <ele>12.15380859375</ele>
        <time>2015-08-20T09:55:52Z</time>
      </trkpt>
      <trkpt lat="43.37491" lon="-1.84496">
        <ele>14.076416015625</ele>
        <time>2015-08-20T09:56:04Z</time>
      </trkpt>
      <trkpt lat="43.37503" lon="-1.84506">
        <ele>15.9990234375</ele>
        <time>2015-08-20T09:56:20Z</time>
      </trkpt>
      <trkpt lat="43.37514" lon="-1.84512">
        <ele>17.921752929688</ele>
        <time>2015-08-20T09:56:33Z</time>
      </trkpt>
      <trkpt lat="43.37521" lon="-1.84519">
        <ele>19.844360351562</ele>
        <time>2015-08-20T09:56:43Z</time>
      </trkpt>
      <trkpt lat="43.3753" lon="-1.84524">
        <ele>20.8056640625</ele>
        <time>2015-08-20T09:56:52Z</time>
      </trkpt>
      <trkpt lat="43.37546" lon="-1.84532">
        <ele>21.766967773438</ele>
        <time>2015-08-20T09:57:11Z</time>
      </trkpt>
      <trkpt lat="43.37559" lon="-1.8454">
        <ele>22.728271484375</ele>
        <time>2015-08-20T09:57:27Z</time>
      </trkpt>
      <trkpt lat="43.37564" lon="-1.84555">
        <ele>24.170288085938</ele>
        <time>2015-08-20T09:57:42Z</time>
      </trkpt>
      <trkpt lat="43.37558" lon="-1.84571">
        <ele>25.6123046875</ele>
        <time>2015-08-20T09:57:58Z</time>
      </trkpt>
      <trkpt lat="43.37561" lon="-1.84584">
        <ele>27.534912109375</ele>
        <time>2015-08-20T09:58:12Z</time>
      </trkpt>
      <trkpt lat="43.37567" lon="-1.84584">
        <ele>28.976928710938</ele>
        <time>2015-08-20T09:58:23Z</time>
      </trkpt>
      <trkpt lat="43.37581" lon="-1.84586">
        <ele>29.938110351562</ele>
        <time>2015-08-20T09:58:39Z</time>
      </trkpt>
      <trkpt lat="43.3759" lon="-1.84598">
        <ele>28.976928710938</ele>
        <time>2015-08-20T09:58:56Z</time>
      </trkpt>
      <trkpt lat="43.37593" lon="-1.84609">
        <ele>27.054321289062</ele>
        <time>2015-08-20T09:59:11Z</time>
      </trkpt>
      <trkpt lat="43.37604" lon="-1.84616">
        <ele>27.054321289062</ele>
        <time>2015-08-20T09:59:28Z</time>
      </trkpt>
      <trkpt lat="43.37609" lon="-1.84618">
        <ele>27.054321289062</ele>
        <time>2015-08-20T09:59:46Z</time>
      </trkpt>
      <trkpt lat="43.37609" lon="-1.84618">
        <ele>27.054321289062</ele>
        <time>2015-08-20T10:00:02Z</time>
      </trkpt>
      <trkpt lat="43.3761" lon="-1.84621">
        <ele>26.573608398438</ele>
        <time>2015-08-20T10:00:33Z</time>
      </trkpt>
      <trkpt lat="43.37623" lon="-1.84628">
        <ele>28.015502929688</ele>
        <time>2015-08-20T10:00:48Z</time>
      </trkpt>
      <trkpt lat="43.37626" lon="-1.84639">
        <ele>28.496215820312</ele>
        <time>2015-08-20T10:00:58Z</time>
      </trkpt>
      <trkpt lat="43.37628" lon="-1.84648">
        <ele>28.015502929688</ele>
        <time>2015-08-20T10:01:05Z</time>
      </trkpt>
      <trkpt lat="43.3764" lon="-1.84654">
        <ele>28.976928710938</ele>
        <time>2015-08-20T10:01:22Z</time>
      </trkpt>
      <trkpt lat="43.37645" lon="-1.84653">
        <ele>30.418823242188</ele>
        <time>2015-08-20T10:01:29Z</time>
      </trkpt>
      <trkpt lat="43.3766" lon="-1.84654">
        <ele>31.380126953125</ele>
        <time>2015-08-20T10:01:47Z</time>
      </trkpt>
      <trkpt lat="43.37666" lon="-1.84665">
        <ele>31.860717773438</ele>
        <time>2015-08-20T10:02:03Z</time>
      </trkpt>
      <trkpt lat="43.3768" lon="-1.84667">
        <ele>32.822265625</ele>
        <time>2015-08-20T10:02:21Z</time>
      </trkpt>
      <trkpt lat="43.37683" lon="-1.84669">
        <ele>34.26416015625</ele>
        <time>2015-08-20T10:02:24Z</time>
      </trkpt>
      <trkpt lat="43.37686" lon="-1.84672">
        <ele>35.225463867188</ele>
        <time>2015-08-20T10:02:28Z</time>
      </trkpt>
      <trkpt lat="43.37694" lon="-1.84693">
        <ele>36.186767578125</ele>
        <time>2015-08-20T10:02:44Z</time>
      </trkpt>
      <trkpt lat="43.37702" lon="-1.84718">
        <ele>37.148071289062</ele>
        <time>2015-08-20T10:03:05Z</time>
      </trkpt>
      <trkpt lat="43.37699" lon="-1.84733">
        <ele>36.66748046875</ele>
        <time>2015-08-20T10:03:19Z</time>
      </trkpt>
      <trkpt lat="43.37701" lon="-1.84753">
        <ele>35.7060546875</ele>
        <time>2015-08-20T10:03:37Z</time>
      </trkpt>
      <trkpt lat="43.37702" lon="-1.84764">
        <ele>37.148071289062</ele>
        <time>2015-08-20T10:03:48Z</time>
      </trkpt>
      <trkpt lat="43.37703" lon="-1.84765">
        <ele>36.66748046875</ele>
        <time>2015-08-20T10:03:49Z</time>
      </trkpt>
      <trkpt lat="43.37705" lon="-1.84773">
        <ele>36.186767578125</ele>
        <time>2015-08-20T10:03:55Z</time>
      </trkpt>
      <trkpt lat="43.3771" lon="-1.84802">
        <ele>36.186767578125</ele>
        <time>2015-08-20T10:04:16Z</time>
      </trkpt>
      <trkpt lat="43.37709" lon="-1.84807">
        <ele>35.7060546875</ele>
        <time>2015-08-20T10:04:20Z</time>
      </trkpt>
      <trkpt lat="43.37704" lon="-1.84828">
        <ele>37.628662109375</ele>
        <time>2015-08-20T10:04:40Z</time>
      </trkpt>
      <trkpt lat="43.37706" lon="-1.84828">
        <ele>37.628662109375</ele>
        <time>2015-08-20T10:04:42Z</time>
      </trkpt>
      <trkpt lat="43.37713" lon="-1.84831">
        <ele>36.66748046875</ele>
        <time>2015-08-20T10:04:51Z</time>
      </trkpt>
      <trkpt lat="43.37727" lon="-1.84851">
        <ele>38.109375</ele>
        <time>2015-08-20T10:05:09Z</time>
      </trkpt>
      <trkpt lat="43.37737" lon="-1.84872">
        <ele>38.590087890625</ele>
        <time>2015-08-20T10:05:28Z</time>
      </trkpt>
      <trkpt lat="43.37748" lon="-1.8489">
        <ele>35.7060546875</ele>
        <time>2015-08-20T10:05:46Z</time>
      </trkpt>
      <trkpt lat="43.37755" lon="-1.84913">
        <ele>35.225463867188</ele>
        <time>2015-08-20T10:06:05Z</time>
      </trkpt>
      <trkpt lat="43.37758" lon="-1.84933">
        <ele>32.822265625</ele>
        <time>2015-08-20T10:06:21Z</time>
      </trkpt>
      <trkpt lat="43.37756" lon="-1.84944">
        <ele>30.418823242188</ele>
        <time>2015-08-20T10:06:31Z</time>
      </trkpt>
      <trkpt lat="43.37742" lon="-1.84963">
        <ele>28.496215820312</ele>
        <time>2015-08-20T10:06:50Z</time>
      </trkpt>
      <trkpt lat="43.37732" lon="-1.84988">
        <ele>29.45751953125</ele>
        <time>2015-08-20T10:07:08Z</time>
      </trkpt>
      <trkpt lat="43.37728" lon="-1.8499">
        <ele>29.45751953125</ele>
        <time>2015-08-20T10:07:12Z</time>
      </trkpt>
      <trkpt lat="43.37711" lon="-1.85">
        <ele>31.380126953125</ele>
        <time>2015-08-20T10:07:30Z</time>
      </trkpt>
      <trkpt lat="43.37702" lon="-1.85009">
        <ele>31.860717773438</ele>
        <time>2015-08-20T10:07:44Z</time>
      </trkpt>
      <trkpt lat="43.377" lon="-1.8501">
        <ele>32.341552734375</ele>
        <time>2015-08-20T10:07:46Z</time>
      </trkpt>
      <trkpt lat="43.37676" lon="-1.85032">
        <ele>31.860717773438</ele>
        <time>2015-08-20T10:08:11Z</time>
      </trkpt>
      <trkpt lat="43.37658" lon="-1.85053">
        <ele>33.302856445312</ele>
        <time>2015-08-20T10:08:31Z</time>
      </trkpt>
      <trkpt lat="43.37641" lon="-1.85076">
        <ele>34.744873046875</ele>
        <time>2015-08-20T10:08:52Z</time>
      </trkpt>
      <trkpt lat="43.37624" lon="-1.85096">
        <ele>33.783447265625</ele>
        <time>2015-08-20T10:09:10Z</time>
      </trkpt>
      <trkpt lat="43.37604" lon="-1.85113">
        <ele>32.822265625</ele>
        <time>2015-08-20T10:09:31Z</time>
      </trkpt>
      <trkpt lat="43.3759" lon="-1.85123">
        <ele>32.341552734375</ele>
        <time>2015-08-20T10:09:45Z</time>
      </trkpt>
      <trkpt lat="43.37576" lon="-1.85144">
        <ele>29.938110351562</ele>
        <time>2015-08-20T10:10:03Z</time>
      </trkpt>
      <trkpt lat="43.37572" lon="-1.85151">
        <ele>29.45751953125</ele>
        <time>2015-08-20T10:10:10Z</time>
      </trkpt>
      <trkpt lat="43.37563" lon="-1.8517">
        <ele>26.573608398438</ele>
        <time>2015-08-20T10:10:27Z</time>
      </trkpt>
      <trkpt lat="43.37562" lon="-1.85178">
        <ele>24.651000976562</ele>
        <time>2015-08-20T10:10:36Z</time>
      </trkpt>
      <trkpt lat="43.37559" lon="-1.85192">
        <ele>21.286376953125</ele>
        <time>2015-08-20T10:10:52Z</time>
      </trkpt>
      <trkpt lat="43.37563" lon="-1.85203">
        <ele>17.921752929688</ele>
        <time>2015-08-20T10:11:08Z</time>
      </trkpt>
      <trkpt lat="43.37568" lon="-1.85217">
        <ele>16.96044921875</ele>
        <time>2015-08-20T10:11:26Z</time>
      </trkpt>
      <trkpt lat="43.3757" lon="-1.85222">
        <ele>15.9990234375</ele>
        <time>2015-08-20T10:11:31Z</time>
      </trkpt>
      <trkpt lat="43.37573" lon="-1.85233">
        <ele>14.076416015625</ele>
        <time>2015-08-20T10:11:45Z</time>
      </trkpt>
      <trkpt lat="43.37575" lon="-1.85241">
        <ele>12.634399414062</ele>
        <time>2015-08-20T10:12:01Z</time>
      </trkpt>
      <trkpt lat="43.37574" lon="-1.85247">
        <ele>12.634399414062</ele>
        <time>2015-08-20T10:12:24Z</time>
      </trkpt>
      <trkpt lat="43.3757" lon="-1.85247">
        <ele>12.15380859375</ele>
        <time>2015-08-20T10:12:45Z</time>
      </trkpt>
      <trkpt lat="43.37567" lon="-1.85251">
        <ele>12.15380859375</ele>
        <time>2015-08-20T10:12:58Z</time>
      </trkpt>
      <trkpt lat="43.37564" lon="-1.85253">
        <ele>11.673217773438</ele>
        <time>2015-08-20T10:13:19Z</time>
      </trkpt>
      <trkpt lat="43.37566" lon="-1.85254">
        <ele>11.673217773438</ele>
        <time>2015-08-20T10:13:37Z</time>
      </trkpt>
      <trkpt lat="43.37566" lon="-1.85255">
        <ele>9.7506103515625</ele>
        <time>2015-08-20T10:14:03Z</time>
      </trkpt>
      <trkpt lat="43.37565" lon="-1.85258">
        <ele>8.30859375</ele>
        <time>2015-08-20T10:14:41Z</time>
      </trkpt>
      <trkpt lat="43.37569" lon="-1.85254">
        <ele>4.94384765625</ele>
        <time>2015-08-20T10:17:07Z</time>
      </trkpt>
      <trkpt lat="43.37567" lon="-1.85254">
        <ele>2.06005859375</ele>
        <time>2015-08-20T10:20:22Z</time>
      </trkpt>
      <trkpt lat="43.37562" lon="-1.85255">
        <ele>3.021240234375</ele>
        <time>2015-08-20T10:29:18Z</time>
      </trkpt>
      <trkpt lat="43.37563" lon="-1.85254">
        <ele>4.4632568359375</ele>
        <time>2015-08-20T10:32:58Z</time>
      </trkpt>
      <trkpt lat="43.37563" lon="-1.85252">
        <ele>7.827880859375</ele>
        <time>2015-08-20T10:41:19Z</time>
      </trkpt>
      <trkpt lat="43.37562" lon="-1.85251">
        <ele>10.711791992188</ele>
        <time>2015-08-20T10:45:08Z</time>
      </trkpt>
      <trkpt lat="43.37561" lon="-1.8525">
        <ele>9.2698974609375</ele>
        <time>2015-08-20T10:46:15Z</time>
      </trkpt>
      <trkpt lat="43.37562" lon="-1.8525">
        <ele>10.231201171875</ele>
        <time>2015-08-20T10:47:28Z</time>
      </trkpt>
      <trkpt lat="43.37562" lon="-1.8525">
        <ele>10.711791992188</ele>
        <time>2015-08-20T10:48:12Z</time>
      </trkpt>
      <trkpt lat="43.37562" lon="-1.8525">
        <ele>10.711791992188</ele>
        <time>2015-08-20T10:49:05Z</time>
      </trkpt>
      <trkpt lat="43.37562" lon="-1.8525">
        <ele>10.711791992188</ele>
        <time>2015-08-20T10:50:03Z</time>
      </trkpt>
      <trkpt lat="43.37562" lon="-1.8525">
        <ele>10.711791992188</ele>
        <time>2015-08-20T10:50:56Z</time>
      </trkpt>
      <trkpt lat="43.37562" lon="-1.8525">
        <ele>12.15380859375</ele>
        <time>2015-08-20T10:52:14Z</time>
      </trkpt>
      <trkpt lat="43.37562" lon="-1.8525">
        <ele>11.192504882812</ele>
        <time>2015-08-20T10:53:04Z</time>
      </trkpt>
      <trkpt lat="43.37563" lon="-1.85249">
        <ele>10.231201171875</ele>
        <time>2015-08-20T10:54:06Z</time>
      </trkpt>
      <trkpt lat="43.37563" lon="-1.85249">
        <ele>11.192504882812</ele>
        <time>2015-08-20T10:55:57Z</time>
      </trkpt>
      <trkpt lat="43.37563" lon="-1.8525">
        <ele>12.634399414062</ele>
        <time>2015-08-20T10:57:23Z</time>
      </trkpt>
      <trkpt lat="43.37562" lon="-1.85249">
        <ele>11.673217773438</ele>
        <time>2015-08-20T10:58:13Z</time>
      </trkpt>
      <trkpt lat="43.37563" lon="-1.85249">
        <ele>13.115112304688</ele>
        <time>2015-08-20T10:58:33Z</time>
      </trkpt>
      <trkpt lat="43.37561" lon="-1.85248">
        <ele>14.076416015625</ele>
        <time>2015-08-20T10:58:57Z</time>
      </trkpt>
      <trkpt lat="43.3756" lon="-1.85248">
        <ele>12.634399414062</ele>
        <time>2015-08-20T10:59:34Z</time>
      </trkpt>
      <trkpt lat="43.37561" lon="-1.85249">
        <ele>12.634399414062</ele>
        <time>2015-08-20T11:00:20Z</time>
      </trkpt>
      <trkpt lat="43.37562" lon="-1.85251">
        <ele>13.595825195312</ele>
        <time>2015-08-20T11:02:40Z</time>
      </trkpt>
      <trkpt lat="43.37562" lon="-1.85248">
        <ele>14.557006835938</ele>
        <time>2015-08-20T11:02:59Z</time>
      </trkpt>
      <trkpt lat="43.37562" lon="-1.85247">
        <ele>14.557006835938</ele>
        <time>2015-08-20T11:03:16Z</time>
      </trkpt>
      <trkpt lat="43.37564" lon="-1.8524">
        <ele>14.557006835938</ele>
        <time>2015-08-20T11:03:30Z</time>
      </trkpt>
      <trkpt lat="43.37561" lon="-1.85232">
        <ele>15.037719726562</ele>
        <time>2015-08-20T11:03:45Z</time>
      </trkpt>
      <trkpt lat="43.37559" lon="-1.85229">
        <ele>15.9990234375</ele>
        <time>2015-08-20T11:04:05Z</time>
      </trkpt>
      <trkpt lat="43.37556" lon="-1.85223">
        <ele>15.518432617188</ele>
        <time>2015-08-20T11:04:29Z</time>
      </trkpt>
      <trkpt lat="43.37551" lon="-1.85222">
        <ele>15.518432617188</ele>
        <time>2015-08-20T11:04:46Z</time>
      </trkpt>
      <trkpt lat="43.37545" lon="-1.85226">
        <ele>13.115112304688</ele>
        <time>2015-08-20T11:05:04Z</time>
      </trkpt>
      <trkpt lat="43.37541" lon="-1.85234">
        <ele>12.634399414062</ele>
        <time>2015-08-20T11:05:24Z</time>
      </trkpt>
      <trkpt lat="43.37536" lon="-1.85242">
        <ele>11.192504882812</ele>
        <time>2015-08-20T11:05:42Z</time>
      </trkpt>
      <trkpt lat="43.37532" lon="-1.85252">
        <ele>7.827880859375</ele>
        <time>2015-08-20T11:05:59Z</time>
      </trkpt>
      <trkpt lat="43.3753" lon="-1.85248">
        <ele>5.9052734375</ele>
        <time>2015-08-20T11:06:12Z</time>
      </trkpt>
      <trkpt lat="43.37527" lon="-1.85245">
        <ele>4.94384765625</ele>
        <time>2015-08-20T11:06:24Z</time>
      </trkpt>
      <trkpt lat="43.37524" lon="-1.85254">
        <ele>3.982666015625</ele>
        <time>2015-08-20T11:06:41Z</time>
      </trkpt>
      <trkpt lat="43.37523" lon="-1.85264">
        <ele>2.5406494140625</ele>
        <time>2015-08-20T11:06:57Z</time>
      </trkpt>
      <trkpt lat="43.37516" lon="-1.85267">
        <ele>0.6180419921875</ele>
        <time>2015-08-20T11:07:14Z</time>
      </trkpt>
      <trkpt lat="43.37513" lon="-1.85269">
        <ele>1.0986328125</ele>
        <time>2015-08-20T11:07:20Z</time>
      </trkpt>
      <trkpt lat="43.37505" lon="-1.85269">
        <ele>3.982666015625</ele>
        <time>2015-08-20T11:07:36Z</time>
      </trkpt>
      <trkpt lat="43.37506" lon="-1.85259">
        <ele>6.866455078125</ele>
        <time>2015-08-20T11:07:51Z</time>
      </trkpt>
      <trkpt lat="43.37503" lon="-1.85257">
        <ele>8.30859375</ele>
        <time>2015-08-20T11:08:01Z</time>
      </trkpt>
      <trkpt lat="43.37498" lon="-1.85259">
        <ele>10.231201171875</ele>
        <time>2015-08-20T11:08:13Z</time>
      </trkpt>
      <trkpt lat="43.3749" lon="-1.8526">
        <ele>11.673217773438</ele>
        <time>2015-08-20T11:08:43Z</time>
      </trkpt>
      <trkpt lat="43.37488" lon="-1.85257">
        <ele>13.595825195312</ele>
        <time>2015-08-20T11:09:01Z</time>
      </trkpt>
      <trkpt lat="43.37484" lon="-1.85249">
        <ele>16.479736328125</ele>
        <time>2015-08-20T11:09:17Z</time>
      </trkpt>
      <trkpt lat="43.37477" lon="-1.85243">
        <ele>19.844360351562</ele>
        <time>2015-08-20T11:09:31Z</time>
      </trkpt>
      <trkpt lat="43.37466" lon="-1.85245">
        <ele>21.286376953125</ele>
        <time>2015-08-20T11:09:50Z</time>
      </trkpt>
      <trkpt lat="43.37464" lon="-1.85259">
        <ele>22.24755859375</ele>
        <time>2015-08-20T11:10:06Z</time>
      </trkpt>
      <trkpt lat="43.37456" lon="-1.85271">
        <ele>21.766967773438</ele>
        <time>2015-08-20T11:10:23Z</time>
      </trkpt>
      <trkpt lat="43.37446" lon="-1.85282">
        <ele>21.286376953125</ele>
        <time>2015-08-20T11:10:43Z</time>
      </trkpt>
      <trkpt lat="43.37427" lon="-1.85291">
        <ele>19.844360351562</ele>
        <time>2015-08-20T11:11:04Z</time>
      </trkpt>
      <trkpt lat="43.37431" lon="-1.85299">
        <ele>20.8056640625</ele>
        <time>2015-08-20T11:11:17Z</time>
      </trkpt>
      <trkpt lat="43.37434" lon="-1.85306">
        <ele>23.208984375</ele>
        <time>2015-08-20T11:11:25Z</time>
      </trkpt>
      <trkpt lat="43.37441" lon="-1.85314">
        <ele>24.170288085938</ele>
        <time>2015-08-20T11:11:39Z</time>
      </trkpt>
      <trkpt lat="43.37442" lon="-1.85332">
        <ele>25.6123046875</ele>
        <time>2015-08-20T11:11:57Z</time>
      </trkpt>
      <trkpt lat="43.37432" lon="-1.85334">
        <ele>26.092895507812</ele>
        <time>2015-08-20T11:12:12Z</time>
      </trkpt>
      <trkpt lat="43.37424" lon="-1.85332">
        <ele>28.976928710938</ele>
        <time>2015-08-20T11:12:23Z</time>
      </trkpt>
      <trkpt lat="43.3741" lon="-1.85335">
        <ele>31.860717773438</ele>
        <time>2015-08-20T11:12:41Z</time>
      </trkpt>
      <trkpt lat="43.37406" lon="-1.85338">
        <ele>32.341552734375</ele>
        <time>2015-08-20T11:12:46Z</time>
      </trkpt>
      <trkpt lat="43.37397" lon="-1.85345">
        <ele>35.225463867188</ele>
        <time>2015-08-20T11:13:01Z</time>
      </trkpt>
      <trkpt lat="43.37393" lon="-1.85362">
        <ele>34.744873046875</ele>
        <time>2015-08-20T11:13:17Z</time>
      </trkpt>
      <trkpt lat="43.37395" lon="-1.85379">
        <ele>31.860717773438</ele>
        <time>2015-08-20T11:13:34Z</time>
      </trkpt>
      <trkpt lat="43.37393" lon="-1.85396">
        <ele>29.938110351562</ele>
        <time>2015-08-20T11:13:51Z</time>
      </trkpt>
      <trkpt lat="43.37391" lon="-1.85405">
        <ele>26.573608398438</ele>
        <time>2015-08-20T11:14:00Z</time>
      </trkpt>
      <trkpt lat="43.37387" lon="-1.85415">
        <ele>25.6123046875</ele>
        <time>2015-08-20T11:14:09Z</time>
      </trkpt>
      <trkpt lat="43.37379" lon="-1.85434">
        <ele>23.208984375</ele>
        <time>2015-08-20T11:14:28Z</time>
      </trkpt>
      <trkpt lat="43.37379" lon="-1.85444">
        <ele>20.8056640625</ele>
        <time>2015-08-20T11:14:37Z</time>
      </trkpt>
      <trkpt lat="43.37374" lon="-1.85468">
        <ele>19.36376953125</ele>
        <time>2015-08-20T11:14:56Z</time>
      </trkpt>
      <trkpt lat="43.37377" lon="-1.85479">
        <ele>18.40234375</ele>
        <time>2015-08-20T11:15:10Z</time>
      </trkpt>
      <trkpt lat="43.37379" lon="-1.8548">
        <ele>19.844360351562</ele>
        <time>2015-08-20T11:15:13Z</time>
      </trkpt>
      <trkpt lat="43.37389" lon="-1.85479">
        <ele>20.8056640625</ele>
        <time>2015-08-20T11:15:28Z</time>
      </trkpt>
      <trkpt lat="43.37397" lon="-1.85481">
        <ele>22.24755859375</ele>
        <time>2015-08-20T11:15:44Z</time>
      </trkpt>
      <trkpt lat="43.37401" lon="-1.85488">
        <ele>24.170288085938</ele>
        <time>2015-08-20T11:16:03Z</time>
      </trkpt>
      <trkpt lat="43.37406" lon="-1.85499">
        <ele>27.534912109375</ele>
        <time>2015-08-20T11:16:20Z</time>
      </trkpt>
      <trkpt lat="43.37407" lon="-1.85501">
        <ele>28.015502929688</ele>
        <time>2015-08-20T11:16:33Z</time>
      </trkpt>
      <trkpt lat="43.37413" lon="-1.85505">
        <ele>28.496215820312</ele>
        <time>2015-08-20T11:16:49Z</time>
      </trkpt>
      <trkpt lat="43.37421" lon="-1.85525">
        <ele>31.860717773438</ele>
        <time>2015-08-20T11:17:07Z</time>
      </trkpt>
      <trkpt lat="43.37422" lon="-1.85545">
        <ele>33.302856445312</ele>
        <time>2015-08-20T11:17:25Z</time>
      </trkpt>
      <trkpt lat="43.3742" lon="-1.85562">
        <ele>32.822265625</ele>
        <time>2015-08-20T11:17:42Z</time>
      </trkpt>
      <trkpt lat="43.37414" lon="-1.85584">
        <ele>31.380126953125</ele>
        <time>2015-08-20T11:18:02Z</time>
      </trkpt>
      <trkpt lat="43.37417" lon="-1.85596">
        <ele>30.899536132812</ele>
        <time>2015-08-20T11:18:15Z</time>
      </trkpt>
      <trkpt lat="43.37435" lon="-1.85606">
        <ele>31.860717773438</ele>
        <time>2015-08-20T11:18:34Z</time>
      </trkpt>
      <trkpt lat="43.37447" lon="-1.85624">
        <ele>30.418823242188</ele>
        <time>2015-08-20T11:18:53Z</time>
      </trkpt>
      <trkpt lat="43.37448" lon="-1.85636">
        <ele>31.380126953125</ele>
        <time>2015-08-20T11:19:25Z</time>
      </trkpt>
      <trkpt lat="43.3745" lon="-1.85649">
        <ele>29.45751953125</ele>
        <time>2015-08-20T11:19:40Z</time>
      </trkpt>
      <trkpt lat="43.3745" lon="-1.8565">
        <ele>28.496215820312</ele>
        <time>2015-08-20T11:19:42Z</time>
      </trkpt>
      <trkpt lat="43.37451" lon="-1.85657">
        <ele>26.573608398438</ele>
        <time>2015-08-20T11:19:57Z</time>
      </trkpt>
      <trkpt lat="43.37446" lon="-1.85646">
        <ele>28.976928710938</ele>
        <time>2015-08-20T11:20:12Z</time>
      </trkpt>
      <trkpt lat="43.37441" lon="-1.85654">
        <ele>28.976928710938</ele>
        <time>2015-08-20T11:20:27Z</time>
      </trkpt>
      <trkpt lat="43.37437" lon="-1.85658">
        <ele>29.45751953125</ele>
        <time>2015-08-20T11:20:32Z</time>
      </trkpt>
      <trkpt lat="43.37426" lon="-1.85672">
        <ele>29.45751953125</ele>
        <time>2015-08-20T11:20:49Z</time>
      </trkpt>
      <trkpt lat="43.37418" lon="-1.85677">
        <ele>29.45751953125</ele>
        <time>2015-08-20T11:21:07Z</time>
      </trkpt>
      <trkpt lat="43.37413" lon="-1.85684">
        <ele>28.976928710938</ele>
        <time>2015-08-20T11:21:18Z</time>
      </trkpt>
      <trkpt lat="43.3741" lon="-1.85686">
        <ele>29.45751953125</ele>
        <time>2015-08-20T11:21:22Z</time>
      </trkpt>
      <trkpt lat="43.37407" lon="-1.85692">
        <ele>29.45751953125</ele>
        <time>2015-08-20T11:21:27Z</time>
      </trkpt>
      <trkpt lat="43.37399" lon="-1.85704">
        <ele>28.496215820312</ele>
        <time>2015-08-20T11:21:42Z</time>
      </trkpt>
      <trkpt lat="43.37393" lon="-1.85715">
        <ele>25.6123046875</ele>
        <time>2015-08-20T11:21:59Z</time>
      </trkpt>
      <trkpt lat="43.37389" lon="-1.85723">
        <ele>23.689575195312</ele>
        <time>2015-08-20T11:22:15Z</time>
      </trkpt>
      <trkpt lat="43.37392" lon="-1.85732">
        <ele>21.766967773438</ele>
        <time>2015-08-20T11:22:33Z</time>
      </trkpt>
      <trkpt lat="43.37392" lon="-1.85739">
        <ele>18.883056640625</ele>
        <time>2015-08-20T11:22:44Z</time>
      </trkpt>
      <trkpt lat="43.37391" lon="-1.85747">
        <ele>16.96044921875</ele>
        <time>2015-08-20T11:22:59Z</time>
      </trkpt>
      <trkpt lat="43.37392" lon="-1.85753">
        <ele>14.076416015625</ele>
        <time>2015-08-20T11:23:12Z</time>
      </trkpt>
      <trkpt lat="43.37391" lon="-1.85759">
        <ele>12.634399414062</ele>
        <time>2015-08-20T11:23:24Z</time>
      </trkpt>
      <trkpt lat="43.37393" lon="-1.85761">
        <ele>11.192504882812</ele>
        <time>2015-08-20T11:23:27Z</time>
      </trkpt>
      <trkpt lat="43.37393" lon="-1.85772">
        <ele>8.30859375</ele>
        <time>2015-08-20T11:23:40Z</time>
      </trkpt>
      <trkpt lat="43.37391" lon="-1.85777">
        <ele>7.827880859375</ele>
        <time>2015-08-20T11:23:59Z</time>
      </trkpt>
      <trkpt lat="43.37386" lon="-1.85778">
        <ele>6.866455078125</ele>
        <time>2015-08-20T11:24:14Z</time>
      </trkpt>
      <trkpt lat="43.37388" lon="-1.85783">
        <ele>7.34716796875</ele>
        <time>2015-08-20T11:24:31Z</time>
      </trkpt>
      <trkpt lat="43.37389" lon="-1.85788">
        <ele>7.34716796875</ele>
        <time>2015-08-20T11:24:47Z</time>
      </trkpt>
      <trkpt lat="43.37393" lon="-1.85795">
        <ele>7.34716796875</ele>
        <time>2015-08-20T11:24:59Z</time>
      </trkpt>
      <trkpt lat="43.37396" lon="-1.85799">
        <ele>6.3858642578125</ele>
        <time>2015-08-20T11:25:09Z</time>
      </trkpt>
      <trkpt lat="43.37402" lon="-1.85807">
        <ele>5.424560546875</ele>
        <time>2015-08-20T11:25:21Z</time>
      </trkpt>
      <trkpt lat="43.37404" lon="-1.85813">
        <ele>3.501953125</ele>
        <time>2015-08-20T11:25:37Z</time>
      </trkpt>
      <trkpt lat="43.37406" lon="-1.85819">
        <ele>3.982666015625</ele>
        <time>2015-08-20T11:25:50Z</time>
      </trkpt>
      <trkpt lat="43.37407" lon="-1.85831">
        <ele>3.021240234375</ele>
        <time>2015-08-20T11:26:05Z</time>
      </trkpt>
      <trkpt lat="43.37408" lon="-1.85838">
        <ele>2.5406494140625</ele>
        <time>2015-08-20T11:26:18Z</time>
      </trkpt>
      <trkpt lat="43.37404" lon="-1.85846">
        <ele>3.501953125</ele>
        <time>2015-08-20T11:26:33Z</time>
      </trkpt>
      <trkpt lat="43.37399" lon="-1.85851">
        <ele>1.579345703125</ele>
        <time>2015-08-20T11:26:42Z</time>
      </trkpt>
      <trkpt lat="43.37399" lon="-1.85854">
        <ele>3.021240234375</ele>
        <time>2015-08-20T11:26:56Z</time>
      </trkpt>
      <trkpt lat="43.37398" lon="-1.85858">
        <ele>3.982666015625</ele>
        <time>2015-08-20T11:27:06Z</time>
      </trkpt>
      <trkpt lat="43.37399" lon="-1.85858">
        <ele>3.021240234375</ele>
        <time>2015-08-20T11:27:21Z</time>
      </trkpt>
      <trkpt lat="43.37398" lon="-1.85862">
        <ele>3.021240234375</ele>
        <time>2015-08-20T11:27:38Z</time>
      </trkpt>
      <trkpt lat="43.37399" lon="-1.85862">
        <ele>3.021240234375</ele>
        <time>2015-08-20T11:28:17Z</time>
      </trkpt>
      <trkpt lat="43.37397" lon="-1.85867">
        <ele>3.501953125</ele>
        <time>2015-08-20T11:28:32Z</time>
      </trkpt>
      <trkpt lat="43.37399" lon="-1.85871">
        <ele>3.501953125</ele>
        <time>2015-08-20T11:28:50Z</time>
      </trkpt>
      <trkpt lat="43.374" lon="-1.85875">
        <ele>3.021240234375</ele>
        <time>2015-08-20T11:29:04Z</time>
      </trkpt>
      <trkpt lat="43.37397" lon="-1.85879">
        <ele>4.4632568359375</ele>
        <time>2015-08-20T11:29:17Z</time>
      </trkpt>
      <trkpt lat="43.37395" lon="-1.85886">
        <ele>3.021240234375</ele>
        <time>2015-08-20T11:29:33Z</time>
      </trkpt>
      <trkpt lat="43.37398" lon="-1.85891">
        <ele>1.579345703125</ele>
        <time>2015-08-20T11:29:50Z</time>
      </trkpt>
      <trkpt lat="43.37395" lon="-1.85896">
        <ele>2.5406494140625</ele>
        <time>2015-08-20T11:30:04Z</time>
      </trkpt>
      <trkpt lat="43.3739" lon="-1.85895">
        <ele>2.5406494140625</ele>
        <time>2015-08-20T11:30:17Z</time>
      </trkpt>
      <trkpt lat="43.37386" lon="-1.85892">
        <ele>4.4632568359375</ele>
        <time>2015-08-20T11:30:32Z</time>
      </trkpt>
      <trkpt lat="43.37381" lon="-1.85889">
        <ele>5.424560546875</ele>
        <time>2015-08-20T11:30:47Z</time>
      </trkpt>
      <trkpt lat="43.37376" lon="-1.85882">
        <ele>6.866455078125</ele>
        <time>2015-08-20T11:31:15Z</time>
      </trkpt>
      <trkpt lat="43.37368" lon="-1.85877">
        <ele>10.231201171875</ele>
        <time>2015-08-20T11:31:29Z</time>
      </trkpt>
      <trkpt lat="43.37361" lon="-1.8587">
        <ele>13.115112304688</ele>
        <time>2015-08-20T11:31:45Z</time>
      </trkpt>
      <trkpt lat="43.37352" lon="-1.85861">
        <ele>15.518432617188</ele>
        <time>2015-08-20T11:32:03Z</time>
      </trkpt>
      <trkpt lat="43.3734" lon="-1.85864">
        <ele>15.9990234375</ele>
        <time>2015-08-20T11:32:20Z</time>
      </trkpt>
      <trkpt lat="43.37336" lon="-1.85865">
        <ele>16.96044921875</ele>
        <time>2015-08-20T11:32:36Z</time>
      </trkpt>
      <trkpt lat="43.37327" lon="-1.8587">
        <ele>18.40234375</ele>
        <time>2015-08-20T11:32:54Z</time>
      </trkpt>
      <trkpt lat="43.37319" lon="-1.85874">
        <ele>21.766967773438</ele>
        <time>2015-08-20T11:33:12Z</time>
      </trkpt>
      <trkpt lat="43.37312" lon="-1.85877">
        <ele>24.651000976562</ele>
        <time>2015-08-20T11:33:29Z</time>
      </trkpt>
      <trkpt lat="43.37303" lon="-1.85878">
        <ele>27.534912109375</ele>
        <time>2015-08-20T11:33:48Z</time>
      </trkpt>
      <trkpt lat="43.37297" lon="-1.85876">
        <ele>29.45751953125</ele>
        <time>2015-08-20T11:34:04Z</time>
      </trkpt>
      <trkpt lat="43.37294" lon="-1.85877">
        <ele>32.341552734375</ele>
        <time>2015-08-20T11:34:14Z</time>
      </trkpt>
      <trkpt lat="43.37294" lon="-1.85881">
        <ele>34.26416015625</ele>
        <time>2015-08-20T11:34:30Z</time>
      </trkpt>
      <trkpt lat="43.37289" lon="-1.85882">
        <ele>36.186767578125</ele>
        <time>2015-08-20T11:34:45Z</time>
      </trkpt>
      <trkpt lat="43.37284" lon="-1.8588">
        <ele>37.148071289062</ele>
        <time>2015-08-20T11:35:02Z</time>
      </trkpt>
      <trkpt lat="43.37277" lon="-1.85881">
        <ele>38.109375</ele>
        <time>2015-08-20T11:35:18Z</time>
      </trkpt>
      <trkpt lat="43.37274" lon="-1.85881">
        <ele>38.109375</ele>
        <time>2015-08-20T11:35:40Z</time>
      </trkpt>
      <trkpt lat="43.37268" lon="-1.85878">
        <ele>38.590087890625</ele>
        <time>2015-08-20T11:35:50Z</time>
      </trkpt>
      <trkpt lat="43.3725" lon="-1.85874">
        <ele>40.032104492188</ele>
        <time>2015-08-20T11:36:11Z</time>
      </trkpt>
      <trkpt lat="43.37239" lon="-1.85875">
        <ele>40.993408203125</ele>
        <time>2015-08-20T11:36:25Z</time>
      </trkpt>
      <trkpt lat="43.37223" lon="-1.85868">
        <ele>43.396606445312</ele>
        <time>2015-08-20T11:36:43Z</time>
      </trkpt>
      <trkpt lat="43.37205" lon="-1.85866">
        <ele>43.877319335938</ele>
        <time>2015-08-20T11:37:00Z</time>
      </trkpt>
      <trkpt lat="43.37203" lon="-1.85865">
        <ele>45.319213867188</ele>
        <time>2015-08-20T11:37:02Z</time>
      </trkpt>
      <trkpt lat="43.37185" lon="-1.85865">
        <ele>47.722534179688</ele>
        <time>2015-08-20T11:37:21Z</time>
      </trkpt>
      <trkpt lat="43.37168" lon="-1.8587">
        <ele>49.16455078125</ele>
        <time>2015-08-20T11:37:39Z</time>
      </trkpt>
      <trkpt lat="43.37152" lon="-1.85873">
        <ele>50.1259765625</ele>
        <time>2015-08-20T11:37:56Z</time>
      </trkpt>
      <trkpt lat="43.37141" lon="-1.85873">
        <ele>52.048583984375</ele>
        <time>2015-08-20T11:38:10Z</time>
      </trkpt>
      <trkpt lat="43.37129" lon="-1.85871">
        <ele>53.97119140625</ele>
        <time>2015-08-20T11:38:25Z</time>
      </trkpt>
      <trkpt lat="43.3712" lon="-1.85863">
        <ele>55.893798828125</ele>
        <time>2015-08-20T11:38:38Z</time>
      </trkpt>
      <trkpt lat="43.37106" lon="-1.85865">
        <ele>56.37451171875</ele>
        <time>2015-08-20T11:38:54Z</time>
      </trkpt>
      <trkpt lat="43.37098" lon="-1.85872">
        <ele>54.932373046875</ele>
        <time>2015-08-20T11:39:07Z</time>
      </trkpt>
      <trkpt lat="43.37089" lon="-1.85882">
        <ele>53.009765625</ele>
        <time>2015-08-20T11:39:20Z</time>
      </trkpt>
      <trkpt lat="43.37079" lon="-1.85891">
        <ele>51.087158203125</ele>
        <time>2015-08-20T11:39:33Z</time>
      </trkpt>
      <trkpt lat="43.37074" lon="-1.85904">
        <ele>51.56787109375</ele>
        <time>2015-08-20T11:39:48Z</time>
      </trkpt>
      <trkpt lat="43.37068" lon="-1.85913">
        <ele>50.1259765625</ele>
        <time>2015-08-20T11:40:02Z</time>
      </trkpt>
      <trkpt lat="43.37061" lon="-1.85926">
        <ele>48.203369140625</ele>
        <time>2015-08-20T11:40:16Z</time>
      </trkpt>
      <trkpt lat="43.37046" lon="-1.8594">
        <ele>46.280639648438</ele>
        <time>2015-08-20T11:40:32Z</time>
      </trkpt>
      <trkpt lat="43.37032" lon="-1.85952">
        <ele>45.799926757812</ele>
        <time>2015-08-20T11:40:47Z</time>
      </trkpt>
      <trkpt lat="43.37025" lon="-1.85965">
        <ele>45.799926757812</ele>
        <time>2015-08-20T11:41:05Z</time>
      </trkpt>
      <trkpt lat="43.37018" lon="-1.85976">
        <ele>44.838623046875</ele>
        <time>2015-08-20T11:41:17Z</time>
      </trkpt>
      <trkpt lat="43.37011" lon="-1.85987">
        <ele>41.954711914062</ele>
        <time>2015-08-20T11:41:30Z</time>
      </trkpt>
      <trkpt lat="43.37003" lon="-1.85997">
        <ele>40.512817382812</ele>
        <time>2015-08-20T11:41:44Z</time>
      </trkpt>
      <trkpt lat="43.36995" lon="-1.86009">
        <ele>37.628662109375</ele>
        <time>2015-08-20T11:41:58Z</time>
      </trkpt>
      <trkpt lat="43.36982" lon="-1.86017">
        <ele>34.26416015625</ele>
        <time>2015-08-20T11:42:11Z</time>
      </trkpt>
      <trkpt lat="43.36973" lon="-1.8602">
        <ele>34.26416015625</ele>
        <time>2015-08-20T11:42:23Z</time>
      </trkpt>
      <trkpt lat="43.36953" lon="-1.86039">
        <ele>34.744873046875</ele>
        <time>2015-08-20T11:42:44Z</time>
      </trkpt>
      <trkpt lat="43.36944" lon="-1.86044">
        <ele>35.7060546875</ele>
        <time>2015-08-20T11:43:03Z</time>
      </trkpt>
      <trkpt lat="43.3694" lon="-1.86049">
        <ele>34.26416015625</ele>
        <time>2015-08-20T11:43:19Z</time>
      </trkpt>
      <trkpt lat="43.36934" lon="-1.86045">
        <ele>34.744873046875</ele>
        <time>2015-08-20T11:43:32Z</time>
      </trkpt>
      <trkpt lat="43.36928" lon="-1.86045">
        <ele>35.225463867188</ele>
        <time>2015-08-20T11:43:55Z</time>
      </trkpt>
      <trkpt lat="43.36915" lon="-1.86046">
        <ele>37.148071289062</ele>
        <time>2015-08-20T11:44:10Z</time>
      </trkpt>
      <trkpt lat="43.36907" lon="-1.8605">
        <ele>36.186767578125</ele>
        <time>2015-08-20T11:44:21Z</time>
      </trkpt>
      <trkpt lat="43.369" lon="-1.86051">
        <ele>35.7060546875</ele>
        <time>2015-08-20T11:44:28Z</time>
      </trkpt>
      <trkpt lat="43.36881" lon="-1.86055">
        <ele>35.225463867188</ele>
        <time>2015-08-20T11:44:48Z</time>
      </trkpt>
      <trkpt lat="43.36868" lon="-1.86071">
        <ele>35.225463867188</ele>
        <time>2015-08-20T11:45:06Z</time>
      </trkpt>
      <trkpt lat="43.36859" lon="-1.86082">
        <ele>32.822265625</ele>
        <time>2015-08-20T11:45:22Z</time>
      </trkpt>
      <trkpt lat="43.36844" lon="-1.86099">
        <ele>30.418823242188</ele>
        <time>2015-08-20T11:45:41Z</time>
      </trkpt>
      <trkpt lat="43.36836" lon="-1.86104">
        <ele>30.418823242188</ele>
        <time>2015-08-20T11:45:51Z</time>
      </trkpt>
      <trkpt lat="43.36826" lon="-1.86107">
        <ele>30.418823242188</ele>
        <time>2015-08-20T11:46:02Z</time>
      </trkpt>
      <trkpt lat="43.36822" lon="-1.8611">
        <ele>30.418823242188</ele>
        <time>2015-08-20T11:46:07Z</time>
      </trkpt>
      <trkpt lat="43.36819" lon="-1.86094">
        <ele>30.418823242188</ele>
        <time>2015-08-20T11:46:23Z</time>
      </trkpt>
      <trkpt lat="43.36817" lon="-1.86093">
        <ele>30.418823242188</ele>
        <time>2015-08-20T11:46:31Z</time>
      </trkpt>
      <trkpt lat="43.36823" lon="-1.86106">
        <ele>29.938110351562</ele>
        <time>2015-08-20T11:46:42Z</time>
      </trkpt>
      <trkpt lat="43.36815" lon="-1.8611">
        <ele>29.938110351562</ele>
        <time>2015-08-20T11:46:50Z</time>
      </trkpt>
      <trkpt lat="43.368" lon="-1.86109">
        <ele>28.976928710938</ele>
        <time>2015-08-20T11:47:07Z</time>
      </trkpt>
      <trkpt lat="43.36795" lon="-1.86104">
        <ele>27.534912109375</ele>
        <time>2015-08-20T11:47:20Z</time>
      </trkpt>
      <trkpt lat="43.36782" lon="-1.86104">
        <ele>26.573608398438</ele>
        <time>2015-08-20T11:47:38Z</time>
      </trkpt>
      <trkpt lat="43.36771" lon="-1.86103">
        <ele>26.092895507812</ele>
        <time>2015-08-20T11:47:55Z</time>
      </trkpt>
      <trkpt lat="43.3677" lon="-1.86102">
        <ele>27.054321289062</ele>
        <time>2015-08-20T11:48:09Z</time>
      </trkpt>
      <trkpt lat="43.36763" lon="-1.86109">
        <ele>27.534912109375</ele>
        <time>2015-08-20T11:48:27Z</time>
      </trkpt>
      <trkpt lat="43.36745" lon="-1.86103">
        <ele>28.015502929688</ele>
        <time>2015-08-20T11:48:47Z</time>
      </trkpt>
      <trkpt lat="43.36729" lon="-1.86104">
        <ele>28.976928710938</ele>
        <time>2015-08-20T11:49:03Z</time>
      </trkpt>
      <trkpt lat="43.36714" lon="-1.86101">
        <ele>30.899536132812</ele>
        <time>2015-08-20T11:49:18Z</time>
      </trkpt>
      <trkpt lat="43.36701" lon="-1.86094">
        <ele>30.418823242188</ele>
        <time>2015-08-20T11:49:34Z</time>
      </trkpt>
      <trkpt lat="43.3669" lon="-1.86081">
        <ele>29.45751953125</ele>
        <time>2015-08-20T11:49:49Z</time>
      </trkpt>
      <trkpt lat="43.36684" lon="-1.86074">
        <ele>28.496215820312</ele>
        <time>2015-08-20T11:50:05Z</time>
      </trkpt>
      <trkpt lat="43.36686" lon="-1.86083">
        <ele>28.976928710938</ele>
        <time>2015-08-20T11:50:21Z</time>
      </trkpt>
      <trkpt lat="43.36688" lon="-1.86095">
        <ele>28.015502929688</ele>
        <time>2015-08-20T11:50:35Z</time>
      </trkpt>
      <trkpt lat="43.36688" lon="-1.86096">
        <ele>28.015502929688</ele>
        <time>2015-08-20T11:50:36Z</time>
      </trkpt>
      <trkpt lat="43.36684" lon="-1.86104">
        <ele>30.418823242188</ele>
        <time>2015-08-20T11:50:47Z</time>
      </trkpt>
      <trkpt lat="43.36691" lon="-1.86124">
        <ele>30.899536132812</ele>
        <time>2015-08-20T11:51:15Z</time>
      </trkpt>
      <trkpt lat="43.36697" lon="-1.86138">
        <ele>33.783447265625</ele>
        <time>2015-08-20T11:51:31Z</time>
      </trkpt>
      <trkpt lat="43.36701" lon="-1.86146">
        <ele>37.148071289062</ele>
        <time>2015-08-20T11:51:47Z</time>
      </trkpt>
      <trkpt lat="43.36708" lon="-1.86151">
        <ele>40.032104492188</ele>
        <time>2015-08-20T11:52:02Z</time>
      </trkpt>
      <trkpt lat="43.36712" lon="-1.86157">
        <ele>42.916015625</ele>
        <time>2015-08-20T11:52:17Z</time>
      </trkpt>
      <trkpt lat="43.36719" lon="-1.86159">
        <ele>43.877319335938</ele>
        <time>2015-08-20T11:52:29Z</time>
      </trkpt>
      <trkpt lat="43.36726" lon="-1.86162">
        <ele>44.358032226562</ele>
        <time>2015-08-20T11:52:43Z</time>
      </trkpt>
      <trkpt lat="43.36736" lon="-1.86163">
        <ele>45.319213867188</ele>
        <time>2015-08-20T11:52:57Z</time>
      </trkpt>
      <trkpt lat="43.36742" lon="-1.86169">
        <ele>46.76123046875</ele>
        <time>2015-08-20T11:53:11Z</time>
      </trkpt>
      <trkpt lat="43.36746" lon="-1.86175">
        <ele>50.1259765625</ele>
        <time>2015-08-20T11:53:27Z</time>
      </trkpt>
      <trkpt lat="43.36749" lon="-1.86173">
        <ele>48.683959960938</ele>
        <time>2015-08-20T11:53:41Z</time>
      </trkpt>
      <trkpt lat="43.36752" lon="-1.86178">
        <ele>49.16455078125</ele>
        <time>2015-08-20T11:53:59Z</time>
      </trkpt>
      <trkpt lat="43.36755" lon="-1.86185">
        <ele>51.087158203125</ele>
        <time>2015-08-20T11:54:14Z</time>
      </trkpt>
      <trkpt lat="43.36763" lon="-1.86194">
        <ele>52.529174804688</ele>
        <time>2015-08-20T11:54:29Z</time>
      </trkpt>
      <trkpt lat="43.3677" lon="-1.86202">
        <ele>53.009765625</ele>
        <time>2015-08-20T11:54:43Z</time>
      </trkpt>
      <trkpt lat="43.36774" lon="-1.86205">
        <ele>52.529174804688</ele>
        <time>2015-08-20T11:54:49Z</time>
      </trkpt>
      <trkpt lat="43.36785" lon="-1.86209">
        <ele>52.048583984375</ele>
        <time>2015-08-20T11:55:03Z</time>
      </trkpt>
      <trkpt lat="43.36793" lon="-1.86218">
        <ele>54.451782226562</ele>
        <time>2015-08-20T11:55:19Z</time>
      </trkpt>
      <trkpt lat="43.36799" lon="-1.86223">
        <ele>54.451782226562</ele>
        <time>2015-08-20T11:55:32Z</time>
      </trkpt>
      <trkpt lat="43.36807" lon="-1.86227">
        <ele>57.335815429688</ele>
        <time>2015-08-20T11:55:45Z</time>
      </trkpt>
      <trkpt lat="43.36816" lon="-1.86234">
        <ele>59.258422851562</ele>
        <time>2015-08-20T11:56:01Z</time>
      </trkpt>
      <trkpt lat="43.36816" lon="-1.86234">
        <ele>60.2197265625</ele>
        <time>2015-08-20T11:56:03Z</time>
      </trkpt>
      <trkpt lat="43.36823" lon="-1.86234">
        <ele>61.661743164062</ele>
        <time>2015-08-20T11:56:22Z</time>
      </trkpt>
      <trkpt lat="43.36827" lon="-1.86238">
        <ele>64.065063476562</ele>
        <time>2015-08-20T11:56:35Z</time>
      </trkpt>
      <trkpt lat="43.36832" lon="-1.86246">
        <ele>66.948974609375</ele>
        <time>2015-08-20T11:56:50Z</time>
      </trkpt>
      <trkpt lat="43.36839" lon="-1.86253">
        <ele>69.352294921875</ele>
        <time>2015-08-20T11:57:04Z</time>
      </trkpt>
      <trkpt lat="43.36851" lon="-1.86256">
        <ele>71.755493164062</ele>
        <time>2015-08-20T11:57:21Z</time>
      </trkpt>
      <trkpt lat="43.36858" lon="-1.86262">
        <ele>72.716918945312</ele>
        <time>2015-08-20T11:57:35Z</time>
      </trkpt>
      <trkpt lat="43.36866" lon="-1.86267">
        <ele>73.67822265625</ele>
        <time>2015-08-20T11:57:50Z</time>
      </trkpt>
      <trkpt lat="43.36878" lon="-1.86271">
        <ele>74.639526367188</ele>
        <time>2015-08-20T11:58:06Z</time>
      </trkpt>
      <trkpt lat="43.36893" lon="-1.86277">
        <ele>75.600830078125</ele>
        <time>2015-08-20T11:58:24Z</time>
      </trkpt>
      <trkpt lat="43.36902" lon="-1.8628">
        <ele>76.081420898438</ele>
        <time>2015-08-20T11:58:38Z</time>
      </trkpt>
      <trkpt lat="43.369" lon="-1.86286">
        <ele>79.926635742188</ele>
        <time>2015-08-20T11:58:47Z</time>
      </trkpt>
      <trkpt lat="43.369" lon="-1.86286">
        <ele>79.446044921875</ele>
        <time>2015-08-20T11:58:48Z</time>
      </trkpt>
      <trkpt lat="43.36892" lon="-1.86292">
        <ele>81.849365234375</ele>
        <time>2015-08-20T11:59:02Z</time>
      </trkpt>
      <trkpt lat="43.36888" lon="-1.86295">
        <ele>85.694580078125</ele>
        <time>2015-08-20T11:59:18Z</time>
      </trkpt>
      <trkpt lat="43.36893" lon="-1.86296">
        <ele>86.656005859375</ele>
        <time>2015-08-20T11:59:35Z</time>
      </trkpt>
      <trkpt lat="43.36893" lon="-1.86291">
        <ele>86.656005859375</ele>
        <time>2015-08-20T12:00:03Z</time>
      </trkpt>
      <trkpt lat="43.36894" lon="-1.86284">
        <ele>85.694580078125</ele>
        <time>2015-08-20T12:01:15Z</time>
      </trkpt>
      <trkpt lat="43.369" lon="-1.86279">
        <ele>85.694580078125</ele>
        <time>2015-08-20T12:01:27Z</time>
      </trkpt>
      <trkpt lat="43.36908" lon="-1.86284">
        <ele>86.17529296875</ele>
        <time>2015-08-20T12:01:41Z</time>
      </trkpt>
      <trkpt lat="43.36908" lon="-1.86286">
        <ele>86.656005859375</ele>
        <time>2015-08-20T12:02:01Z</time>
      </trkpt>
      <trkpt lat="43.36909" lon="-1.86285">
        <ele>86.17529296875</ele>
        <time>2015-08-20T12:02:33Z</time>
      </trkpt>
      <trkpt lat="43.36915" lon="-1.86287">
        <ele>86.656005859375</ele>
        <time>2015-08-20T12:02:53Z</time>
      </trkpt>
      <trkpt lat="43.36926" lon="-1.86291">
        <ele>85.213989257812</ele>
        <time>2015-08-20T12:03:09Z</time>
      </trkpt>
      <trkpt lat="43.36927" lon="-1.86282">
        <ele>86.17529296875</ele>
        <time>2015-08-20T12:03:23Z</time>
      </trkpt>
      <trkpt lat="43.36934" lon="-1.86286">
        <ele>86.17529296875</ele>
        <time>2015-08-20T12:04:19Z</time>
      </trkpt>
      <trkpt lat="43.36945" lon="-1.86292">
        <ele>89.539916992188</ele>
        <time>2015-08-20T12:04:36Z</time>
      </trkpt>
      <trkpt lat="43.36954" lon="-1.86297">
        <ele>91.943237304688</ele>
        <time>2015-08-20T12:04:55Z</time>
      </trkpt>
      <trkpt lat="43.36962" lon="-1.86299">
        <ele>91.943237304688</ele>
        <time>2015-08-20T12:05:09Z</time>
      </trkpt>
      <trkpt lat="43.36968" lon="-1.86303">
        <ele>91.943237304688</ele>
        <time>2015-08-20T12:05:19Z</time>
      </trkpt>
      <trkpt lat="43.36969" lon="-1.86303">
        <ele>92.904541015625</ele>
        <time>2015-08-20T12:05:21Z</time>
      </trkpt>
      <trkpt lat="43.3698" lon="-1.86298">
        <ele>94.8271484375</ele>
        <time>2015-08-20T12:05:37Z</time>
      </trkpt>
      <trkpt lat="43.36986" lon="-1.86291">
        <ele>95.307739257812</ele>
        <time>2015-08-20T12:05:49Z</time>
      </trkpt>
      <trkpt lat="43.36993" lon="-1.86296">
        <ele>94.8271484375</ele>
        <time>2015-08-20T12:06:03Z</time>
      </trkpt>
      <trkpt lat="43.36997" lon="-1.86303">
        <ele>92.904541015625</ele>
        <time>2015-08-20T12:06:21Z</time>
      </trkpt>
      <trkpt lat="43.36998" lon="-1.86309">
        <ele>90.020629882812</ele>
        <time>2015-08-20T12:06:28Z</time>
      </trkpt>
      <trkpt lat="43.36997" lon="-1.86324">
        <ele>89.059326171875</ele>
        <time>2015-08-20T12:06:40Z</time>
      </trkpt>
      <trkpt lat="43.36988" lon="-1.86339">
        <ele>90.020629882812</ele>
        <time>2015-08-20T12:06:57Z</time>
      </trkpt>
      <trkpt lat="43.36986" lon="-1.86341">
        <ele>90.501342773438</ele>
        <time>2015-08-20T12:07:01Z</time>
      </trkpt>
      <trkpt lat="43.36986" lon="-1.86341">
        <ele>90.020629882812</ele>
        <time>2015-08-20T12:07:15Z</time>
      </trkpt>
      <trkpt lat="43.36989" lon="-1.86339">
        <ele>90.020629882812</ele>
        <time>2015-08-20T12:07:19Z</time>
      </trkpt>
      <trkpt lat="43.36993" lon="-1.86347">
        <ele>87.136596679688</ele>
        <time>2015-08-20T12:07:30Z</time>
      </trkpt>
      <trkpt lat="43.36993" lon="-1.86348">
        <ele>87.136596679688</ele>
        <time>2015-08-20T12:07:31Z</time>
      </trkpt>
      <trkpt lat="43.36995" lon="-1.86358">
        <ele>84.252685546875</ele>
        <time>2015-08-20T12:07:42Z</time>
      </trkpt>
      <trkpt lat="43.36989" lon="-1.86379">
        <ele>81.849365234375</ele>
        <time>2015-08-20T12:08:02Z</time>
      </trkpt>
      <trkpt lat="43.36983" lon="-1.86397">
        <ele>80.407470703125</ele>
        <time>2015-08-20T12:08:18Z</time>
      </trkpt>
      <trkpt lat="43.36981" lon="-1.86412">
        <ele>77.042846679688</ele>
        <time>2015-08-20T12:08:32Z</time>
      </trkpt>
      <trkpt lat="43.36981" lon="-1.86413">
        <ele>77.042846679688</ele>
        <time>2015-08-20T12:08:33Z</time>
      </trkpt>
      <trkpt lat="43.36981" lon="-1.86417">
        <ele>76.562133789062</ele>
        <time>2015-08-20T12:08:36Z</time>
      </trkpt>
      <trkpt lat="43.36976" lon="-1.86435">
        <ele>73.197631835938</ele>
        <time>2015-08-20T12:08:55Z</time>
      </trkpt>
      <trkpt lat="43.36971" lon="-1.86452">
        <ele>71.755493164062</ele>
        <time>2015-08-20T12:09:10Z</time>
      </trkpt>
      <trkpt lat="43.36962" lon="-1.86475">
        <ele>71.27490234375</ele>
        <time>2015-08-20T12:09:29Z</time>
      </trkpt>
      <trkpt lat="43.3696" lon="-1.86476">
        <ele>71.755493164062</ele>
        <time>2015-08-20T12:09:31Z</time>
      </trkpt>
      <trkpt lat="43.36942" lon="-1.86491">
        <ele>71.755493164062</ele>
        <time>2015-08-20T12:09:50Z</time>
      </trkpt>
      <trkpt lat="43.36928" lon="-1.865">
        <ele>72.236206054688</ele>
        <time>2015-08-20T12:10:06Z</time>
      </trkpt>
      <trkpt lat="43.36926" lon="-1.86501">
        <ele>71.755493164062</ele>
        <time>2015-08-20T12:10:19Z</time>
      </trkpt>
      <trkpt lat="43.36935" lon="-1.86498">
        <ele>71.27490234375</ele>
        <time>2015-08-20T12:10:32Z</time>
      </trkpt>
      <trkpt lat="43.36936" lon="-1.8649">
        <ele>73.67822265625</ele>
        <time>2015-08-20T12:10:48Z</time>
      </trkpt>
      <trkpt lat="43.36931" lon="-1.86488">
        <ele>75.600830078125</ele>
        <time>2015-08-20T12:10:54Z</time>
      </trkpt>
      <trkpt lat="43.36919" lon="-1.86483">
        <ele>77.5234375</ele>
        <time>2015-08-20T12:11:13Z</time>
      </trkpt>
      <trkpt lat="43.36913" lon="-1.86476">
        <ele>80.88818359375</ele>
        <time>2015-08-20T12:11:27Z</time>
      </trkpt>
      <trkpt lat="43.36909" lon="-1.86473">
        <ele>81.368774414062</ele>
        <time>2015-08-20T12:11:35Z</time>
      </trkpt>
      <trkpt lat="43.36898" lon="-1.86464">
        <ele>83.77197265625</ele>
        <time>2015-08-20T12:11:53Z</time>
      </trkpt>
      <trkpt lat="43.36887" lon="-1.8646">
        <ele>86.656005859375</ele>
        <time>2015-08-20T12:12:09Z</time>
      </trkpt>
      <trkpt lat="43.36876" lon="-1.86459">
        <ele>90.020629882812</ele>
        <time>2015-08-20T12:12:27Z</time>
      </trkpt>
      <trkpt lat="43.36864" lon="-1.86464">
        <ele>91.943237304688</ele>
        <time>2015-08-20T12:12:43Z</time>
      </trkpt>
      <trkpt lat="43.36863" lon="-1.86464">
        <ele>91.462524414062</ele>
        <time>2015-08-20T12:12:56Z</time>
      </trkpt>
      <trkpt lat="43.36845" lon="-1.86465">
        <ele>93.385131835938</ele>
        <time>2015-08-20T12:13:15Z</time>
      </trkpt>
      <trkpt lat="43.36826" lon="-1.8646">
        <ele>94.8271484375</ele>
        <time>2015-08-20T12:13:35Z</time>
      </trkpt>
      <trkpt lat="43.36813" lon="-1.86457">
        <ele>95.788452148438</ele>
        <time>2015-08-20T12:13:48Z</time>
      </trkpt>
      <trkpt lat="43.36802" lon="-1.86457">
        <ele>96.749877929688</ele>
        <time>2015-08-20T12:14:04Z</time>
      </trkpt>
      <trkpt lat="43.36799" lon="-1.86454">
        <ele>97.711181640625</ele>
        <time>2015-08-20T12:14:19Z</time>
      </trkpt>
      <trkpt lat="43.36795" lon="-1.86458">
        <ele>97.711181640625</ele>
        <time>2015-08-20T12:14:32Z</time>
      </trkpt>
      <trkpt lat="43.36781" lon="-1.86459">
        <ele>100.11450195312</ele>
        <time>2015-08-20T12:14:47Z</time>
      </trkpt>
      <trkpt lat="43.36778" lon="-1.86457">
        <ele>102.037109375</ele>
        <time>2015-08-20T12:14:52Z</time>
      </trkpt>
      <trkpt lat="43.36774" lon="-1.86455">
        <ele>102.99829101562</ele>
        <time>2015-08-20T12:15:06Z</time>
      </trkpt>
      <trkpt lat="43.36781" lon="-1.86453">
        <ele>100.59509277344</ele>
        <time>2015-08-20T12:15:17Z</time>
      </trkpt>
      <trkpt lat="43.36784" lon="-1.86453">
        <ele>99.6337890625</ele>
        <time>2015-08-20T12:15:22Z</time>
      </trkpt>
      <trkpt lat="43.36788" lon="-1.86455">
        <ele>97.711181640625</ele>
        <time>2015-08-20T12:15:26Z</time>
      </trkpt>
      <trkpt lat="43.36798" lon="-1.86458">
        <ele>97.23046875</ele>
        <time>2015-08-20T12:15:39Z</time>
      </trkpt>
      <trkpt lat="43.36799" lon="-1.86449">
        <ele>99.153076171875</ele>
        <time>2015-08-20T12:15:53Z</time>
      </trkpt>
      <trkpt lat="43.36796" lon="-1.86438">
        <ele>102.51770019531</ele>
        <time>2015-08-20T12:16:10Z</time>
      </trkpt>
      <trkpt lat="43.36793" lon="-1.8644">
        <ele>102.99829101562</ele>
        <time>2015-08-20T12:16:25Z</time>
      </trkpt>
      <trkpt lat="43.36801" lon="-1.86439">
        <ele>103.47900390625</ele>
        <time>2015-08-20T12:16:58Z</time>
      </trkpt>
      <trkpt lat="43.36793" lon="-1.86431">
        <ele>105.88244628906</ele>
        <time>2015-08-20T12:17:10Z</time>
      </trkpt>
      <trkpt lat="43.3679" lon="-1.86421">
        <ele>109.24694824219</ele>
        <time>2015-08-20T12:17:24Z</time>
      </trkpt>
      <trkpt lat="43.36786" lon="-1.86412">
        <ele>111.16955566406</ele>
        <time>2015-08-20T12:17:38Z</time>
      </trkpt>
      <trkpt lat="43.36784" lon="-1.86402">
        <ele>114.05358886719</ele>
        <time>2015-08-20T12:17:52Z</time>
      </trkpt>
      <trkpt lat="43.36782" lon="-1.86393">
        <ele>116.9375</ele>
        <time>2015-08-20T12:18:06Z</time>
      </trkpt>
      <trkpt lat="43.3678" lon="-1.8638">
        <ele>118.37939453125</ele>
        <time>2015-08-20T12:18:21Z</time>
      </trkpt>
      <trkpt lat="43.36779" lon="-1.8637">
        <ele>121.744140625</ele>
        <time>2015-08-20T12:18:36Z</time>
      </trkpt>
      <trkpt lat="43.36779" lon="-1.8636">
        <ele>124.14733886719</ele>
        <time>2015-08-20T12:18:51Z</time>
      </trkpt>
      <trkpt lat="43.36778" lon="-1.86353">
        <ele>127.51196289062</ele>
        <time>2015-08-20T12:19:01Z</time>
      </trkpt>
      <trkpt lat="43.36768" lon="-1.86345">
        <ele>129.43469238281</ele>
        <time>2015-08-20T12:19:17Z</time>
      </trkpt>
      <trkpt lat="43.36756" lon="-1.86348">
        <ele>131.837890625</ele>
        <time>2015-08-20T12:19:33Z</time>
      </trkpt>
      <trkpt lat="43.36751" lon="-1.86351">
        <ele>132.79931640625</ele>
        <time>2015-08-20T12:20:08Z</time>
      </trkpt>
      <trkpt lat="43.36735" lon="-1.86352">
        <ele>133.76049804688</ele>
        <time>2015-08-20T12:20:26Z</time>
      </trkpt>
      <trkpt lat="43.36718" lon="-1.86357">
        <ele>134.2412109375</ele>
        <time>2015-08-20T12:20:46Z</time>
      </trkpt>
      <trkpt lat="43.36703" lon="-1.86372">
        <ele>135.68310546875</ele>
        <time>2015-08-20T12:21:02Z</time>
      </trkpt>
      <trkpt lat="43.36684" lon="-1.8638">
        <ele>137.12524414062</ele>
        <time>2015-08-20T12:21:22Z</time>
      </trkpt>
      <trkpt lat="43.36677" lon="-1.86382">
        <ele>138.56726074219</ele>
        <time>2015-08-20T12:21:29Z</time>
      </trkpt>
      <trkpt lat="43.36662" lon="-1.86386">
        <ele>139.52844238281</ele>
        <time>2015-08-20T12:21:44Z</time>
      </trkpt>
      <trkpt lat="43.36641" lon="-1.86386">
        <ele>141.45104980469</ele>
        <time>2015-08-20T12:22:02Z</time>
      </trkpt>
      <trkpt lat="43.36621" lon="-1.8638">
        <ele>144.33520507812</ele>
        <time>2015-08-20T12:22:23Z</time>
      </trkpt>
      <trkpt lat="43.36609" lon="-1.86377">
        <ele>147.21899414062</ele>
        <time>2015-08-20T12:22:37Z</time>
      </trkpt>
      <trkpt lat="43.36595" lon="-1.86374">
        <ele>149.62231445312</ele>
        <time>2015-08-20T12:22:52Z</time>
      </trkpt>
      <trkpt lat="43.36585" lon="-1.86371">
        <ele>150.58361816406</ele>
        <time>2015-08-20T12:23:05Z</time>
      </trkpt>
      <trkpt lat="43.36588" lon="-1.86365">
        <ele>151.544921875</ele>
        <time>2015-08-20T12:23:09Z</time>
      </trkpt>
      <trkpt lat="43.36587" lon="-1.86361">
        <ele>151.544921875</ele>
        <time>2015-08-20T12:23:21Z</time>
      </trkpt>
      <trkpt lat="43.36585" lon="-1.86365">
        <ele>151.544921875</ele>
        <time>2015-08-20T12:23:36Z</time>
      </trkpt>
      <trkpt lat="43.36588" lon="-1.86368">
        <ele>151.544921875</ele>
        <time>2015-08-20T12:24:12Z</time>
      </trkpt>
      <trkpt lat="43.36586" lon="-1.86366">
        <ele>152.02575683594</ele>
        <time>2015-08-20T12:24:42Z</time>
      </trkpt>
      <trkpt lat="43.36584" lon="-1.86365">
        <ele>152.02575683594</ele>
        <time>2015-08-20T12:25:21Z</time>
      </trkpt>
      <trkpt lat="43.36574" lon="-1.86369">
        <ele>152.02575683594</ele>
        <time>2015-08-20T12:25:38Z</time>
      </trkpt>
      <trkpt lat="43.36556" lon="-1.86368">
        <ele>154.42895507812</ele>
        <time>2015-08-20T12:25:58Z</time>
      </trkpt>
      <trkpt lat="43.3654" lon="-1.86368">
        <ele>156.3515625</ele>
        <time>2015-08-20T12:26:13Z</time>
      </trkpt>
      <trkpt lat="43.36537" lon="-1.86368">
        <ele>156.83215332031</ele>
        <time>2015-08-20T12:26:15Z</time>
      </trkpt>
      <trkpt lat="43.36523" lon="-1.86368">
        <ele>159.23547363281</ele>
        <time>2015-08-20T12:26:29Z</time>
      </trkpt>
      <trkpt lat="43.36506" lon="-1.86366">
        <ele>161.63891601562</ele>
        <time>2015-08-20T12:26:46Z</time>
      </trkpt>
      <trkpt lat="43.36488" lon="-1.86366">
        <ele>164.52270507812</ele>
        <time>2015-08-20T12:27:04Z</time>
      </trkpt>
      <trkpt lat="43.36471" lon="-1.86365">
        <ele>165.96472167969</ele>
        <time>2015-08-20T12:27:22Z</time>
      </trkpt>
      <trkpt lat="43.36455" lon="-1.86357">
        <ele>166.4453125</ele>
        <time>2015-08-20T12:27:38Z</time>
      </trkpt>
      <trkpt lat="43.36447" lon="-1.86351">
        <ele>166.4453125</ele>
        <time>2015-08-20T12:27:46Z</time>
      </trkpt>
      <trkpt lat="43.36426" lon="-1.8634">
        <ele>166.4453125</ele>
        <time>2015-08-20T12:28:05Z</time>
      </trkpt>
      <trkpt lat="43.36407" lon="-1.86334">
        <ele>166.4453125</ele>
        <time>2015-08-20T12:28:22Z</time>
      </trkpt>
      <trkpt lat="43.36387" lon="-1.86332">
        <ele>167.88732910156</ele>
        <time>2015-08-20T12:28:39Z</time>
      </trkpt>
      <trkpt lat="43.36367" lon="-1.86322">
        <ele>168.36804199219</ele>
        <time>2015-08-20T12:28:57Z</time>
      </trkpt>
      <trkpt lat="43.36347" lon="-1.86317">
        <ele>169.32946777344</ele>
        <time>2015-08-20T12:29:14Z</time>
      </trkpt>
      <trkpt lat="43.36334" lon="-1.86312">
        <ele>169.81005859375</ele>
        <time>2015-08-20T12:29:29Z</time>
      </trkpt>
      <trkpt lat="43.36319" lon="-1.86307">
        <ele>170.29064941406</ele>
        <time>2015-08-20T12:29:43Z</time>
      </trkpt>
      <trkpt lat="43.36302" lon="-1.863">
        <ele>170.29064941406</ele>
        <time>2015-08-20T12:29:58Z</time>
      </trkpt>
      <trkpt lat="43.36281" lon="-1.86293">
        <ele>171.73266601562</ele>
        <time>2015-08-20T12:30:18Z</time>
      </trkpt>
      <trkpt lat="43.3626" lon="-1.8629">
        <ele>173.17468261719</ele>
        <time>2015-08-20T12:30:36Z</time>
      </trkpt>
      <trkpt lat="43.36244" lon="-1.86282">
        <ele>176.53930664062</ele>
        <time>2015-08-20T12:30:51Z</time>
      </trkpt>
      <trkpt lat="43.36228" lon="-1.8627">
        <ele>178.94262695312</ele>
        <time>2015-08-20T12:31:08Z</time>
      </trkpt>
      <trkpt lat="43.36224" lon="-1.86266">
        <ele>178.94262695312</ele>
        <time>2015-08-20T12:31:12Z</time>
      </trkpt>
      <trkpt lat="43.3621" lon="-1.86248">
        <ele>180.38452148438</ele>
        <time>2015-08-20T12:31:30Z</time>
      </trkpt>
      <trkpt lat="43.3621" lon="-1.86247">
        <ele>180.865234375</ele>
        <time>2015-08-20T12:31:31Z</time>
      </trkpt>
      <trkpt lat="43.36197" lon="-1.86235">
        <ele>183.7490234375</ele>
        <time>2015-08-20T12:31:45Z</time>
      </trkpt>
      <trkpt lat="43.3618" lon="-1.86223">
        <ele>186.15246582031</ele>
        <time>2015-08-20T12:32:04Z</time>
      </trkpt>
      <trkpt lat="43.36171" lon="-1.86218">
        <ele>188.07507324219</ele>
        <time>2015-08-20T12:32:13Z</time>
      </trkpt>
      <trkpt lat="43.36152" lon="-1.86206">
        <ele>191.43957519531</ele>
        <time>2015-08-20T12:32:31Z</time>
      </trkpt>
      <trkpt lat="43.36126" lon="-1.86193">
        <ele>191.92028808594</ele>
        <time>2015-08-20T12:32:53Z</time>
      </trkpt>
      <trkpt lat="43.36108" lon="-1.86185">
        <ele>193.84301757812</ele>
        <time>2015-08-20T12:33:10Z</time>
      </trkpt>
      <trkpt lat="43.36104" lon="-1.8618">
        <ele>194.80432128906</ele>
        <time>2015-08-20T12:33:15Z</time>
      </trkpt>
      <trkpt lat="43.36081" lon="-1.86177">
        <ele>193.84301757812</ele>
        <time>2015-08-20T12:33:34Z</time>
      </trkpt>
      <trkpt lat="43.36055" lon="-1.86173">
        <ele>194.32373046875</ele>
        <time>2015-08-20T12:33:55Z</time>
      </trkpt>
      <trkpt lat="43.36028" lon="-1.86178">
        <ele>194.80432128906</ele>
        <time>2015-08-20T12:34:18Z</time>
      </trkpt>
      <trkpt lat="43.3601" lon="-1.86179">
        <ele>196.72692871094</ele>
        <time>2015-08-20T12:34:36Z</time>
      </trkpt>
      <trkpt lat="43.36006" lon="-1.86175">
        <ele>198.64953613281</ele>
        <time>2015-08-20T12:34:43Z</time>
      </trkpt>
      <trkpt lat="43.36003" lon="-1.86171">
        <ele>200.09167480469</ele>
        <time>2015-08-20T12:34:48Z</time>
      </trkpt>
      <trkpt lat="43.35998" lon="-1.86161">
        <ele>200.09167480469</ele>
        <time>2015-08-20T12:34:56Z</time>
      </trkpt>
      <trkpt lat="43.3599" lon="-1.86136">
        <ele>199.61083984375</ele>
        <time>2015-08-20T12:35:15Z</time>
      </trkpt>
      <trkpt lat="43.35996" lon="-1.86109">
        <ele>202.01428222656</ele>
        <time>2015-08-20T12:35:34Z</time>
      </trkpt>
      <trkpt lat="43.35996" lon="-1.86098">
        <ele>203.93688964844</ele>
        <time>2015-08-20T12:35:42Z</time>
      </trkpt>
      <trkpt lat="43.35996" lon="-1.86097">
        <ele>203.93688964844</ele>
        <time>2015-08-20T12:35:43Z</time>
      </trkpt>
      <trkpt lat="43.3599" lon="-1.86074">
        <ele>204.41748046875</ele>
        <time>2015-08-20T12:36:00Z</time>
      </trkpt>
      <trkpt lat="43.35988" lon="-1.86067">
        <ele>205.37878417969</ele>
        <time>2015-08-20T12:36:04Z</time>
      </trkpt>
      <trkpt lat="43.35974" lon="-1.8605">
        <ele>207.30139160156</ele>
        <time>2015-08-20T12:36:20Z</time>
      </trkpt>
      <trkpt lat="43.35968" lon="-1.86044">
        <ele>208.26281738281</ele>
        <time>2015-08-20T12:36:27Z</time>
      </trkpt>
      <trkpt lat="43.35949" lon="-1.86033">
        <ele>209.70483398438</ele>
        <time>2015-08-20T12:36:46Z</time>
      </trkpt>
      <trkpt lat="43.3594" lon="-1.8602">
        <ele>212.10803222656</ele>
        <time>2015-08-20T12:37:00Z</time>
      </trkpt>
      <trkpt lat="43.35923" lon="-1.86007">
        <ele>213.55004882812</ele>
        <time>2015-08-20T12:37:19Z</time>
      </trkpt>
      <trkpt lat="43.35909" lon="-1.85998">
        <ele>214.99194335938</ele>
        <time>2015-08-20T12:37:36Z</time>
      </trkpt>
      <trkpt lat="43.359" lon="-1.85986">
        <ele>217.39538574219</ele>
        <time>2015-08-20T12:37:54Z</time>
      </trkpt>
      <trkpt lat="43.35893" lon="-1.85973">
        <ele>220.27917480469</ele>
        <time>2015-08-20T12:38:08Z</time>
      </trkpt>
      <trkpt lat="43.35884" lon="-1.85956">
        <ele>223.64379882812</ele>
        <time>2015-08-20T12:38:27Z</time>
      </trkpt>
      <trkpt lat="43.35875" lon="-1.85945">
        <ele>227.00854492188</ele>
        <time>2015-08-20T12:38:40Z</time>
      </trkpt>
      <trkpt lat="43.35874" lon="-1.85941">
        <ele>227.48913574219</ele>
        <time>2015-08-20T12:38:44Z</time>
      </trkpt>
      <trkpt lat="43.3587" lon="-1.85929">
        <ele>229.89233398438</ele>
        <time>2015-08-20T12:38:56Z</time>
      </trkpt>
      <trkpt lat="43.35861" lon="-1.85912">
        <ele>232.29577636719</ele>
        <time>2015-08-20T12:39:16Z</time>
      </trkpt>
      <trkpt lat="43.35855" lon="-1.85902">
        <ele>233.73767089844</ele>
        <time>2015-08-20T12:39:45Z</time>
      </trkpt>
      <trkpt lat="43.35848" lon="-1.85892">
        <ele>237.10229492188</ele>
        <time>2015-08-20T12:39:56Z</time>
      </trkpt>
      <trkpt lat="43.35835" lon="-1.85884">
        <ele>240.46704101562</ele>
        <time>2015-08-20T12:40:13Z</time>
      </trkpt>
      <trkpt lat="43.35832" lon="-1.85882">
        <ele>241.42822265625</ele>
        <time>2015-08-20T12:40:17Z</time>
      </trkpt>
      <trkpt lat="43.3583" lon="-1.8588">
        <ele>241.42822265625</ele>
        <time>2015-08-20T12:40:20Z</time>
      </trkpt>
      <trkpt lat="43.35817" lon="-1.85873">
        <ele>244.79284667969</ele>
        <time>2015-08-20T12:40:36Z</time>
      </trkpt>
      <trkpt lat="43.35806" lon="-1.85867">
        <ele>245.75415039062</ele>
        <time>2015-08-20T12:40:48Z</time>
      </trkpt>
      <trkpt lat="43.35798" lon="-1.85862">
        <ele>248.63818359375</ele>
        <time>2015-08-20T12:40:59Z</time>
      </trkpt>
      <trkpt lat="43.35797" lon="-1.85861">
        <ele>249.11877441406</ele>
        <time>2015-08-20T12:41:00Z</time>
      </trkpt>
      <trkpt lat="43.35784" lon="-1.85849">
        <ele>252.00280761719</ele>
        <time>2015-08-20T12:41:17Z</time>
      </trkpt>
      <trkpt lat="43.3577" lon="-1.85838">
        <ele>255.36730957031</ele>
        <time>2015-08-20T12:41:35Z</time>
      </trkpt>
      <trkpt lat="43.35756" lon="-1.85831">
        <ele>257.77075195312</ele>
        <time>2015-08-20T12:41:52Z</time>
      </trkpt>
      <trkpt lat="43.35754" lon="-1.8583">
        <ele>259.21264648438</ele>
        <time>2015-08-20T12:41:55Z</time>
      </trkpt>
      <trkpt lat="43.35744" lon="-1.85825">
        <ele>262.09655761719</ele>
        <time>2015-08-20T12:42:08Z</time>
      </trkpt>
      <trkpt lat="43.35739" lon="-1.85823">
        <ele>263.05786132812</ele>
        <time>2015-08-20T12:42:24Z</time>
      </trkpt>
      <trkpt lat="43.35731" lon="-1.85822">
        <ele>264.98059082031</ele>
        <time>2015-08-20T12:43:03Z</time>
      </trkpt>
      <trkpt lat="43.35727" lon="-1.85819">
        <ele>266.42248535156</ele>
        <time>2015-08-20T12:43:34Z</time>
      </trkpt>
      <trkpt lat="43.35721" lon="-1.85815">
        <ele>268.82580566406</ele>
        <time>2015-08-20T12:43:51Z</time>
      </trkpt>
      <trkpt lat="43.35716" lon="-1.85811">
        <ele>269.787109375</ele>
        <time>2015-08-20T12:44:06Z</time>
      </trkpt>
      <trkpt lat="43.35706" lon="-1.85802">
        <ele>272.1904296875</ele>
        <time>2015-08-20T12:44:23Z</time>
      </trkpt>
      <trkpt lat="43.35701" lon="-1.85797">
        <ele>274.59375</ele>
        <time>2015-08-20T12:44:31Z</time>
      </trkpt>
      <trkpt lat="43.35688" lon="-1.8579">
        <ele>276.9970703125</ele>
        <time>2015-08-20T12:44:46Z</time>
      </trkpt>
      <trkpt lat="43.3568" lon="-1.85794">
        <ele>280.36169433594</ele>
        <time>2015-08-20T12:44:57Z</time>
      </trkpt>
      <trkpt lat="43.35671" lon="-1.85807">
        <ele>283.24560546875</ele>
        <time>2015-08-20T12:45:14Z</time>
      </trkpt>
      <trkpt lat="43.35662" lon="-1.85814">
        <ele>286.12951660156</ele>
        <time>2015-08-20T12:45:28Z</time>
      </trkpt>
      <trkpt lat="43.35649" lon="-1.85816">
        <ele>286.61022949219</ele>
        <time>2015-08-20T12:45:43Z</time>
      </trkpt>
      <trkpt lat="43.35643" lon="-1.85813">
        <ele>288.53295898438</ele>
        <time>2015-08-20T12:45:50Z</time>
      </trkpt>
      <trkpt lat="43.35633" lon="-1.85807">
        <ele>290.93615722656</ele>
        <time>2015-08-20T12:46:03Z</time>
      </trkpt>
      <trkpt lat="43.35621" lon="-1.858">
        <ele>292.85876464844</ele>
        <time>2015-08-20T12:46:18Z</time>
      </trkpt>
      <trkpt lat="43.3561" lon="-1.85793">
        <ele>296.22351074219</ele>
        <time>2015-08-20T12:46:33Z</time>
      </trkpt>
      <trkpt lat="43.35596" lon="-1.8579">
        <ele>297.66540527344</ele>
        <time>2015-08-20T12:46:49Z</time>
      </trkpt>
      <trkpt lat="43.35584" lon="-1.8579">
        <ele>301.02990722656</ele>
        <time>2015-08-20T12:47:04Z</time>
      </trkpt>
      <trkpt lat="43.35573" lon="-1.85792">
        <ele>304.39465332031</ele>
        <time>2015-08-20T12:47:17Z</time>
      </trkpt>
      <trkpt lat="43.35561" lon="-1.85791">
        <ele>307.27856445312</ele>
        <time>2015-08-20T12:47:34Z</time>
      </trkpt>
      <trkpt lat="43.35552" lon="-1.85789">
        <ele>310.16247558594</ele>
        <time>2015-08-20T12:47:47Z</time>
      </trkpt>
      <trkpt lat="43.35544" lon="-1.85775">
        <ele>313.04650878906</ele>
        <time>2015-08-20T12:48:04Z</time>
      </trkpt>
      <trkpt lat="43.35546" lon="-1.85757">
        <ele>314.96911621094</ele>
        <time>2015-08-20T12:48:20Z</time>
      </trkpt>
      <trkpt lat="43.3555" lon="-1.85743">
        <ele>318.33361816406</ele>
        <time>2015-08-20T12:48:36Z</time>
      </trkpt>
      <trkpt lat="43.35554" lon="-1.85725">
        <ele>321.69836425781</ele>
        <time>2015-08-20T12:48:53Z</time>
      </trkpt>
      <trkpt lat="43.35553" lon="-1.85707">
        <ele>324.1015625</ele>
        <time>2015-08-20T12:49:10Z</time>
      </trkpt>
      <trkpt lat="43.35552" lon="-1.85692">
        <ele>324.1015625</ele>
        <time>2015-08-20T12:49:22Z</time>
      </trkpt>
      <trkpt lat="43.35544" lon="-1.85668">
        <ele>326.5048828125</ele>
        <time>2015-08-20T12:49:40Z</time>
      </trkpt>
      <trkpt lat="43.35537" lon="-1.85651">
        <ele>327.94677734375</ele>
        <time>2015-08-20T12:49:55Z</time>
      </trkpt>
      <trkpt lat="43.35534" lon="-1.85636">
        <ele>327.94677734375</ele>
        <time>2015-08-20T12:50:10Z</time>
      </trkpt>
      <trkpt lat="43.35529" lon="-1.85636">
        <ele>328.42761230469</ele>
        <time>2015-08-20T12:50:21Z</time>
      </trkpt>
      <trkpt lat="43.35524" lon="-1.85623">
        <ele>330.35021972656</ele>
        <time>2015-08-20T12:50:33Z</time>
      </trkpt>
      <trkpt lat="43.3553" lon="-1.85641">
        <ele>328.90832519531</ele>
        <time>2015-08-20T12:50:50Z</time>
      </trkpt>
      <trkpt lat="43.35532" lon="-1.85643">
        <ele>327.94677734375</ele>
        <time>2015-08-20T12:51:07Z</time>
      </trkpt>
      <trkpt lat="43.35532" lon="-1.85643">
        <ele>328.90832519531</ele>
        <time>2015-08-20T12:51:38Z</time>
      </trkpt>
      <trkpt lat="43.35529" lon="-1.85633">
        <ele>330.35021972656</ele>
        <time>2015-08-20T12:51:56Z</time>
      </trkpt>
      <trkpt lat="43.35525" lon="-1.85626">
        <ele>330.35021972656</ele>
        <time>2015-08-20T12:52:11Z</time>
      </trkpt>
      <trkpt lat="43.35523" lon="-1.85614">
        <ele>331.3115234375</ele>
        <time>2015-08-20T12:52:27Z</time>
      </trkpt>
      <trkpt lat="43.35522" lon="-1.85606">
        <ele>331.79211425781</ele>
        <time>2015-08-20T12:52:33Z</time>
      </trkpt>
      <trkpt lat="43.3552" lon="-1.85583">
        <ele>334.67614746094</ele>
        <time>2015-08-20T12:52:51Z</time>
      </trkpt>
      <trkpt lat="43.35518" lon="-1.8556">
        <ele>337.07946777344</ele>
        <time>2015-08-20T12:53:10Z</time>
      </trkpt>
      <trkpt lat="43.35517" lon="-1.85542">
        <ele>337.07946777344</ele>
        <time>2015-08-20T12:53:25Z</time>
      </trkpt>
      <trkpt lat="43.35516" lon="-1.85523">
        <ele>340.44409179688</ele>
        <time>2015-08-20T12:53:40Z</time>
      </trkpt>
      <trkpt lat="43.35513" lon="-1.855">
        <ele>342.84729003906</ele>
        <time>2015-08-20T12:53:59Z</time>
      </trkpt>
      <trkpt lat="43.35506" lon="-1.85476">
        <ele>345.25061035156</ele>
        <time>2015-08-20T12:54:19Z</time>
      </trkpt>
      <trkpt lat="43.35502" lon="-1.85452">
        <ele>346.69262695312</ele>
        <time>2015-08-20T12:54:36Z</time>
      </trkpt>
      <trkpt lat="43.35507" lon="-1.85438">
        <ele>347.65393066406</ele>
        <time>2015-08-20T12:54:47Z</time>
      </trkpt>
      <trkpt lat="43.35516" lon="-1.85419">
        <ele>350.53784179688</ele>
        <time>2015-08-20T12:55:05Z</time>
      </trkpt>
      <trkpt lat="43.3552" lon="-1.85413">
        <ele>351.49914550781</ele>
        <time>2015-08-20T12:55:10Z</time>
      </trkpt>
      <trkpt lat="43.35532" lon="-1.85393">
        <ele>351.97985839844</ele>
        <time>2015-08-20T12:55:28Z</time>
      </trkpt>
      <trkpt lat="43.35544" lon="-1.8537">
        <ele>353.90258789062</ele>
        <time>2015-08-20T12:55:48Z</time>
      </trkpt>
      <trkpt lat="43.35553" lon="-1.85354">
        <ele>354.86376953125</ele>
        <time>2015-08-20T12:56:04Z</time>
      </trkpt>
      <trkpt lat="43.35559" lon="-1.85342">
        <ele>355.8251953125</ele>
        <time>2015-08-20T12:56:16Z</time>
      </trkpt>
      <trkpt lat="43.3556" lon="-1.85337">
        <ele>356.30578613281</ele>
        <time>2015-08-20T12:56:19Z</time>
      </trkpt>
      <trkpt lat="43.35567" lon="-1.85313">
        <ele>357.26708984375</ele>
        <time>2015-08-20T12:56:39Z</time>
      </trkpt>
      <trkpt lat="43.35569" lon="-1.85305">
        <ele>357.26708984375</ele>
        <time>2015-08-20T12:56:46Z</time>
      </trkpt>
      <trkpt lat="43.35561" lon="-1.85286">
        <ele>358.22839355469</ele>
        <time>2015-08-20T12:57:04Z</time>
      </trkpt>
      <trkpt lat="43.35554" lon="-1.8528">
        <ele>358.22839355469</ele>
        <time>2015-08-20T12:57:13Z</time>
      </trkpt>
      <trkpt lat="43.35539" lon="-1.85267">
        <ele>357.74780273438</ele>
        <time>2015-08-20T12:57:32Z</time>
      </trkpt>
      <trkpt lat="43.35537" lon="-1.85265">
        <ele>357.74780273438</ele>
        <time>2015-08-20T12:57:34Z</time>
      </trkpt>
      <trkpt lat="43.35534" lon="-1.85261">
        <ele>358.22839355469</ele>
        <time>2015-08-20T12:57:37Z</time>
      </trkpt>
      <trkpt lat="43.35512" lon="-1.85241">
        <ele>357.74780273438</ele>
        <time>2015-08-20T12:58:00Z</time>
      </trkpt>
      <trkpt lat="43.35493" lon="-1.85227">
        <ele>356.78637695312</ele>
        <time>2015-08-20T12:58:19Z</time>
      </trkpt>
      <trkpt lat="43.3547" lon="-1.85213">
        <ele>356.30578613281</ele>
        <time>2015-08-20T12:58:40Z</time>
      </trkpt>
      <trkpt lat="43.35449" lon="-1.85197">
        <ele>355.34448242188</ele>
        <time>2015-08-20T12:59:00Z</time>
      </trkpt>
      <trkpt lat="43.35429" lon="-1.85186">
        <ele>355.34448242188</ele>
        <time>2015-08-20T12:59:19Z</time>
      </trkpt>
      <trkpt lat="43.35417" lon="-1.85179">
        <ele>356.78637695312</ele>
        <time>2015-08-20T12:59:31Z</time>
      </trkpt>
      <trkpt lat="43.35399" lon="-1.85167">
        <ele>358.22839355469</ele>
        <time>2015-08-20T12:59:48Z</time>
      </trkpt>
      <trkpt lat="43.35384" lon="-1.85153">
        <ele>360.63171386719</ele>
        <time>2015-08-20T13:00:04Z</time>
      </trkpt>
      <trkpt lat="43.35376" lon="-1.85144">
        <ele>360.63171386719</ele>
        <time>2015-08-20T13:00:13Z</time>
      </trkpt>
      <trkpt lat="43.35374" lon="-1.85141">
        <ele>360.63171386719</ele>
        <time>2015-08-20T13:00:16Z</time>
      </trkpt>
      <trkpt lat="43.35352" lon="-1.85124">
        <ele>359.18969726562</ele>
        <time>2015-08-20T13:00:36Z</time>
      </trkpt>
      <trkpt lat="43.35331" lon="-1.85114">
        <ele>359.67041015625</ele>
        <time>2015-08-20T13:00:53Z</time>
      </trkpt>
      <trkpt lat="43.35318" lon="-1.85104">
        <ele>359.18969726562</ele>
        <time>2015-08-20T13:01:09Z</time>
      </trkpt>
      <trkpt lat="43.35306" lon="-1.8509">
        <ele>362.07373046875</ele>
        <time>2015-08-20T13:01:23Z</time>
      </trkpt>
      <trkpt lat="43.35296" lon="-1.85066">
        <ele>364.47692871094</ele>
        <time>2015-08-20T13:01:39Z</time>
      </trkpt>
      <trkpt lat="43.35286" lon="-1.8504">
        <ele>365.43835449219</ele>
        <time>2015-08-20T13:01:59Z</time>
      </trkpt>
      <trkpt lat="43.35279" lon="-1.85009">
        <ele>365.9189453125</ele>
        <time>2015-08-20T13:02:18Z</time>
      </trkpt>
      <trkpt lat="43.35277" lon="-1.84996">
        <ele>366.39953613281</ele>
        <time>2015-08-20T13:02:33Z</time>
      </trkpt>
      <trkpt lat="43.35284" lon="-1.84961">
        <ele>368.80297851562</ele>
        <time>2015-08-20T13:02:55Z</time>
      </trkpt>
      <trkpt lat="43.35291" lon="-1.84936">
        <ele>370.7255859375</ele>
        <time>2015-08-20T13:03:12Z</time>
      </trkpt>
      <trkpt lat="43.353" lon="-1.84912">
        <ele>373.12890625</ele>
        <time>2015-08-20T13:03:29Z</time>
      </trkpt>
      <trkpt lat="43.35311" lon="-1.84883">
        <ele>373.60949707031</ele>
        <time>2015-08-20T13:03:50Z</time>
      </trkpt>
      <trkpt lat="43.35313" lon="-1.84857">
        <ele>374.09008789062</ele>
        <time>2015-08-20T13:04:06Z</time>
      </trkpt>
      <trkpt lat="43.35311" lon="-1.84829">
        <ele>375.53210449219</ele>
        <time>2015-08-20T13:04:23Z</time>
      </trkpt>
      <trkpt lat="43.35303" lon="-1.84806">
        <ele>377.93542480469</ele>
        <time>2015-08-20T13:04:39Z</time>
      </trkpt>
      <trkpt lat="43.35297" lon="-1.84798">
        <ele>378.41613769531</ele>
        <time>2015-08-20T13:04:48Z</time>
      </trkpt>
      <trkpt lat="43.3528" lon="-1.84783">
        <ele>380.81945800781</ele>
        <time>2015-08-20T13:05:06Z</time>
      </trkpt>
      <trkpt lat="43.35266" lon="-1.84777">
        <ele>382.26135253906</ele>
        <time>2015-08-20T13:05:18Z</time>
      </trkpt>
      <trkpt lat="43.3524" lon="-1.84769">
        <ele>382.74206542969</ele>
        <time>2015-08-20T13:05:40Z</time>
      </trkpt>
      <trkpt lat="43.35219" lon="-1.8477">
        <ele>382.26135253906</ele>
        <time>2015-08-20T13:05:58Z</time>
      </trkpt>
      <trkpt lat="43.35193" lon="-1.84775">
        <ele>380.81945800781</ele>
        <time>2015-08-20T13:06:19Z</time>
      </trkpt>
      <trkpt lat="43.35189" lon="-1.84765">
        <ele>381.30004882812</ele>
        <time>2015-08-20T13:06:30Z</time>
      </trkpt>
      <trkpt lat="43.35199" lon="-1.84738">
        <ele>382.74206542969</ele>
        <time>2015-08-20T13:06:48Z</time>
      </trkpt>
      <trkpt lat="43.35205" lon="-1.84707">
        <ele>384.18408203125</ele>
        <time>2015-08-20T13:07:07Z</time>
      </trkpt>
      <trkpt lat="43.35207" lon="-1.84678">
        <ele>385.14538574219</ele>
        <time>2015-08-20T13:07:25Z</time>
      </trkpt>
      <trkpt lat="43.35216" lon="-1.84655">
        <ele>388.029296875</ele>
        <time>2015-08-20T13:07:42Z</time>
      </trkpt>
      <trkpt lat="43.35229" lon="-1.84626">
        <ele>388.51000976562</ele>
        <time>2015-08-20T13:08:03Z</time>
      </trkpt>
      <trkpt lat="43.35236" lon="-1.84602">
        <ele>390.4326171875</ele>
        <time>2015-08-20T13:08:19Z</time>
      </trkpt>
      <trkpt lat="43.35233" lon="-1.84576">
        <ele>392.35534667969</ele>
        <time>2015-08-20T13:08:36Z</time>
      </trkpt>
      <trkpt lat="43.35228" lon="-1.84548">
        <ele>393.79724121094</ele>
        <time>2015-08-20T13:08:54Z</time>
      </trkpt>
      <trkpt lat="43.35221" lon="-1.84512">
        <ele>396.68115234375</ele>
        <time>2015-08-20T13:09:16Z</time>
      </trkpt>
      <trkpt lat="43.35218" lon="-1.84482">
        <ele>399.08435058594</ele>
        <time>2015-08-20T13:09:35Z</time>
      </trkpt>
      <trkpt lat="43.35216" lon="-1.84454">
        <ele>401.00708007812</ele>
        <time>2015-08-20T13:09:55Z</time>
      </trkpt>
      <trkpt lat="43.35215" lon="-1.84445">
        <ele>401.48779296875</ele>
        <time>2015-08-20T13:10:14Z</time>
      </trkpt>
      <trkpt lat="43.35215" lon="-1.84421">
        <ele>402.44909667969</ele>
        <time>2015-08-20T13:10:30Z</time>
      </trkpt>
      <trkpt lat="43.35222" lon="-1.844">
        <ele>401.48779296875</ele>
        <time>2015-08-20T13:10:46Z</time>
      </trkpt>
      <trkpt lat="43.35222" lon="-1.84394">
        <ele>401.48779296875</ele>
        <time>2015-08-20T13:10:50Z</time>
      </trkpt>
      <trkpt lat="43.35233" lon="-1.84361">
        <ele>400.0458984375</ele>
        <time>2015-08-20T13:11:11Z</time>
      </trkpt>
      <trkpt lat="43.35246" lon="-1.84328">
        <ele>400.52648925781</ele>
        <time>2015-08-20T13:11:33Z</time>
      </trkpt>
      <trkpt lat="43.3525" lon="-1.84311">
        <ele>400.0458984375</ele>
        <time>2015-08-20T13:11:49Z</time>
      </trkpt>
      <trkpt lat="43.35248" lon="-1.8431">
        <ele>400.0458984375</ele>
        <time>2015-08-20T13:11:56Z</time>
      </trkpt>
      <trkpt lat="43.35247" lon="-1.84304">
        <ele>400.0458984375</ele>
        <time>2015-08-20T13:12:00Z</time>
      </trkpt>
      <trkpt lat="43.35248" lon="-1.84272">
        <ele>400.0458984375</ele>
        <time>2015-08-20T13:12:21Z</time>
      </trkpt>
      <trkpt lat="43.35258" lon="-1.8425">
        <ele>401.48779296875</ele>
        <time>2015-08-20T13:12:39Z</time>
      </trkpt>
      <trkpt lat="43.35267" lon="-1.84236">
        <ele>401.00708007812</ele>
        <time>2015-08-20T13:12:52Z</time>
      </trkpt>
      <trkpt lat="43.35288" lon="-1.84215">
        <ele>402.9296875</ele>
        <time>2015-08-20T13:13:15Z</time>
      </trkpt>
      <trkpt lat="43.35295" lon="-1.84212">
        <ele>403.89111328125</ele>
        <time>2015-08-20T13:13:30Z</time>
      </trkpt>
      <trkpt lat="43.35297" lon="-1.84208">
        <ele>404.37170410156</ele>
        <time>2015-08-20T13:13:34Z</time>
      </trkpt>
      <trkpt lat="43.35296" lon="-1.84196">
        <ele>404.85229492188</ele>
        <time>2015-08-20T13:13:50Z</time>
      </trkpt>
      <trkpt lat="43.35298" lon="-1.8419">
        <ele>404.85229492188</ele>
        <time>2015-08-20T13:14:00Z</time>
      </trkpt>
      <trkpt lat="43.35301" lon="-1.84183">
        <ele>404.85229492188</ele>
        <time>2015-08-20T13:14:15Z</time>
      </trkpt>
      <trkpt lat="43.35308" lon="-1.8418">
        <ele>404.85229492188</ele>
        <time>2015-08-20T13:14:22Z</time>
      </trkpt>
      <trkpt lat="43.35317" lon="-1.84171">
        <ele>405.3330078125</ele>
        <time>2015-08-20T13:14:32Z</time>
      </trkpt>
      <trkpt lat="43.35328" lon="-1.84159">
        <ele>405.3330078125</ele>
        <time>2015-08-20T13:14:47Z</time>
      </trkpt>
      <trkpt lat="43.35341" lon="-1.84133">
        <ele>406.29431152344</ele>
        <time>2015-08-20T13:15:07Z</time>
      </trkpt>
      <trkpt lat="43.35347" lon="-1.84121">
        <ele>406.77490234375</ele>
        <time>2015-08-20T13:15:16Z</time>
      </trkpt>
      <trkpt lat="43.35361" lon="-1.84101">
        <ele>407.736328125</ele>
        <time>2015-08-20T13:15:37Z</time>
      </trkpt>
      <trkpt lat="43.35365" lon="-1.84097">
        <ele>407.736328125</ele>
        <time>2015-08-20T13:15:55Z</time>
      </trkpt>
      <trkpt lat="43.35364" lon="-1.8409">
        <ele>408.21704101562</ele>
        <time>2015-08-20T13:16:10Z</time>
      </trkpt>
      <trkpt lat="43.35364" lon="-1.84082">
        <ele>408.21704101562</ele>
        <time>2015-08-20T13:16:26Z</time>
      </trkpt>
      <trkpt lat="43.35364" lon="-1.84088">
        <ele>408.69763183594</ele>
        <time>2015-08-20T13:17:02Z</time>
      </trkpt>
      <trkpt lat="43.35364" lon="-1.8409">
        <ele>408.69763183594</ele>
        <time>2015-08-20T13:17:24Z</time>
      </trkpt>
      <trkpt lat="43.35364" lon="-1.84091">
        <ele>409.17834472656</ele>
        <time>2015-08-20T13:18:18Z</time>
      </trkpt>
      <trkpt lat="43.35363" lon="-1.84088">
        <ele>409.65905761719</ele>
        <time>2015-08-20T13:18:52Z</time>
      </trkpt>
      <trkpt lat="43.35363" lon="-1.84089">
        <ele>407.736328125</ele>
        <time>2015-08-20T13:19:34Z</time>
      </trkpt>
      <trkpt lat="43.35366" lon="-1.84096">
        <ele>408.21704101562</ele>
        <time>2015-08-20T13:19:51Z</time>
      </trkpt>
      <trkpt lat="43.35376" lon="-1.84095">
        <ele>407.736328125</ele>
        <time>2015-08-20T13:20:07Z</time>
      </trkpt>
      <trkpt lat="43.35378" lon="-1.84094">
        <ele>407.25561523438</ele>
        <time>2015-08-20T13:20:09Z</time>
      </trkpt>
      <trkpt lat="43.35385" lon="-1.84091">
        <ele>406.77490234375</ele>
        <time>2015-08-20T13:20:25Z</time>
      </trkpt>
      <trkpt lat="43.35394" lon="-1.84092">
        <ele>405.3330078125</ele>
        <time>2015-08-20T13:20:39Z</time>
      </trkpt>
      <trkpt lat="43.35397" lon="-1.84089">
        <ele>404.37170410156</ele>
        <time>2015-08-20T13:20:45Z</time>
      </trkpt>
      <trkpt lat="43.35409" lon="-1.8408">
        <ele>403.89111328125</ele>
        <time>2015-08-20T13:21:02Z</time>
      </trkpt>
      <trkpt lat="43.35415" lon="-1.84069">
        <ele>403.41040039062</ele>
        <time>2015-08-20T13:21:21Z</time>
      </trkpt>
      <trkpt lat="43.35418" lon="-1.84069">
        <ele>402.44909667969</ele>
        <time>2015-08-20T13:21:53Z</time>
      </trkpt>
      <trkpt lat="43.35426" lon="-1.84064">
        <ele>401.96850585938</ele>
        <time>2015-08-20T13:22:09Z</time>
      </trkpt>
      <trkpt lat="43.35437" lon="-1.8406">
        <ele>400.0458984375</ele>
        <time>2015-08-20T13:22:23Z</time>
      </trkpt>
      <trkpt lat="43.35446" lon="-1.84057">
        <ele>399.08435058594</ele>
        <time>2015-08-20T13:22:39Z</time>
      </trkpt>
      <trkpt lat="43.35454" lon="-1.84052">
        <ele>398.12316894531</ele>
        <time>2015-08-20T13:23:00Z</time>
      </trkpt>
      <trkpt lat="43.35453" lon="-1.84046">
        <ele>399.56506347656</ele>
        <time>2015-08-20T13:23:18Z</time>
      </trkpt>
      <trkpt lat="43.35459" lon="-1.84047">
        <ele>398.12316894531</ele>
        <time>2015-08-20T13:23:40Z</time>
      </trkpt>
      <trkpt lat="43.35471" lon="-1.84041">
        <ele>397.16174316406</ele>
        <time>2015-08-20T13:23:57Z</time>
      </trkpt>
      <trkpt lat="43.3548" lon="-1.84039">
        <ele>396.20056152344</ele>
        <time>2015-08-20T13:24:13Z</time>
      </trkpt>
      <trkpt lat="43.35497" lon="-1.84037">
        <ele>394.27795410156</ele>
        <time>2015-08-20T13:24:33Z</time>
      </trkpt>
      <trkpt lat="43.35514" lon="-1.84028">
        <ele>394.75854492188</ele>
        <time>2015-08-20T13:24:51Z</time>
      </trkpt>
      <trkpt lat="43.35523" lon="-1.84023">
        <ele>393.79724121094</ele>
        <time>2015-08-20T13:25:00Z</time>
      </trkpt>
      <trkpt lat="43.35542" lon="-1.84011">
        <ele>391.39379882812</ele>
        <time>2015-08-20T13:25:19Z</time>
      </trkpt>
      <trkpt lat="43.35564" lon="-1.83993">
        <ele>390.4326171875</ele>
        <time>2015-08-20T13:25:42Z</time>
      </trkpt>
      <trkpt lat="43.35585" lon="-1.83979">
        <ele>389.47119140625</ele>
        <time>2015-08-20T13:26:02Z</time>
      </trkpt>
      <trkpt lat="43.35606" lon="-1.83962">
        <ele>388.99060058594</ele>
        <time>2015-08-20T13:26:23Z</time>
      </trkpt>
      <trkpt lat="43.35626" lon="-1.8395">
        <ele>388.99060058594</ele>
        <time>2015-08-20T13:26:42Z</time>
      </trkpt>
      <trkpt lat="43.35651" lon="-1.83933">
        <ele>388.99060058594</ele>
        <time>2015-08-20T13:27:06Z</time>
      </trkpt>
      <trkpt lat="43.35674" lon="-1.83915">
        <ele>388.029296875</ele>
        <time>2015-08-20T13:27:28Z</time>
      </trkpt>
      <trkpt lat="43.35694" lon="-1.83896">
        <ele>389.47119140625</ele>
        <time>2015-08-20T13:27:49Z</time>
      </trkpt>
      <trkpt lat="43.35706" lon="-1.8388">
        <ele>390.4326171875</ele>
        <time>2015-08-20T13:28:06Z</time>
      </trkpt>
      <trkpt lat="43.35712" lon="-1.83865">
        <ele>391.87451171875</ele>
        <time>2015-08-20T13:28:20Z</time>
      </trkpt>
      <trkpt lat="43.35725" lon="-1.83845">
        <ele>391.87451171875</ele>
        <time>2015-08-20T13:28:39Z</time>
      </trkpt>
      <trkpt lat="43.3573" lon="-1.83833">
        <ele>390.91320800781</ele>
        <time>2015-08-20T13:28:48Z</time>
      </trkpt>
      <trkpt lat="43.35732" lon="-1.83823">
        <ele>389.95190429688</ele>
        <time>2015-08-20T13:29:02Z</time>
      </trkpt>
      <trkpt lat="43.35743" lon="-1.83801">
        <ele>388.99060058594</ele>
        <time>2015-08-20T13:29:18Z</time>
      </trkpt>
      <trkpt lat="43.35758" lon="-1.83769">
        <ele>391.87451171875</ele>
        <time>2015-08-20T13:29:40Z</time>
      </trkpt>
      <trkpt lat="43.35768" lon="-1.83752">
        <ele>393.31652832031</ele>
        <time>2015-08-20T13:29:57Z</time>
      </trkpt>
      <trkpt lat="43.35774" lon="-1.83736">
        <ele>392.35534667969</ele>
        <time>2015-08-20T13:30:14Z</time>
      </trkpt>
      <trkpt lat="43.3578" lon="-1.83717">
        <ele>392.35534667969</ele>
        <time>2015-08-20T13:30:29Z</time>
      </trkpt>
      <trkpt lat="43.35787" lon="-1.8369">
        <ele>393.31652832031</ele>
        <time>2015-08-20T13:30:48Z</time>
      </trkpt>
      <trkpt lat="43.35792" lon="-1.83667">
        <ele>391.87451171875</ele>
        <time>2015-08-20T13:31:09Z</time>
      </trkpt>
      <trkpt lat="43.35793" lon="-1.83658">
        <ele>389.95190429688</ele>
        <time>2015-08-20T13:31:19Z</time>
      </trkpt>
      <trkpt lat="43.358" lon="-1.83628">
        <ele>388.029296875</ele>
        <time>2015-08-20T13:31:41Z</time>
      </trkpt>
      <trkpt lat="43.35806" lon="-1.83611">
        <ele>384.66479492188</ele>
        <time>2015-08-20T13:31:57Z</time>
      </trkpt>
      <trkpt lat="43.35814" lon="-1.83585">
        <ele>382.26135253906</ele>
        <time>2015-08-20T13:32:18Z</time>
      </trkpt>
      <trkpt lat="43.35822" lon="-1.8357">
        <ele>380.33874511719</ele>
        <time>2015-08-20T13:32:33Z</time>
      </trkpt>
      <trkpt lat="43.3584" lon="-1.83548">
        <ele>378.41613769531</ele>
        <time>2015-08-20T13:32:54Z</time>
      </trkpt>
      <trkpt lat="43.35857" lon="-1.83523">
        <ele>375.53210449219</ele>
        <time>2015-08-20T13:33:16Z</time>
      </trkpt>
      <trkpt lat="43.3587" lon="-1.835">
        <ele>376.01281738281</ele>
        <time>2015-08-20T13:33:36Z</time>
      </trkpt>
      <trkpt lat="43.35874" lon="-1.83479">
        <ele>376.49353027344</ele>
        <time>2015-08-20T13:33:54Z</time>
      </trkpt>
      <trkpt lat="43.35889" lon="-1.83455">
        <ele>376.49353027344</ele>
        <time>2015-08-20T13:34:16Z</time>
      </trkpt>
      <trkpt lat="43.35902" lon="-1.83437">
        <ele>376.01281738281</ele>
        <time>2015-08-20T13:34:35Z</time>
      </trkpt>
      <trkpt lat="43.35906" lon="-1.83421">
        <ele>376.49353027344</ele>
        <time>2015-08-20T13:34:52Z</time>
      </trkpt>
      <trkpt lat="43.3591" lon="-1.83413">
        <ele>373.12890625</ele>
        <time>2015-08-20T13:35:06Z</time>
      </trkpt>
      <trkpt lat="43.35917" lon="-1.83398">
        <ele>370.24487304688</ele>
        <time>2015-08-20T13:35:22Z</time>
      </trkpt>
      <trkpt lat="43.35931" lon="-1.83377">
        <ele>367.36096191406</ele>
        <time>2015-08-20T13:35:42Z</time>
      </trkpt>
      <trkpt lat="43.35945" lon="-1.83352">
        <ele>366.39953613281</ele>
        <time>2015-08-20T13:36:03Z</time>
      </trkpt>
      <trkpt lat="43.35959" lon="-1.8333">
        <ele>365.43835449219</ele>
        <time>2015-08-20T13:36:21Z</time>
      </trkpt>
      <trkpt lat="43.35973" lon="-1.83308">
        <ele>367.36096191406</ele>
        <time>2015-08-20T13:36:42Z</time>
      </trkpt>
      <trkpt lat="43.35985" lon="-1.83287">
        <ele>368.80297851562</ele>
        <time>2015-08-20T13:37:02Z</time>
      </trkpt>
      <trkpt lat="43.35995" lon="-1.83266">
        <ele>370.24487304688</ele>
        <time>2015-08-20T13:37:20Z</time>
      </trkpt>
      <trkpt lat="43.36005" lon="-1.83237">
        <ele>371.20629882812</ele>
        <time>2015-08-20T13:37:41Z</time>
      </trkpt>
      <trkpt lat="43.3602" lon="-1.83207">
        <ele>373.60949707031</ele>
        <time>2015-08-20T13:38:04Z</time>
      </trkpt>
      <trkpt lat="43.36038" lon="-1.8318">
        <ele>374.57080078125</ele>
        <time>2015-08-20T13:38:27Z</time>
      </trkpt>
      <trkpt lat="43.3606" lon="-1.83157">
        <ele>375.53210449219</ele>
        <time>2015-08-20T13:38:52Z</time>
      </trkpt>
      <trkpt lat="43.36081" lon="-1.83136">
        <ele>376.97424316406</ele>
        <time>2015-08-20T13:39:15Z</time>
      </trkpt>
      <trkpt lat="43.361" lon="-1.83115">
        <ele>377.93542480469</ele>
        <time>2015-08-20T13:39:36Z</time>
      </trkpt>
      <trkpt lat="43.36116" lon="-1.83096">
        <ele>379.85803222656</ele>
        <time>2015-08-20T13:39:55Z</time>
      </trkpt>
      <trkpt lat="43.3613" lon="-1.83071">
        <ele>378.89685058594</ele>
        <time>2015-08-20T13:40:15Z</time>
      </trkpt>
      <trkpt lat="43.36141" lon="-1.83043">
        <ele>379.37744140625</ele>
        <time>2015-08-20T13:40:36Z</time>
      </trkpt>
      <trkpt lat="43.36147" lon="-1.83028">
        <ele>378.89685058594</ele>
        <time>2015-08-20T13:40:49Z</time>
      </trkpt>
      <trkpt lat="43.36145" lon="-1.83011">
        <ele>381.30004882812</ele>
        <time>2015-08-20T13:41:07Z</time>
      </trkpt>
      <trkpt lat="43.36144" lon="-1.83009">
        <ele>379.85803222656</ele>
        <time>2015-08-20T13:41:25Z</time>
      </trkpt>
      <trkpt lat="43.36143" lon="-1.83008">
        <ele>380.33874511719</ele>
        <time>2015-08-20T13:41:44Z</time>
      </trkpt>
      <trkpt lat="43.36143" lon="-1.8301">
        <ele>380.33874511719</ele>
        <time>2015-08-20T13:47:55Z</time>
      </trkpt>
      <trkpt lat="43.36142" lon="-1.83008">
        <ele>379.85803222656</ele>
        <time>2015-08-20T13:49:10Z</time>
      </trkpt>
      <trkpt lat="43.36142" lon="-1.83009">
        <ele>379.85803222656</ele>
        <time>2015-08-20T13:49:30Z</time>
      </trkpt>
      <trkpt lat="43.36144" lon="-1.83008">
        <ele>379.37744140625</ele>
        <time>2015-08-20T13:50:06Z</time>
      </trkpt>
      <trkpt lat="43.36144" lon="-1.83007">
        <ele>380.33874511719</ele>
        <time>2015-08-20T13:50:41Z</time>
      </trkpt>
      <trkpt lat="43.36144" lon="-1.83008">
        <ele>378.41613769531</ele>
        <time>2015-08-20T13:51:23Z</time>
      </trkpt>
      <trkpt lat="43.36144" lon="-1.83009">
        <ele>379.37744140625</ele>
        <time>2015-08-20T13:52:51Z</time>
      </trkpt>
      <trkpt lat="43.36146" lon="-1.83007">
        <ele>379.37744140625</ele>
        <time>2015-08-20T13:53:19Z</time>
      </trkpt>
      <trkpt lat="43.36145" lon="-1.83009">
        <ele>379.85803222656</ele>
        <time>2015-08-20T13:53:56Z</time>
      </trkpt>
      <trkpt lat="43.36143" lon="-1.83008">
        <ele>381.30004882812</ele>
        <time>2015-08-20T14:02:58Z</time>
      </trkpt>
      <trkpt lat="43.36142" lon="-1.83008">
        <ele>380.33874511719</ele>
        <time>2015-08-20T14:03:23Z</time>
      </trkpt>
      <trkpt lat="43.36142" lon="-1.83008">
        <ele>376.49353027344</ele>
        <time>2015-08-20T14:03:24Z</time>
      </trkpt>
      <trkpt lat="43.36142" lon="-1.83008">
        <ele>383.22265625</ele>
        <time>2015-08-20T14:03:25Z</time>
      </trkpt>
      <trkpt lat="43.36142" lon="-1.83008">
        <ele>379.85803222656</ele>
        <time>2015-08-20T14:03:28Z</time>
      </trkpt>
      <trkpt lat="43.36142" lon="-1.83008">
        <ele>381.30004882812</ele>
        <time>2015-08-20T14:03:46Z</time>
      </trkpt>
      <trkpt lat="43.36142" lon="-1.83007">
        <ele>381.78063964844</ele>
        <time>2015-08-20T14:03:53Z</time>
      </trkpt>
      <trkpt lat="43.36142" lon="-1.83007">
        <ele>381.30004882812</ele>
        <time>2015-08-20T14:03:55Z</time>
      </trkpt>
      <trkpt lat="43.36145" lon="-1.83015">
        <ele>380.33874511719</ele>
        <time>2015-08-20T14:04:10Z</time>
      </trkpt>
      <trkpt lat="43.36148" lon="-1.83024">
        <ele>377.93542480469</ele>
        <time>2015-08-20T14:04:25Z</time>
      </trkpt>
      <trkpt lat="43.36156" lon="-1.83016">
        <ele>376.97424316406</ele>
        <time>2015-08-20T14:04:41Z</time>
      </trkpt>
      <trkpt lat="43.36161" lon="-1.82999">
        <ele>375.05151367188</ele>
        <time>2015-08-20T14:04:59Z</time>
      </trkpt>
      <trkpt lat="43.36164" lon="-1.82983">
        <ele>371.68688964844</ele>
        <time>2015-08-20T14:05:16Z</time>
      </trkpt>
      <trkpt lat="43.36167" lon="-1.82973">
        <ele>371.20629882812</ele>
        <time>2015-08-20T14:05:30Z</time>
      </trkpt>
      <trkpt lat="43.36173" lon="-1.82961">
        <ele>368.80297851562</ele>
        <time>2015-08-20T14:05:46Z</time>
      </trkpt>
      <trkpt lat="43.36174" lon="-1.82951">
        <ele>366.39953613281</ele>
        <time>2015-08-20T14:06:02Z</time>
      </trkpt>
      <trkpt lat="43.3618" lon="-1.82942">
        <ele>364.47692871094</ele>
        <time>2015-08-20T14:06:19Z</time>
      </trkpt>
      <trkpt lat="43.36188" lon="-1.82934">
        <ele>362.55432128906</ele>
        <time>2015-08-20T14:06:37Z</time>
      </trkpt>
      <trkpt lat="43.36194" lon="-1.82926">
        <ele>360.63171386719</ele>
        <time>2015-08-20T14:06:52Z</time>
      </trkpt>
      <trkpt lat="43.36201" lon="-1.82916">
        <ele>357.26708984375</ele>
        <time>2015-08-20T14:07:05Z</time>
      </trkpt>
      <trkpt lat="43.36212" lon="-1.82902">
        <ele>354.38317871094</ele>
        <time>2015-08-20T14:07:25Z</time>
      </trkpt>
      <trkpt lat="43.36225" lon="-1.82889">
        <ele>352.46057128906</ele>
        <time>2015-08-20T14:07:45Z</time>
      </trkpt>
      <trkpt lat="43.36226" lon="-1.82888">
        <ele>352.46057128906</ele>
        <time>2015-08-20T14:07:46Z</time>
      </trkpt>
      <trkpt lat="43.36243" lon="-1.82879">
        <ele>349.09582519531</ele>
        <time>2015-08-20T14:08:05Z</time>
      </trkpt>
      <trkpt lat="43.36258" lon="-1.8287">
        <ele>347.65393066406</ele>
        <time>2015-08-20T14:08:25Z</time>
      </trkpt>
      <trkpt lat="43.36264" lon="-1.82864">
        <ele>345.25061035156</ele>
        <time>2015-08-20T14:08:35Z</time>
      </trkpt>
      <trkpt lat="43.36274" lon="-1.82858">
        <ele>342.36669921875</ele>
        <time>2015-08-20T14:08:49Z</time>
      </trkpt>
      <trkpt lat="43.36288" lon="-1.82848">
        <ele>339.00207519531</ele>
        <time>2015-08-20T14:09:10Z</time>
      </trkpt>
      <trkpt lat="43.36299" lon="-1.82841">
        <ele>335.63732910156</ele>
        <time>2015-08-20T14:09:25Z</time>
      </trkpt>
      <trkpt lat="43.36312" lon="-1.82833">
        <ele>332.75354003906</ele>
        <time>2015-08-20T14:09:44Z</time>
      </trkpt>
      <trkpt lat="43.36327" lon="-1.82821">
        <ele>329.86950683594</ele>
        <time>2015-08-20T14:10:03Z</time>
      </trkpt>
      <trkpt lat="43.36334" lon="-1.8281">
        <ele>327.46618652344</ele>
        <time>2015-08-20T14:10:15Z</time>
      </trkpt>
      <trkpt lat="43.36344" lon="-1.82793">
        <ele>325.06298828125</ele>
        <time>2015-08-20T14:10:33Z</time>
      </trkpt>
      <trkpt lat="43.36358" lon="-1.82778">
        <ele>324.1015625</ele>
        <time>2015-08-20T14:10:50Z</time>
      </trkpt>
      <trkpt lat="43.36369" lon="-1.82769">
        <ele>326.98559570312</ele>
        <time>2015-08-20T14:11:05Z</time>
      </trkpt>
      <trkpt lat="43.3637" lon="-1.82768">
        <ele>324.1015625</ele>
        <time>2015-08-20T14:11:06Z</time>
      </trkpt>
      <trkpt lat="43.36371" lon="-1.82767">
        <ele>323.14038085938</ele>
        <time>2015-08-20T14:11:08Z</time>
      </trkpt>
      <trkpt lat="43.36383" lon="-1.82761">
        <ele>319.77563476562</ele>
        <time>2015-08-20T14:11:23Z</time>
      </trkpt>
      <trkpt lat="43.36388" lon="-1.82762">
        <ele>318.81433105469</ele>
        <time>2015-08-20T14:11:28Z</time>
      </trkpt>
      <trkpt lat="43.36398" lon="-1.82749">
        <ele>317.37243652344</ele>
        <time>2015-08-20T14:11:43Z</time>
      </trkpt>
      <trkpt lat="43.36413" lon="-1.82724">
        <ele>314.48840332031</ele>
        <time>2015-08-20T14:12:05Z</time>
      </trkpt>
      <trkpt lat="43.36424" lon="-1.827">
        <ele>313.52722167969</ele>
        <time>2015-08-20T14:12:27Z</time>
      </trkpt>
      <trkpt lat="43.36429" lon="-1.82692">
        <ele>311.6044921875</ele>
        <time>2015-08-20T14:12:42Z</time>
      </trkpt>
      <trkpt lat="43.36431" lon="-1.82691">
        <ele>312.08520507812</ele>
        <time>2015-08-20T14:12:55Z</time>
      </trkpt>
      <trkpt lat="43.36432" lon="-1.8269">
        <ele>311.6044921875</ele>
        <time>2015-08-20T14:13:15Z</time>
      </trkpt>
      <trkpt lat="43.36435" lon="-1.82685">
        <ele>311.12377929688</ele>
        <time>2015-08-20T14:13:34Z</time>
      </trkpt>
      <trkpt lat="43.36441" lon="-1.82672">
        <ele>308.23986816406</ele>
        <time>2015-08-20T14:13:53Z</time>
      </trkpt>
      <trkpt lat="43.36443" lon="-1.82665">
        <ele>306.31726074219</ele>
        <time>2015-08-20T14:14:08Z</time>
      </trkpt>
      <trkpt lat="43.36442" lon="-1.82658">
        <ele>303.43322753906</ele>
        <time>2015-08-20T14:14:22Z</time>
      </trkpt>
      <trkpt lat="43.3644" lon="-1.82647">
        <ele>300.54931640625</ele>
        <time>2015-08-20T14:14:41Z</time>
      </trkpt>
      <trkpt lat="43.36443" lon="-1.82639">
        <ele>296.7041015625</ele>
        <time>2015-08-20T14:14:55Z</time>
      </trkpt>
      <trkpt lat="43.36453" lon="-1.82633">
        <ele>293.33935546875</ele>
        <time>2015-08-20T14:15:11Z</time>
      </trkpt>
      <trkpt lat="43.36456" lon="-1.82622">
        <ele>289.494140625</ele>
        <time>2015-08-20T14:15:24Z</time>
      </trkpt>
      <trkpt lat="43.36456" lon="-1.82615">
        <ele>287.0908203125</ele>
        <time>2015-08-20T14:15:31Z</time>
      </trkpt>
      <trkpt lat="43.36456" lon="-1.82604">
        <ele>283.72619628906</ele>
        <time>2015-08-20T14:15:42Z</time>
      </trkpt>
      <trkpt lat="43.36459" lon="-1.82594">
        <ele>280.84240722656</ele>
        <time>2015-08-20T14:15:57Z</time>
      </trkpt>
      <trkpt lat="43.36466" lon="-1.82591">
        <ele>277.47766113281</ele>
        <time>2015-08-20T14:16:07Z</time>
      </trkpt>
      <trkpt lat="43.36474" lon="-1.82588">
        <ele>275.07446289062</ele>
        <time>2015-08-20T14:16:22Z</time>
      </trkpt>
      <trkpt lat="43.36478" lon="-1.82585">
        <ele>271.70971679688</ele>
        <time>2015-08-20T14:16:32Z</time>
      </trkpt>
      <trkpt lat="43.36481" lon="-1.82584">
        <ele>270.74841308594</ele>
        <time>2015-08-20T14:16:36Z</time>
      </trkpt>
      <trkpt lat="43.36479" lon="-1.82573">
        <ele>267.86450195312</ele>
        <time>2015-08-20T14:16:50Z</time>
      </trkpt>
      <trkpt lat="43.36479" lon="-1.82568">
        <ele>264.98059082031</ele>
        <time>2015-08-20T14:16:56Z</time>
      </trkpt>
      <trkpt lat="43.36477" lon="-1.82561">
        <ele>263.05786132812</ele>
        <time>2015-08-20T14:17:05Z</time>
      </trkpt>
      <trkpt lat="43.36482" lon="-1.82555">
        <ele>259.693359375</ele>
        <time>2015-08-20T14:17:15Z</time>
      </trkpt>
      <trkpt lat="43.36492" lon="-1.82548">
        <ele>256.32873535156</ele>
        <time>2015-08-20T14:17:30Z</time>
      </trkpt>
      <trkpt lat="43.36493" lon="-1.82547">
        <ele>256.32873535156</ele>
        <time>2015-08-20T14:17:32Z</time>
      </trkpt>
      <trkpt lat="43.36492" lon="-1.82543">
        <ele>254.88659667969</ele>
        <time>2015-08-20T14:17:35Z</time>
      </trkpt>
      <trkpt lat="43.36492" lon="-1.82543">
        <ele>254.88659667969</ele>
        <time>2015-08-20T14:17:36Z</time>
      </trkpt>
      <trkpt lat="43.36499" lon="-1.82536">
        <ele>252.4833984375</ele>
        <time>2015-08-20T14:17:47Z</time>
      </trkpt>
      <trkpt lat="43.36505" lon="-1.82524">
        <ele>248.63818359375</ele>
        <time>2015-08-20T14:18:01Z</time>
      </trkpt>
      <trkpt lat="43.36509" lon="-1.82519">
        <ele>246.71545410156</ele>
        <time>2015-08-20T14:18:07Z</time>
      </trkpt>
      <trkpt lat="43.36512" lon="-1.82513">
        <ele>244.31225585938</ele>
        <time>2015-08-20T14:18:15Z</time>
      </trkpt>
      <trkpt lat="43.36514" lon="-1.82507">
        <ele>242.87023925781</ele>
        <time>2015-08-20T14:18:30Z</time>
      </trkpt>
      <trkpt lat="43.36522" lon="-1.82499">
        <ele>239.02490234375</ele>
        <time>2015-08-20T14:18:44Z</time>
      </trkpt>
      <trkpt lat="43.36531" lon="-1.82484">
        <ele>236.14099121094</ele>
        <time>2015-08-20T14:19:03Z</time>
      </trkpt>
      <trkpt lat="43.36538" lon="-1.82475">
        <ele>233.25708007812</ele>
        <time>2015-08-20T14:19:13Z</time>
      </trkpt>
      <trkpt lat="43.36553" lon="-1.82465">
        <ele>230.85375976562</ele>
        <time>2015-08-20T14:19:36Z</time>
      </trkpt>
      <trkpt lat="43.36556" lon="-1.82463">
        <ele>228.45043945312</ele>
        <time>2015-08-20T14:19:51Z</time>
      </trkpt>
      <trkpt lat="43.36557" lon="-1.82462">
        <ele>228.45043945312</ele>
        <time>2015-08-20T14:20:10Z</time>
      </trkpt>
      <trkpt lat="43.36556" lon="-1.82461">
        <ele>228.45043945312</ele>
        <time>2015-08-20T14:20:28Z</time>
      </trkpt>
      <trkpt lat="43.36558" lon="-1.82457">
        <ele>226.52783203125</ele>
        <time>2015-08-20T14:21:04Z</time>
      </trkpt>
      <trkpt lat="43.36562" lon="-1.82455">
        <ele>227.48913574219</ele>
        <time>2015-08-20T14:21:18Z</time>
      </trkpt>
      <trkpt lat="43.36564" lon="-1.82454">
        <ele>225.56652832031</ele>
        <time>2015-08-20T14:21:47Z</time>
      </trkpt>
      <trkpt lat="43.36565" lon="-1.82453">
        <ele>224.60522460938</ele>
        <time>2015-08-20T14:21:49Z</time>
      </trkpt>
      <trkpt lat="43.3657" lon="-1.82448">
        <ele>222.20178222656</ele>
        <time>2015-08-20T14:22:05Z</time>
      </trkpt>
      <trkpt lat="43.36573" lon="-1.82444">
        <ele>218.35656738281</ele>
        <time>2015-08-20T14:22:18Z</time>
      </trkpt>
      <trkpt lat="43.36577" lon="-1.82434">
        <ele>217.39538574219</ele>
        <time>2015-08-20T14:22:31Z</time>
      </trkpt>
      <trkpt lat="43.36582" lon="-1.82432">
        <ele>216.43395996094</ele>
        <time>2015-08-20T14:22:46Z</time>
      </trkpt>
      <trkpt lat="43.36592" lon="-1.82402">
        <ele>215.47265625</ele>
        <time>2015-08-20T14:23:08Z</time>
      </trkpt>
      <trkpt lat="43.36607" lon="-1.82364">
        <ele>214.51123046875</ele>
        <time>2015-08-20T14:23:33Z</time>
      </trkpt>
      <trkpt lat="43.3662" lon="-1.82334">
        <ele>213.0693359375</ele>
        <time>2015-08-20T14:23:54Z</time>
      </trkpt>
      <trkpt lat="43.36635" lon="-1.823">
        <ele>213.0693359375</ele>
        <time>2015-08-20T14:24:18Z</time>
      </trkpt>
      <trkpt lat="43.36641" lon="-1.82269">
        <ele>211.62744140625</ele>
        <time>2015-08-20T14:24:39Z</time>
      </trkpt>
      <trkpt lat="43.36648" lon="-1.82236">
        <ele>209.70483398438</ele>
        <time>2015-08-20T14:25:01Z</time>
      </trkpt>
      <trkpt lat="43.36656" lon="-1.82204">
        <ele>206.82067871094</ele>
        <time>2015-08-20T14:25:22Z</time>
      </trkpt>
      <trkpt lat="43.36677" lon="-1.82186">
        <ele>203.93688964844</ele>
        <time>2015-08-20T14:25:43Z</time>
      </trkpt>
      <trkpt lat="43.36702" lon="-1.82177">
        <ele>202.01428222656</ele>
        <time>2015-08-20T14:26:06Z</time>
      </trkpt>
      <trkpt lat="43.36709" lon="-1.82167">
        <ele>201.53356933594</ele>
        <time>2015-08-20T14:26:21Z</time>
      </trkpt>
      <trkpt lat="43.3673" lon="-1.82154">
        <ele>201.53356933594</ele>
        <time>2015-08-20T14:26:40Z</time>
      </trkpt>
      <trkpt lat="43.3675" lon="-1.82133">
        <ele>202.49487304688</ele>
        <time>2015-08-20T14:27:02Z</time>
      </trkpt>
      <trkpt lat="43.36769" lon="-1.82115">
        <ele>204.89807128906</ele>
        <time>2015-08-20T14:27:22Z</time>
      </trkpt>
      <trkpt lat="43.36792" lon="-1.82112">
        <ele>203.93688964844</ele>
        <time>2015-08-20T14:27:42Z</time>
      </trkpt>
      <trkpt lat="43.36807" lon="-1.82099">
        <ele>203.45617675781</ele>
        <time>2015-08-20T14:27:59Z</time>
      </trkpt>
      <trkpt lat="43.36815" lon="-1.82091">
        <ele>203.45617675781</ele>
        <time>2015-08-20T14:28:10Z</time>
      </trkpt>
    </trkseg>
  </trk>
</gpx>